<?xml version="1.0" encoding="UTF-8" standalone="no" ?>
<gpx xmlns="http://www.topografix.com/GPX/1/1" xmlns:xsi="http://www.w3.org/2001/XMLSchema-instance" xsi:schemaLocation="http://www.topografix.com/GPX/1/1 http://www.topografix.com/GPX/1/1/gpx.xsd" version="1.1" creator="VisuGPX - https://www.visugpx.com">
  <metadata>
    <name>26km 700d </name>
  </metadata>
  <trk>
    <name><![CDATA[26km 700d _1]]></name>
    <trkseg>
      <trkpt lat="44.56704" lon="4.22843">
        <ele>425.3</ele>
      </trkpt>
      <trkpt lat="44.56704" lon="4.22843">
        <ele>425.3</ele>
      </trkpt>
      <trkpt lat="44.56704" lon="4.22843">
        <ele>425.3</ele>
      </trkpt>
      <trkpt lat="44.56704" lon="4.22843">
        <ele>425.3</ele>
      </trkpt>
      <trkpt lat="44.56653" lon="4.22786">
        <ele>419.1</ele>
      </trkpt>
      <trkpt lat="44.56655" lon="4.22747">
        <ele>420.4</ele>
      </trkpt>
      <trkpt lat="44.56659" lon="4.22708">
        <ele>422</ele>
      </trkpt>
      <trkpt lat="44.56648" lon="4.2267">
        <ele>421.6</ele>
      </trkpt>
      <trkpt lat="44.56641" lon="4.22625">
        <ele>422.8</ele>
      </trkpt>
      <trkpt lat="44.56634" lon="4.22571">
        <ele>423.7</ele>
      </trkpt>
      <trkpt lat="44.56641" lon="4.22526">
        <ele>425</ele>
      </trkpt>
      <trkpt lat="44.5666" lon="4.22443">
        <ele>422.8</ele>
      </trkpt>
      <trkpt lat="44.56677" lon="4.22419">
        <ele>422.9</ele>
      </trkpt>
      <trkpt lat="44.56681" lon="4.22392">
        <ele>421.9</ele>
      </trkpt>
      <trkpt lat="44.56667" lon="4.22354">
        <ele>418</ele>
      </trkpt>
      <trkpt lat="44.5665" lon="4.22328">
        <ele>416.5</ele>
      </trkpt>
      <trkpt lat="44.56634" lon="4.22301">
        <ele>417.2</ele>
      </trkpt>
      <trkpt lat="44.56623" lon="4.22291">
        <ele>417.5</ele>
      </trkpt>
      <trkpt lat="44.56559" lon="4.22271">
        <ele>420.3</ele>
      </trkpt>
      <trkpt lat="44.56532" lon="4.22284">
        <ele>421.3</ele>
      </trkpt>
      <trkpt lat="44.56488" lon="4.22355">
        <ele>416</ele>
      </trkpt>
      <trkpt lat="44.56468" lon="4.22349">
        <ele>415.6</ele>
      </trkpt>
      <trkpt lat="44.56455" lon="4.22328">
        <ele>416.2</ele>
      </trkpt>
      <trkpt lat="44.56472" lon="4.22253">
        <ele>423.7</ele>
      </trkpt>
      <trkpt lat="44.56461" lon="4.22208">
        <ele>423.9</ele>
      </trkpt>
      <trkpt lat="44.56463" lon="4.22194">
        <ele>424.6</ele>
        <time>2009-10-18T10:23:51Z</time>
      </trkpt>
      <trkpt lat="44.56458" lon="4.22176">
        <ele>424.7</ele>
        <time>2009-10-18T10:23:53Z</time>
      </trkpt>
      <trkpt lat="44.56421" lon="4.22101">
        <ele>421.3</ele>
        <time>2009-10-18T10:24:04Z</time>
      </trkpt>
      <trkpt lat="44.56407" lon="4.2207">
        <ele>421.3</ele>
        <time>2009-10-18T10:24:08Z</time>
      </trkpt>
      <trkpt lat="44.56381" lon="4.22067">
        <ele>418.8</ele>
        <time>2009-10-18T10:24:14Z</time>
      </trkpt>
      <trkpt lat="44.56357" lon="4.22095">
        <ele>415</ele>
        <time>2009-10-18T10:24:19Z</time>
      </trkpt>
      <trkpt lat="44.56333" lon="4.22106">
        <ele>412.5</ele>
        <time>2009-10-18T10:24:23Z</time>
      </trkpt>
      <trkpt lat="44.56311" lon="4.22128">
        <ele>414.8</ele>
        <time>2009-10-18T10:24:28Z</time>
      </trkpt>
      <trkpt lat="44.56297" lon="4.22137">
        <ele>416.6</ele>
        <time>2009-10-18T10:24:34Z</time>
      </trkpt>
      <trkpt lat="44.56271" lon="4.22075">
        <ele>419</ele>
        <time>2009-10-18T10:24:51Z</time>
      </trkpt>
      <trkpt lat="44.5625" lon="4.22024">
        <ele>420.3</ele>
        <time>2009-10-18T10:25:07Z</time>
      </trkpt>
      <trkpt lat="44.56233" lon="4.2199">
        <ele>424.8</ele>
        <time>2009-10-18T10:25:18Z</time>
      </trkpt>
      <trkpt lat="44.56228" lon="4.21988">
        <ele>426.1</ele>
        <time>2009-10-18T10:25:20Z</time>
      </trkpt>
      <trkpt lat="44.5622" lon="4.21996">
        <ele>427.8</ele>
        <time>2009-10-18T10:25:24Z</time>
      </trkpt>
      <trkpt lat="44.56203" lon="4.2203">
        <ele>431.3</ele>
        <time>2009-10-18T10:25:36Z</time>
      </trkpt>
      <trkpt lat="44.56184" lon="4.22055">
        <ele>435.1</ele>
        <time>2009-10-18T10:25:49Z</time>
      </trkpt>
      <trkpt lat="44.56172" lon="4.22063">
        <ele>437.5</ele>
        <time>2009-10-18T10:25:57Z</time>
      </trkpt>
      <trkpt lat="44.56156" lon="4.22081">
        <ele>442.1</ele>
        <time>2009-10-18T10:26:11Z</time>
      </trkpt>
      <trkpt lat="44.56154" lon="4.22084">
        <ele>442.7</ele>
        <time>2009-10-18T10:26:13Z</time>
      </trkpt>
      <trkpt lat="44.56153" lon="4.22134">
        <ele>445.7</ele>
        <time>2009-10-18T10:26:30Z</time>
      </trkpt>
      <trkpt lat="44.56157" lon="4.22157">
        <ele>446</ele>
        <time>2009-10-18T10:26:40Z</time>
      </trkpt>
      <trkpt lat="44.56158" lon="4.2216">
        <ele>445.8</ele>
        <time>2009-10-18T10:26:41Z</time>
      </trkpt>
      <trkpt lat="44.56153" lon="4.22192">
        <ele>449</ele>
        <time>2009-10-18T10:26:51Z</time>
      </trkpt>
      <trkpt lat="44.56134" lon="4.22209">
        <ele>453.9</ele>
        <time>2009-10-18T10:26:56Z</time>
      </trkpt>
      <trkpt lat="44.56105" lon="4.22225">
        <ele>460</ele>
        <time>2009-10-18T10:27:02Z</time>
      </trkpt>
      <trkpt lat="44.56097" lon="4.22238">
        <ele>461.7</ele>
        <time>2009-10-18T10:27:05Z</time>
      </trkpt>
      <trkpt lat="44.56105" lon="4.22253">
        <ele>461</ele>
        <time>2009-10-18T10:27:10Z</time>
      </trkpt>
      <trkpt lat="44.56131" lon="4.22269">
        <ele>459.8</ele>
        <time>2009-10-18T10:27:20Z</time>
      </trkpt>
      <trkpt lat="44.56134" lon="4.22271">
        <ele>459.6</ele>
        <time>2009-10-18T10:27:21Z</time>
      </trkpt>
      <trkpt lat="44.56164" lon="4.22294">
        <ele>459.3</ele>
        <time>2009-10-18T10:27:33Z</time>
      </trkpt>
      <trkpt lat="44.56195" lon="4.22321">
        <ele>456.8</ele>
        <time>2009-10-18T10:27:47Z</time>
      </trkpt>
      <trkpt lat="44.56219" lon="4.22356">
        <ele>454.3</ele>
        <time>2009-10-18T10:27:59Z</time>
      </trkpt>
      <trkpt lat="44.56234" lon="4.22386">
        <ele>452.4</ele>
        <time>2009-10-18T10:28:10Z</time>
      </trkpt>
      <trkpt lat="44.56235" lon="4.22392">
        <ele>452.6</ele>
        <time>2009-10-18T10:28:12Z</time>
      </trkpt>
      <trkpt lat="44.56224" lon="4.22392">
        <ele>455.9</ele>
        <time>2009-10-18T10:28:22Z</time>
      </trkpt>
      <trkpt lat="44.56217" lon="4.22376">
        <ele>456.6</ele>
        <time>2009-10-18T10:28:28Z</time>
      </trkpt>
      <trkpt lat="44.56189" lon="4.22339">
        <ele>461.4</ele>
        <time>2009-10-18T10:28:44Z</time>
      </trkpt>
      <trkpt lat="44.56158" lon="4.22324">
        <ele>466.4</ele>
        <time>2009-10-18T10:28:57Z</time>
      </trkpt>
      <trkpt lat="44.56128" lon="4.22317">
        <ele>469.8</ele>
        <time>2009-10-18T10:29:09Z</time>
      </trkpt>
      <trkpt lat="44.56114" lon="4.22327">
        <ele>473.9</ele>
        <time>2009-10-18T10:29:15Z</time>
      </trkpt>
      <trkpt lat="44.56086" lon="4.2232">
        <ele>477.1</ele>
        <time>2009-10-18T10:29:27Z</time>
      </trkpt>
      <trkpt lat="44.56062" lon="4.22299">
        <ele>475.5</ele>
        <time>2009-10-18T10:29:39Z</time>
      </trkpt>
      <trkpt lat="44.5604" lon="4.22296">
        <ele>477</ele>
        <time>2009-10-18T10:29:48Z</time>
      </trkpt>
      <trkpt lat="44.56042" lon="4.2231">
        <ele>479.6</ele>
        <time>2009-10-18T10:29:53Z</time>
      </trkpt>
      <trkpt lat="44.56066" lon="4.22337">
        <ele>482.6</ele>
        <time>2009-10-18T10:30:07Z</time>
      </trkpt>
      <trkpt lat="44.56068" lon="4.22339">
        <ele>483</ele>
        <time>2009-10-18T10:30:08Z</time>
      </trkpt>
      <trkpt lat="44.56078" lon="4.22367">
        <ele>488.4</ele>
        <time>2009-10-18T10:30:17Z</time>
      </trkpt>
      <trkpt lat="44.56101" lon="4.22373">
        <ele>485.2</ele>
        <time>2009-10-18T10:30:30Z</time>
      </trkpt>
      <trkpt lat="44.5613" lon="4.22388">
        <ele>481.1</ele>
        <time>2009-10-18T10:30:42Z</time>
      </trkpt>
      <trkpt lat="44.56137" lon="4.22435">
        <ele>483.4</ele>
        <time>2009-10-18T10:30:56Z</time>
      </trkpt>
      <trkpt lat="44.56137" lon="4.22449">
        <ele>483.4</ele>
        <time>2009-10-18T10:31:00Z</time>
      </trkpt>
      <trkpt lat="44.56116" lon="4.22484">
        <ele>490.9</ele>
        <time>2009-10-18T10:31:14Z</time>
      </trkpt>
      <trkpt lat="44.56114" lon="4.22482">
        <ele>491.5</ele>
        <time>2009-10-18T10:31:16Z</time>
      </trkpt>
      <trkpt lat="44.56112" lon="4.22472">
        <ele>492.1</ele>
        <time>2009-10-18T10:31:22Z</time>
      </trkpt>
      <trkpt lat="44.56119" lon="4.22438">
        <ele>489</ele>
        <time>2009-10-18T10:31:35Z</time>
      </trkpt>
      <trkpt lat="44.56095" lon="4.22415">
        <ele>495.4</ele>
        <time>2009-10-18T10:31:48Z</time>
      </trkpt>
      <trkpt lat="44.5606" lon="4.22405">
        <ele>499.9</ele>
        <time>2009-10-18T10:32:03Z</time>
      </trkpt>
      <trkpt lat="44.56055" lon="4.22405">
        <ele>500.6</ele>
        <time>2009-10-18T10:32:05Z</time>
      </trkpt>
      <trkpt lat="44.56054" lon="4.22419">
        <ele>503.8</ele>
        <time>2009-10-18T10:32:11Z</time>
      </trkpt>
      <trkpt lat="44.56076" lon="4.22445">
        <ele>502.1</ele>
        <time>2009-10-18T10:32:24Z</time>
      </trkpt>
      <trkpt lat="44.56082" lon="4.22457">
        <ele>501.7</ele>
        <time>2009-10-18T10:32:28Z</time>
      </trkpt>
      <trkpt lat="44.56068" lon="4.22497">
        <ele>507.1</ele>
        <time>2009-10-18T10:32:42Z</time>
      </trkpt>
      <trkpt lat="44.56062" lon="4.22514">
        <ele>508.1</ele>
        <time>2009-10-18T10:32:50Z</time>
      </trkpt>
      <trkpt lat="44.56051" lon="4.22557">
        <ele>508.9</ele>
        <time>2009-10-18T10:33:03Z</time>
      </trkpt>
      <trkpt lat="44.56043" lon="4.22588">
        <ele>508.9</ele>
        <time>2009-10-18T10:33:13Z</time>
      </trkpt>
      <trkpt lat="44.5604" lon="4.22616">
        <ele>506.4</ele>
        <time>2009-10-18T10:33:24Z</time>
      </trkpt>
      <trkpt lat="44.5604" lon="4.22618">
        <ele>506.2</ele>
        <time>2009-10-18T10:33:25Z</time>
      </trkpt>
      <trkpt lat="44.56039" lon="4.22627">
        <ele>505.2</ele>
        <time>2009-10-18T10:33:30Z</time>
      </trkpt>
      <trkpt lat="44.56033" lon="4.22626">
        <ele>505.8</ele>
        <time>2009-10-18T10:33:37Z</time>
      </trkpt>
      <trkpt lat="44.56028" lon="4.2262">
        <ele>507.1</ele>
        <time>2009-10-18T10:33:53Z</time>
      </trkpt>
      <trkpt lat="44.56029" lon="4.22621">
        <ele>506.7</ele>
        <time>2009-10-18T10:34:37Z</time>
      </trkpt>
      <trkpt lat="44.56033" lon="4.22627">
        <ele>505.6</ele>
        <time>2009-10-18T10:35:06Z</time>
      </trkpt>
      <trkpt lat="44.56025" lon="4.22629">
        <ele>506</ele>
        <time>2009-10-18T10:35:51Z</time>
      </trkpt>
      <trkpt lat="44.56027" lon="4.22624">
        <ele>506.6</ele>
        <time>2009-10-18T10:36:23Z</time>
      </trkpt>
      <trkpt lat="44.56032" lon="4.22618">
        <ele>506.8</ele>
        <time>2009-10-18T10:36:56Z</time>
      </trkpt>
      <trkpt lat="44.56019" lon="4.22604">
        <ele>510.3</ele>
        <time>2009-10-18T10:37:09Z</time>
      </trkpt>
      <trkpt lat="44.56006" lon="4.22588">
        <ele>515.1</ele>
        <time>2009-10-18T10:37:18Z</time>
      </trkpt>
      <trkpt lat="44.55988" lon="4.22587">
        <ele>513.8</ele>
        <time>2009-10-18T10:37:28Z</time>
      </trkpt>
      <trkpt lat="44.55981" lon="4.22576">
        <ele>514.1</ele>
        <time>2009-10-18T10:37:33Z</time>
      </trkpt>
      <trkpt lat="44.55954" lon="4.2255">
        <ele>512.8</ele>
        <time>2009-10-18T10:37:44Z</time>
      </trkpt>
      <trkpt lat="44.55934" lon="4.22515">
        <ele>516.3</ele>
        <time>2009-10-18T10:37:56Z</time>
      </trkpt>
      <trkpt lat="44.55928" lon="4.22508">
        <ele>517</ele>
        <time>2009-10-18T10:37:58Z</time>
      </trkpt>
      <trkpt lat="44.55916" lon="4.22505">
        <ele>517</ele>
        <time>2009-10-18T10:38:02Z</time>
      </trkpt>
      <trkpt lat="44.5591" lon="4.22503">
        <ele>518.2</ele>
        <time>2009-10-18T10:38:04Z</time>
      </trkpt>
      <trkpt lat="44.559" lon="4.22503">
        <ele>519.1</ele>
        <time>2009-10-18T10:38:14Z</time>
      </trkpt>
      <trkpt lat="44.55893" lon="4.22501">
        <ele>520.5</ele>
        <time>2009-10-18T10:38:18Z</time>
      </trkpt>
      <trkpt lat="44.55877" lon="4.225">
        <ele>522.2</ele>
        <time>2009-10-18T10:38:34Z</time>
      </trkpt>
      <trkpt lat="44.55865" lon="4.22513">
        <ele>521.1</ele>
        <time>2009-10-18T10:38:43Z</time>
      </trkpt>
      <trkpt lat="44.55845" lon="4.22557">
        <ele>515.9</ele>
        <time>2009-10-18T10:38:55Z</time>
      </trkpt>
      <trkpt lat="44.5583" lon="4.22588">
        <ele>513.1</ele>
        <time>2009-10-18T10:39:02Z</time>
      </trkpt>
      <trkpt lat="44.55826" lon="4.22592">
        <ele>513.8</ele>
        <time>2009-10-18T10:39:04Z</time>
      </trkpt>
      <trkpt lat="44.55812" lon="4.2259">
        <ele>519.5</ele>
        <time>2009-10-18T10:39:15Z</time>
      </trkpt>
      <trkpt lat="44.55807" lon="4.22604">
        <ele>518.6</ele>
        <time>2009-10-18T10:39:26Z</time>
      </trkpt>
      <trkpt lat="44.55804" lon="4.22624">
        <ele>515.5</ele>
        <time>2009-10-18T10:39:43Z</time>
      </trkpt>
      <trkpt lat="44.55803" lon="4.22626">
        <ele>515.5</ele>
        <time>2009-10-18T10:39:44Z</time>
      </trkpt>
      <trkpt lat="44.55792" lon="4.22675">
        <ele>510.6</ele>
        <time>2009-10-18T10:39:58Z</time>
      </trkpt>
      <trkpt lat="44.55772" lon="4.2271">
        <ele>513</ele>
        <time>2009-10-18T10:40:08Z</time>
      </trkpt>
      <trkpt lat="44.55752" lon="4.22758">
        <ele>512.3</ele>
        <time>2009-10-18T10:40:21Z</time>
      </trkpt>
      <trkpt lat="44.55738" lon="4.22808">
        <ele>506.8</ele>
        <time>2009-10-18T10:40:32Z</time>
      </trkpt>
      <trkpt lat="44.55715" lon="4.22862">
        <ele>504</ele>
        <time>2009-10-18T10:40:45Z</time>
      </trkpt>
      <trkpt lat="44.55697" lon="4.22913">
        <ele>502.3</ele>
        <time>2009-10-18T10:40:56Z</time>
      </trkpt>
      <trkpt lat="44.55692" lon="4.22952">
        <ele>500.8</ele>
        <time>2009-10-18T10:41:03Z</time>
      </trkpt>
      <trkpt lat="44.55683" lon="4.22993">
        <ele>500.5</ele>
        <time>2009-10-18T10:41:16Z</time>
      </trkpt>
      <trkpt lat="44.55674" lon="4.2302">
        <ele>500.1</ele>
        <time>2009-10-18T10:41:30Z</time>
      </trkpt>
      <trkpt lat="44.55656" lon="4.23036">
        <ele>498.3</ele>
        <time>2009-10-18T10:41:42Z</time>
      </trkpt>
      <trkpt lat="44.55635" lon="4.23024">
        <ele>496.6</ele>
        <time>2009-10-18T10:41:52Z</time>
      </trkpt>
      <trkpt lat="44.55623" lon="4.22993">
        <ele>498.7</ele>
        <time>2009-10-18T10:42:02Z</time>
      </trkpt>
      <trkpt lat="44.55612" lon="4.22965">
        <ele>498.9</ele>
        <time>2009-10-18T10:42:13Z</time>
      </trkpt>
      <trkpt lat="44.55608" lon="4.2296">
        <ele>498.5</ele>
        <time>2009-10-18T10:42:15Z</time>
      </trkpt>
      <trkpt lat="44.55591" lon="4.22931">
        <ele>497.5</ele>
        <time>2009-10-18T10:42:24Z</time>
      </trkpt>
      <trkpt lat="44.55588" lon="4.22924">
        <ele>497.4</ele>
        <time>2009-10-18T10:42:26Z</time>
      </trkpt>
      <trkpt lat="44.55574" lon="4.22903">
        <ele>493.9</ele>
        <time>2009-10-18T10:42:35Z</time>
      </trkpt>
      <trkpt lat="44.55572" lon="4.229">
        <ele>493.2</ele>
        <time>2009-10-18T10:42:36Z</time>
      </trkpt>
      <trkpt lat="44.55565" lon="4.22891">
        <ele>490.8</ele>
        <time>2009-10-18T10:42:41Z</time>
      </trkpt>
      <trkpt lat="44.55564" lon="4.22893">
        <ele>489.9</ele>
        <time>2009-10-18T10:42:50Z</time>
      </trkpt>
      <trkpt lat="44.55552" lon="4.22891">
        <ele>485</ele>
        <time>2009-10-18T10:42:56Z</time>
      </trkpt>
      <trkpt lat="44.5555" lon="4.22887">
        <ele>484.2</ele>
        <time>2009-10-18T10:42:58Z</time>
      </trkpt>
      <trkpt lat="44.55548" lon="4.22869">
        <ele>484.2</ele>
        <time>2009-10-18T10:43:04Z</time>
      </trkpt>
      <trkpt lat="44.55545" lon="4.22868">
        <ele>482.9</ele>
        <time>2009-10-18T10:43:06Z</time>
      </trkpt>
      <trkpt lat="44.55541" lon="4.22872">
        <ele>480.8</ele>
        <time>2009-10-18T10:43:09Z</time>
      </trkpt>
      <trkpt lat="44.55535" lon="4.22881">
        <ele>477.8</ele>
        <time>2009-10-18T10:43:13Z</time>
      </trkpt>
      <trkpt lat="44.55534" lon="4.22883">
        <ele>477.3</ele>
        <time>2009-10-18T10:43:14Z</time>
      </trkpt>
      <trkpt lat="44.55533" lon="4.22887">
        <ele>476.3</ele>
        <time>2009-10-18T10:43:18Z</time>
      </trkpt>
      <trkpt lat="44.55529" lon="4.22884">
        <ele>474.9</ele>
        <time>2009-10-18T10:43:21Z</time>
      </trkpt>
      <trkpt lat="44.55525" lon="4.22872">
        <ele>473.7</ele>
        <time>2009-10-18T10:43:26Z</time>
      </trkpt>
      <trkpt lat="44.55525" lon="4.22849">
        <ele>474.2</ele>
        <time>2009-10-18T10:43:34Z</time>
      </trkpt>
      <trkpt lat="44.55524" lon="4.22846">
        <ele>474.1</ele>
        <time>2009-10-18T10:43:35Z</time>
      </trkpt>
      <trkpt lat="44.55517" lon="4.22832">
        <ele>471.5</ele>
        <time>2009-10-18T10:43:42Z</time>
      </trkpt>
      <trkpt lat="44.55514" lon="4.22825">
        <ele>470.8</ele>
        <time>2009-10-18T10:43:46Z</time>
      </trkpt>
      <trkpt lat="44.55513" lon="4.22823">
        <ele>470.8</ele>
        <time>2009-10-18T10:43:48Z</time>
      </trkpt>
      <trkpt lat="44.55508" lon="4.22828">
        <ele>467.4</ele>
        <time>2009-10-18T10:43:57Z</time>
      </trkpt>
      <trkpt lat="44.55505" lon="4.22836">
        <ele>465.1</ele>
        <time>2009-10-18T10:44:09Z</time>
      </trkpt>
      <trkpt lat="44.55507" lon="4.22837">
        <ele>466.2</ele>
        <time>2009-10-18T10:44:24Z</time>
      </trkpt>
      <trkpt lat="44.55506" lon="4.22836">
        <ele>465.7</ele>
        <time>2009-10-18T10:44:32Z</time>
      </trkpt>
      <trkpt lat="44.55493" lon="4.22812">
        <ele>462.6</ele>
        <time>2009-10-18T10:44:41Z</time>
      </trkpt>
      <trkpt lat="44.55473" lon="4.2279">
        <ele>457.2</ele>
        <time>2009-10-18T10:44:47Z</time>
      </trkpt>
      <trkpt lat="44.55462" lon="4.22761">
        <ele>455.9</ele>
        <time>2009-10-18T10:44:52Z</time>
      </trkpt>
      <trkpt lat="44.55457" lon="4.22734">
        <ele>459.3</ele>
        <time>2009-10-18T10:44:56Z</time>
      </trkpt>
      <trkpt lat="44.55455" lon="4.22722">
        <ele>461.4</ele>
        <time>2009-10-18T10:44:58Z</time>
      </trkpt>
      <trkpt lat="44.55451" lon="4.22716">
        <ele>461.2</ele>
        <time>2009-10-18T10:45:00Z</time>
      </trkpt>
      <trkpt lat="44.55436" lon="4.22711">
        <ele>456.3</ele>
        <time>2009-10-18T10:45:04Z</time>
      </trkpt>
      <trkpt lat="44.55405" lon="4.22684">
        <ele>451.4</ele>
        <time>2009-10-18T10:45:18Z</time>
      </trkpt>
      <trkpt lat="44.55405" lon="4.22684">
        <ele>451.4</ele>
        <time>2009-10-18T10:45:21Z</time>
      </trkpt>
      <trkpt lat="44.5541" lon="4.22699">
        <ele>449.7</ele>
        <time>2009-10-18T10:45:27Z</time>
      </trkpt>
      <trkpt lat="44.55413" lon="4.22712">
        <ele>447.1</ele>
        <time>2009-10-18T10:45:33Z</time>
      </trkpt>
      <trkpt lat="44.55415" lon="4.22719">
        <ele>446.2</ele>
        <time>2009-10-18T10:45:40Z</time>
      </trkpt>
      <trkpt lat="44.55413" lon="4.22719">
        <ele>445.8</ele>
        <time>2009-10-18T10:45:42Z</time>
      </trkpt>
      <trkpt lat="44.55415" lon="4.22726">
        <ele>444.3</ele>
        <time>2009-10-18T10:45:47Z</time>
      </trkpt>
      <trkpt lat="44.55424" lon="4.22732">
        <ele>446.3</ele>
        <time>2009-10-18T10:45:50Z</time>
      </trkpt>
      <trkpt lat="44.55433" lon="4.22754">
        <ele>444.9</ele>
        <time>2009-10-18T10:45:58Z</time>
      </trkpt>
      <trkpt lat="44.55432" lon="4.22753">
        <ele>444.9</ele>
        <time>2009-10-18T10:46:30Z</time>
      </trkpt>
      <trkpt lat="44.55433" lon="4.22752">
        <ele>445.4</ele>
        <time>2009-10-18T10:46:56Z</time>
      </trkpt>
      <trkpt lat="44.55433" lon="4.22753">
        <ele>445.3</ele>
        <time>2009-10-18T10:47:18Z</time>
      </trkpt>
      <trkpt lat="44.55435" lon="4.22781">
        <ele>442.6</ele>
        <time>2009-10-18T10:48:12Z</time>
      </trkpt>
      <trkpt lat="44.55449" lon="4.22822">
        <ele>442.9</ele>
        <time>2009-10-18T10:48:19Z</time>
      </trkpt>
      <trkpt lat="44.55451" lon="4.22828">
        <ele>443.1</ele>
        <time>2009-10-18T10:48:20Z</time>
      </trkpt>
      <trkpt lat="44.55451" lon="4.22853">
        <ele>441.3</ele>
        <time>2009-10-18T10:48:24Z</time>
      </trkpt>
      <trkpt lat="44.55446" lon="4.22863">
        <ele>438.5</ele>
        <time>2009-10-18T10:48:26Z</time>
      </trkpt>
      <trkpt lat="44.55426" lon="4.22927">
        <ele>426.2</ele>
        <time>2009-10-18T10:48:35Z</time>
      </trkpt>
      <trkpt lat="44.55432" lon="4.23028">
        <ele>425.7</ele>
        <time>2009-10-18T10:48:46Z</time>
      </trkpt>
      <trkpt lat="44.5543" lon="4.23062">
        <ele>423.2</ele>
        <time>2009-10-18T10:48:50Z</time>
      </trkpt>
      <trkpt lat="44.55432" lon="4.23095">
        <ele>423.3</ele>
        <time>2009-10-18T10:48:54Z</time>
      </trkpt>
      <trkpt lat="44.55425" lon="4.23117">
        <ele>421</ele>
        <time>2009-10-18T10:49:00Z</time>
      </trkpt>
      <trkpt lat="44.55422" lon="4.23117">
        <ele>419.8</ele>
        <time>2009-10-18T10:49:01Z</time>
      </trkpt>
      <trkpt lat="44.55409" lon="4.23122">
        <ele>416.6</ele>
        <time>2009-10-18T10:49:06Z</time>
      </trkpt>
      <trkpt lat="44.55405" lon="4.23131">
        <ele>416.1</ele>
        <time>2009-10-18T10:49:22Z</time>
      </trkpt>
      <trkpt lat="44.55384" lon="4.23147">
        <ele>412.2</ele>
        <time>2009-10-18T10:49:36Z</time>
      </trkpt>
      <trkpt lat="44.55369" lon="4.23172">
        <ele>408.9</ele>
        <time>2009-10-18T10:49:45Z</time>
      </trkpt>
      <trkpt lat="44.55368" lon="4.23176">
        <ele>408.6</ele>
        <time>2009-10-18T10:49:46Z</time>
      </trkpt>
      <trkpt lat="44.55361" lon="4.23195">
        <ele>407.2</ele>
        <time>2009-10-18T10:49:52Z</time>
      </trkpt>
      <trkpt lat="44.55357" lon="4.23209">
        <ele>406.5</ele>
        <time>2009-10-18T10:49:57Z</time>
      </trkpt>
      <trkpt lat="44.55359" lon="4.23212">
        <ele>407</ele>
        <time>2009-10-18T10:50:04Z</time>
      </trkpt>
      <trkpt lat="44.55368" lon="4.23224">
        <ele>409.5</ele>
        <time>2009-10-18T10:50:12Z</time>
      </trkpt>
      <trkpt lat="44.55369" lon="4.23245">
        <ele>410.2</ele>
        <time>2009-10-18T10:50:18Z</time>
      </trkpt>
      <trkpt lat="44.55359" lon="4.23293">
        <ele>408.3</ele>
        <time>2009-10-18T10:50:32Z</time>
      </trkpt>
      <trkpt lat="44.55348" lon="4.23323">
        <ele>405</ele>
        <time>2009-10-18T10:50:42Z</time>
      </trkpt>
      <trkpt lat="44.55331" lon="4.23354">
        <ele>401</ele>
        <time>2009-10-18T10:50:54Z</time>
      </trkpt>
      <trkpt lat="44.5533" lon="4.23356">
        <ele>401.1</ele>
        <time>2009-10-18T10:50:55Z</time>
      </trkpt>
      <trkpt lat="44.55324" lon="4.23385">
        <ele>402</ele>
        <time>2009-10-18T10:51:05Z</time>
      </trkpt>
      <trkpt lat="44.55319" lon="4.2341">
        <ele>402.3</ele>
        <time>2009-10-18T10:51:14Z</time>
      </trkpt>
      <trkpt lat="44.55305" lon="4.23453">
        <ele>401.5</ele>
        <time>2009-10-18T10:51:29Z</time>
      </trkpt>
      <trkpt lat="44.55295" lon="4.23464">
        <ele>399.7</ele>
        <time>2009-10-18T10:51:35Z</time>
      </trkpt>
      <trkpt lat="44.55288" lon="4.23508">
        <ele>397.5</ele>
        <time>2009-10-18T10:51:48Z</time>
      </trkpt>
      <trkpt lat="44.5528" lon="4.23557">
        <ele>394.9</ele>
        <time>2009-10-18T10:52:01Z</time>
      </trkpt>
      <trkpt lat="44.55276" lon="4.23593">
        <ele>393.2</ele>
        <time>2009-10-18T10:52:13Z</time>
      </trkpt>
      <trkpt lat="44.55275" lon="4.23611">
        <ele>392.8</ele>
        <time>2009-10-18T10:52:25Z</time>
      </trkpt>
      <trkpt lat="44.55277" lon="4.23621">
        <ele>393.5</ele>
        <time>2009-10-18T10:52:39Z</time>
      </trkpt>
      <trkpt lat="44.55277" lon="4.23623">
        <ele>393.6</ele>
        <time>2009-10-18T10:52:41Z</time>
      </trkpt>
      <trkpt lat="44.55272" lon="4.23665">
        <ele>391</ele>
        <time>2009-10-18T10:52:55Z</time>
      </trkpt>
      <trkpt lat="44.55257" lon="4.23699">
        <ele>383.5</ele>
        <time>2009-10-18T10:53:08Z</time>
      </trkpt>
      <trkpt lat="44.55255" lon="4.23712">
        <ele>382.6</ele>
        <time>2009-10-18T10:53:13Z</time>
      </trkpt>
      <trkpt lat="44.55254" lon="4.23716">
        <ele>382</ele>
        <time>2009-10-18T10:53:19Z</time>
      </trkpt>
      <trkpt lat="44.55254" lon="4.23741">
        <ele>382</ele>
        <time>2009-10-18T10:53:35Z</time>
      </trkpt>
      <trkpt lat="44.5525" lon="4.23753">
        <ele>379.8</ele>
        <time>2009-10-18T10:53:40Z</time>
      </trkpt>
      <trkpt lat="44.55248" lon="4.23773">
        <ele>378.7</ele>
        <time>2009-10-18T10:53:51Z</time>
      </trkpt>
      <trkpt lat="44.55244" lon="4.23749">
        <ele>380</ele>
        <time>2009-10-18T10:53:59Z</time>
      </trkpt>
      <trkpt lat="44.55242" lon="4.2375">
        <ele>380</ele>
        <time>2009-10-18T10:54:09Z</time>
      </trkpt>
      <trkpt lat="44.55242" lon="4.23752">
        <ele>379.9</ele>
        <time>2009-10-18T10:54:14Z</time>
      </trkpt>
      <trkpt lat="44.55243" lon="4.23778">
        <ele>378.6</ele>
        <time>2009-10-18T10:54:27Z</time>
      </trkpt>
      <trkpt lat="44.55246" lon="4.23793">
        <ele>377.7</ele>
        <time>2009-10-18T10:54:41Z</time>
      </trkpt>
      <trkpt lat="44.55246" lon="4.23794">
        <ele>377.7</ele>
        <time>2009-10-18T10:55:00Z</time>
      </trkpt>
      <trkpt lat="44.55246" lon="4.23809">
        <ele>376.9</ele>
        <time>2009-10-18T10:55:33Z</time>
      </trkpt>
      <trkpt lat="44.55248" lon="4.23828">
        <ele>375.7</ele>
        <time>2009-10-18T10:55:44Z</time>
      </trkpt>
      <trkpt lat="44.55251" lon="4.23871">
        <ele>374.4</ele>
        <time>2009-10-18T10:55:57Z</time>
      </trkpt>
      <trkpt lat="44.55249" lon="4.23917">
        <ele>373.4</ele>
        <time>2009-10-18T10:56:11Z</time>
      </trkpt>
      <trkpt lat="44.55254" lon="4.23959">
        <ele>373.5</ele>
        <time>2009-10-18T10:56:25Z</time>
      </trkpt>
      <trkpt lat="44.55276" lon="4.23998">
        <ele>377.7</ele>
        <time>2009-10-18T10:56:39Z</time>
      </trkpt>
      <trkpt lat="44.553" lon="4.24036">
        <ele>379.6</ele>
        <time>2009-10-18T10:56:53Z</time>
      </trkpt>
      <trkpt lat="44.55317" lon="4.24071">
        <ele>377</ele>
        <time>2009-10-18T10:57:07Z</time>
      </trkpt>
      <trkpt lat="44.5532" lon="4.24074">
        <ele>376.8</ele>
        <time>2009-10-18T10:57:16Z</time>
      </trkpt>
      <trkpt lat="44.55323" lon="4.24086">
        <ele>375.4</ele>
        <time>2009-10-18T10:57:27Z</time>
      </trkpt>
      <trkpt lat="44.55327" lon="4.24107">
        <ele>374.8</ele>
        <time>2009-10-18T10:57:41Z</time>
      </trkpt>
      <trkpt lat="44.55325" lon="4.24131">
        <ele>373.7</ele>
        <time>2009-10-18T10:57:53Z</time>
      </trkpt>
      <trkpt lat="44.55317" lon="4.24165">
        <ele>371.7</ele>
        <time>2009-10-18T10:58:04Z</time>
      </trkpt>
      <trkpt lat="44.55303" lon="4.24182">
        <ele>368.9</ele>
        <time>2009-10-18T10:58:10Z</time>
      </trkpt>
      <trkpt lat="44.55283" lon="4.24202">
        <ele>364.8</ele>
        <time>2009-10-18T10:58:19Z</time>
      </trkpt>
      <trkpt lat="44.55267" lon="4.2422">
        <ele>360.9</ele>
        <time>2009-10-18T10:58:26Z</time>
      </trkpt>
      <trkpt lat="44.55261" lon="4.24231">
        <ele>358.9</ele>
        <time>2009-10-18T10:58:30Z</time>
      </trkpt>
      <trkpt lat="44.5526" lon="4.24233">
        <ele>358.5</ele>
        <time>2009-10-18T10:58:31Z</time>
      </trkpt>
      <trkpt lat="44.55257" lon="4.24248">
        <ele>356.2</ele>
        <time>2009-10-18T10:58:36Z</time>
      </trkpt>
      <trkpt lat="44.55255" lon="4.24264">
        <ele>355.6</ele>
        <time>2009-10-18T10:58:41Z</time>
      </trkpt>
      <trkpt lat="44.55255" lon="4.24271">
        <ele>355.7</ele>
        <time>2009-10-18T10:58:43Z</time>
      </trkpt>
      <trkpt lat="44.55257" lon="4.24278">
        <ele>355.8</ele>
        <time>2009-10-18T10:58:45Z</time>
      </trkpt>
      <trkpt lat="44.55259" lon="4.24283">
        <ele>356</ele>
        <time>2009-10-18T10:58:47Z</time>
      </trkpt>
      <trkpt lat="44.55269" lon="4.24289">
        <ele>357.2</ele>
        <time>2009-10-18T10:58:51Z</time>
      </trkpt>
      <trkpt lat="44.55308" lon="4.24303">
        <ele>361.3</ele>
        <time>2009-10-18T10:59:07Z</time>
      </trkpt>
      <trkpt lat="44.55312" lon="4.24304">
        <ele>361.7</ele>
        <time>2009-10-18T10:59:09Z</time>
      </trkpt>
      <trkpt lat="44.55312" lon="4.24307">
        <ele>361.6</ele>
        <time>2009-10-18T10:59:11Z</time>
      </trkpt>
      <trkpt lat="44.55306" lon="4.24312">
        <ele>360.9</ele>
        <time>2009-10-18T10:59:23Z</time>
      </trkpt>
      <trkpt lat="44.55305" lon="4.2431">
        <ele>360.9</ele>
        <time>2009-10-18T10:59:53Z</time>
      </trkpt>
      <trkpt lat="44.55306" lon="4.24313">
        <ele>360.9</ele>
        <time>2009-10-18T11:00:13Z</time>
      </trkpt>
      <trkpt lat="44.55303" lon="4.24318">
        <ele>360.4</ele>
        <time>2009-10-18T11:00:32Z</time>
      </trkpt>
      <trkpt lat="44.55263" lon="4.24325">
        <ele>356.3</ele>
        <time>2009-10-18T11:00:46Z</time>
      </trkpt>
      <trkpt lat="44.55217" lon="4.24357">
        <ele>362.2</ele>
        <time>2009-10-18T11:01:02Z</time>
      </trkpt>
      <trkpt lat="44.55179" lon="4.24425">
        <ele>362.2</ele>
        <time>2009-10-18T11:01:22Z</time>
      </trkpt>
      <trkpt lat="44.55158" lon="4.24439">
        <ele>358.9</ele>
        <time>2009-10-18T11:01:35Z</time>
      </trkpt>
      <trkpt lat="44.55159" lon="4.24439">
        <ele>359</ele>
        <time>2009-10-18T11:01:37Z</time>
      </trkpt>
      <trkpt lat="44.55169" lon="4.24439">
        <ele>360.9</ele>
        <time>2009-10-18T11:01:49Z</time>
      </trkpt>
      <trkpt lat="44.55176" lon="4.24434">
        <ele>362.3</ele>
        <time>2009-10-18T11:01:58Z</time>
      </trkpt>
      <trkpt lat="44.55192" lon="4.24424">
        <ele>365.6</ele>
        <time>2009-10-18T11:02:09Z</time>
      </trkpt>
      <trkpt lat="44.55216" lon="4.24399">
        <ele>368.4</ele>
        <time>2009-10-18T11:02:23Z</time>
      </trkpt>
      <trkpt lat="44.55234" lon="4.24383">
        <ele>368</ele>
        <time>2009-10-18T11:02:35Z</time>
      </trkpt>
      <trkpt lat="44.55247" lon="4.2437">
        <ele>365.7</ele>
        <time>2009-10-18T11:02:43Z</time>
      </trkpt>
      <trkpt lat="44.55266" lon="4.24365">
        <ele>366.7</ele>
        <time>2009-10-18T11:02:51Z</time>
      </trkpt>
      <trkpt lat="44.55304" lon="4.2436">
        <ele>369.7</ele>
        <time>2009-10-18T11:03:06Z</time>
      </trkpt>
      <trkpt lat="44.55347" lon="4.24374">
        <ele>382</ele>
        <time>2009-10-18T11:03:23Z</time>
      </trkpt>
      <trkpt lat="44.55374" lon="4.24369">
        <ele>385.7</ele>
        <time>2009-10-18T11:03:38Z</time>
      </trkpt>
      <trkpt lat="44.55396" lon="4.24363">
        <ele>387.8</ele>
        <time>2009-10-18T11:03:52Z</time>
      </trkpt>
      <trkpt lat="44.55406" lon="4.24356">
        <ele>387</ele>
        <time>2009-10-18T11:03:58Z</time>
      </trkpt>
      <trkpt lat="44.55419" lon="4.24344">
        <ele>385.7</ele>
        <time>2009-10-18T11:04:10Z</time>
      </trkpt>
      <trkpt lat="44.55433" lon="4.24331">
        <ele>386.1</ele>
        <time>2009-10-18T11:04:19Z</time>
      </trkpt>
      <trkpt lat="44.55433" lon="4.24331">
        <ele>385.9</ele>
        <time>2009-10-18T11:04:20Z</time>
      </trkpt>
      <trkpt lat="44.55438" lon="4.24323">
        <ele>385.8</ele>
        <time>2009-10-18T11:04:28Z</time>
      </trkpt>
      <trkpt lat="44.55443" lon="4.2432">
        <ele>387</ele>
        <time>2009-10-18T11:04:34Z</time>
      </trkpt>
      <trkpt lat="44.55447" lon="4.24316">
        <ele>387.4</ele>
        <time>2009-10-18T11:04:37Z</time>
      </trkpt>
      <trkpt lat="44.55472" lon="4.24303">
        <ele>392.6</ele>
        <time>2009-10-18T11:04:52Z</time>
      </trkpt>
      <trkpt lat="44.55489" lon="4.24293">
        <ele>395.4</ele>
        <time>2009-10-18T11:05:04Z</time>
      </trkpt>
      <trkpt lat="44.55506" lon="4.24277">
        <ele>395.3</ele>
        <time>2009-10-18T11:05:18Z</time>
      </trkpt>
      <trkpt lat="44.55525" lon="4.24261">
        <ele>393</ele>
        <time>2009-10-18T11:05:29Z</time>
      </trkpt>
      <trkpt lat="44.55547" lon="4.24257">
        <ele>394.3</ele>
        <time>2009-10-18T11:05:42Z</time>
      </trkpt>
      <trkpt lat="44.55559" lon="4.24257">
        <ele>395.6</ele>
        <time>2009-10-18T11:05:52Z</time>
      </trkpt>
      <trkpt lat="44.55555" lon="4.24264">
        <ele>396.4</ele>
        <time>2009-10-18T11:06:04Z</time>
      </trkpt>
      <trkpt lat="44.55557" lon="4.24269">
        <ele>397.4</ele>
        <time>2009-10-18T11:06:19Z</time>
      </trkpt>
      <trkpt lat="44.55556" lon="4.24274">
        <ele>398.1</ele>
        <time>2009-10-18T11:06:39Z</time>
      </trkpt>
      <trkpt lat="44.55557" lon="4.24272">
        <ele>397.9</ele>
        <time>2009-10-18T11:06:59Z</time>
      </trkpt>
      <trkpt lat="44.55558" lon="4.24267">
        <ele>397</ele>
        <time>2009-10-18T11:07:16Z</time>
      </trkpt>
      <trkpt lat="44.55558" lon="4.24269">
        <ele>397.4</ele>
        <time>2009-10-18T11:07:29Z</time>
      </trkpt>
      <trkpt lat="44.55524" lon="4.24289">
        <ele>398.9</ele>
        <time>2009-10-18T11:07:46Z</time>
      </trkpt>
      <trkpt lat="44.55523" lon="4.24295">
        <ele>400.3</ele>
        <time>2009-10-18T11:07:50Z</time>
      </trkpt>
      <trkpt lat="44.55525" lon="4.24297">
        <ele>400.9</ele>
        <time>2009-10-18T11:07:52Z</time>
      </trkpt>
      <trkpt lat="44.55526" lon="4.24299">
        <ele>401.4</ele>
        <time>2009-10-18T11:07:54Z</time>
      </trkpt>
      <trkpt lat="44.55548" lon="4.24301">
        <ele>402.5</ele>
        <time>2009-10-18T11:08:07Z</time>
      </trkpt>
      <trkpt lat="44.55558" lon="4.24304">
        <ele>403.4</ele>
        <time>2009-10-18T11:08:12Z</time>
      </trkpt>
      <trkpt lat="44.55568" lon="4.24312">
        <ele>404.9</ele>
        <time>2009-10-18T11:08:17Z</time>
      </trkpt>
      <trkpt lat="44.55582" lon="4.24343">
        <ele>411.1</ele>
        <time>2009-10-18T11:08:31Z</time>
      </trkpt>
      <trkpt lat="44.55592" lon="4.24355">
        <ele>416.1</ele>
        <time>2009-10-18T11:08:42Z</time>
      </trkpt>
      <trkpt lat="44.55605" lon="4.24364">
        <ele>420.7</ele>
        <time>2009-10-18T11:08:49Z</time>
      </trkpt>
      <trkpt lat="44.55609" lon="4.2437">
        <ele>423.1</ele>
        <time>2009-10-18T11:08:52Z</time>
      </trkpt>
      <trkpt lat="44.55615" lon="4.24383">
        <ele>427.7</ele>
        <time>2009-10-18T11:08:58Z</time>
      </trkpt>
      <trkpt lat="44.55623" lon="4.24386">
        <ele>429.6</ele>
        <time>2009-10-18T11:09:02Z</time>
      </trkpt>
      <trkpt lat="44.55633" lon="4.24378">
        <ele>428.7</ele>
        <time>2009-10-18T11:09:07Z</time>
      </trkpt>
      <trkpt lat="44.55653" lon="4.24352">
        <ele>424.1</ele>
        <time>2009-10-18T11:09:22Z</time>
      </trkpt>
      <trkpt lat="44.55654" lon="4.24352">
        <ele>424.1</ele>
        <time>2009-10-18T11:09:23Z</time>
      </trkpt>
      <trkpt lat="44.55665" lon="4.24336">
        <ele>421.6</ele>
        <time>2009-10-18T11:09:36Z</time>
      </trkpt>
      <trkpt lat="44.55677" lon="4.24327">
        <ele>421.8</ele>
        <time>2009-10-18T11:09:42Z</time>
      </trkpt>
      <trkpt lat="44.5569" lon="4.24307">
        <ele>420.8</ele>
        <time>2009-10-18T11:09:53Z</time>
      </trkpt>
      <trkpt lat="44.55694" lon="4.243">
        <ele>420.4</ele>
        <time>2009-10-18T11:09:56Z</time>
      </trkpt>
      <trkpt lat="44.55696" lon="4.24297">
        <ele>420.3</ele>
        <time>2009-10-18T11:10:00Z</time>
      </trkpt>
      <trkpt lat="44.55713" lon="4.24299">
        <ele>423.1</ele>
        <time>2009-10-18T11:10:14Z</time>
      </trkpt>
      <trkpt lat="44.55725" lon="4.24297">
        <ele>424.7</ele>
        <time>2009-10-18T11:10:21Z</time>
      </trkpt>
      <trkpt lat="44.55753" lon="4.243">
        <ele>428.8</ele>
        <time>2009-10-18T11:10:39Z</time>
      </trkpt>
      <trkpt lat="44.55767" lon="4.24303">
        <ele>428.5</ele>
        <time>2009-10-18T11:10:46Z</time>
      </trkpt>
      <trkpt lat="44.55789" lon="4.24328">
        <ele>430.9</ele>
        <time>2009-10-18T11:11:02Z</time>
      </trkpt>
      <trkpt lat="44.55804" lon="4.24363">
        <ele>436.5</ele>
        <time>2009-10-18T11:11:18Z</time>
      </trkpt>
      <trkpt lat="44.55811" lon="4.24376">
        <ele>438.5</ele>
        <time>2009-10-18T11:11:25Z</time>
      </trkpt>
      <trkpt lat="44.55827" lon="4.244">
        <ele>440.8</ele>
        <time>2009-10-18T11:11:38Z</time>
      </trkpt>
      <trkpt lat="44.55829" lon="4.24402">
        <ele>441</ele>
        <time>2009-10-18T11:11:40Z</time>
      </trkpt>
      <trkpt lat="44.55838" lon="4.24416">
        <ele>441.6</ele>
        <time>2009-10-18T11:11:47Z</time>
      </trkpt>
      <trkpt lat="44.55852" lon="4.24448">
        <ele>443.5</ele>
        <time>2009-10-18T11:12:01Z</time>
      </trkpt>
      <trkpt lat="44.55847" lon="4.24498">
        <ele>453</ele>
        <time>2009-10-18T11:12:17Z</time>
      </trkpt>
      <trkpt lat="44.5585" lon="4.24537">
        <ele>458.5</ele>
        <time>2009-10-18T11:12:32Z</time>
      </trkpt>
      <trkpt lat="44.55858" lon="4.24547">
        <ele>457.7</ele>
        <time>2009-10-18T11:12:38Z</time>
      </trkpt>
      <trkpt lat="44.55879" lon="4.24563">
        <ele>455.1</ele>
        <time>2009-10-18T11:12:51Z</time>
      </trkpt>
      <trkpt lat="44.55899" lon="4.24585">
        <ele>454.5</ele>
        <time>2009-10-18T11:13:05Z</time>
      </trkpt>
      <trkpt lat="44.55917" lon="4.24611">
        <ele>453.8</ele>
        <time>2009-10-18T11:13:19Z</time>
      </trkpt>
      <trkpt lat="44.55928" lon="4.24642">
        <ele>455.1</ele>
        <time>2009-10-18T11:13:31Z</time>
      </trkpt>
      <trkpt lat="44.55934" lon="4.24696">
        <ele>458.4</ele>
        <time>2009-10-18T11:13:45Z</time>
      </trkpt>
      <trkpt lat="44.55941" lon="4.24734">
        <ele>459.8</ele>
        <time>2009-10-18T11:13:54Z</time>
      </trkpt>
      <trkpt lat="44.55971" lon="4.2476">
        <ele>453.9</ele>
        <time>2009-10-18T11:14:05Z</time>
      </trkpt>
      <trkpt lat="44.56" lon="4.24787">
        <ele>446.6</ele>
        <time>2009-10-18T11:14:16Z</time>
      </trkpt>
      <trkpt lat="44.56004" lon="4.2479">
        <ele>446.7</ele>
        <time>2009-10-18T11:14:43Z</time>
      </trkpt>
      <trkpt lat="44.56006" lon="4.24793">
        <ele>446.7</ele>
        <time>2009-10-18T11:14:58Z</time>
      </trkpt>
      <trkpt lat="44.56018" lon="4.24804">
        <ele>446.6</ele>
        <time>2009-10-18T11:15:03Z</time>
      </trkpt>
      <trkpt lat="44.56036" lon="4.24811">
        <ele>446.4</ele>
        <time>2009-10-18T11:15:07Z</time>
      </trkpt>
      <trkpt lat="44.56115" lon="4.24804">
        <ele>445.2</ele>
        <time>2009-10-18T11:15:21Z</time>
      </trkpt>
      <trkpt lat="44.56127" lon="4.24804">
        <ele>444.3</ele>
        <time>2009-10-18T11:15:23Z</time>
      </trkpt>
      <trkpt lat="44.56164" lon="4.24793">
        <ele>443.4</ele>
        <time>2009-10-18T11:15:29Z</time>
      </trkpt>
      <trkpt lat="44.56192" lon="4.24788">
        <ele>445.4</ele>
        <time>2009-10-18T11:15:33Z</time>
      </trkpt>
      <trkpt lat="44.56214" lon="4.24807">
        <ele>444.6</ele>
        <time>2009-10-18T11:15:38Z</time>
      </trkpt>
      <trkpt lat="44.56218" lon="4.24828">
        <ele>443.3</ele>
        <time>2009-10-18T11:15:41Z</time>
      </trkpt>
      <trkpt lat="44.56248" lon="4.2485">
        <ele>444.8</ele>
        <time>2009-10-18T11:15:49Z</time>
      </trkpt>
      <trkpt lat="44.56253" lon="4.24849">
        <ele>445.5</ele>
        <time>2009-10-18T11:15:50Z</time>
      </trkpt>
      <trkpt lat="44.56331" lon="4.2482">
        <ele>456.1</ele>
        <time>2009-10-18T11:16:09Z</time>
      </trkpt>
      <trkpt lat="44.56369" lon="4.24818">
        <ele>461.2</ele>
        <time>2009-10-18T11:16:22Z</time>
      </trkpt>
      <trkpt lat="44.56377" lon="4.24838">
        <ele>461.5</ele>
        <time>2009-10-18T11:16:30Z</time>
      </trkpt>
      <trkpt lat="44.56379" lon="4.2485">
        <ele>461.2</ele>
        <time>2009-10-18T11:16:34Z</time>
      </trkpt>
      <trkpt lat="44.56389" lon="4.24893">
        <ele>460</ele>
        <time>2009-10-18T11:16:50Z</time>
      </trkpt>
      <trkpt lat="44.56406" lon="4.24922">
        <ele>459.5</ele>
        <time>2009-10-18T11:16:58Z</time>
      </trkpt>
      <trkpt lat="44.56428" lon="4.2494">
        <ele>458.4</ele>
        <time>2009-10-18T11:17:03Z</time>
      </trkpt>
      <trkpt lat="44.56449" lon="4.24946">
        <ele>458.4</ele>
        <time>2009-10-18T11:17:06Z</time>
      </trkpt>
      <trkpt lat="44.56464" lon="4.2495">
        <ele>458.5</ele>
        <time>2009-10-18T11:17:08Z</time>
      </trkpt>
      <trkpt lat="44.56497" lon="4.25002">
        <ele>453.8</ele>
        <time>2009-10-18T11:17:15Z</time>
      </trkpt>
      <trkpt lat="44.56493" lon="4.25032">
        <ele>452.7</ele>
        <time>2009-10-18T11:17:18Z</time>
      </trkpt>
      <trkpt lat="44.56488" lon="4.25053">
        <ele>451.5</ele>
        <time>2009-10-18T11:17:20Z</time>
      </trkpt>
      <trkpt lat="44.56477" lon="4.25084">
        <ele>449</ele>
        <time>2009-10-18T11:17:23Z</time>
      </trkpt>
      <trkpt lat="44.56463" lon="4.25111">
        <ele>447.9</ele>
        <time>2009-10-18T11:17:26Z</time>
      </trkpt>
      <trkpt lat="44.5646" lon="4.2515">
        <ele>448.6</ele>
        <time>2009-10-18T11:17:31Z</time>
      </trkpt>
      <trkpt lat="44.56468" lon="4.25156">
        <ele>449.9</ele>
        <time>2009-10-18T11:17:33Z</time>
      </trkpt>
      <trkpt lat="44.5648" lon="4.25165">
        <ele>451.5</ele>
        <time>2009-10-18T11:17:37Z</time>
      </trkpt>
      <trkpt lat="44.56489" lon="4.25159">
        <ele>452.5</ele>
        <time>2009-10-18T07:40:33Z</time>
      </trkpt>
      <trkpt lat="44.56489" lon="4.25159">
        <ele>452.5</ele>
        <time>2009-10-18T07:40:33Z</time>
      </trkpt>
      <trkpt lat="44.56508" lon="4.25151">
        <ele>452.7</ele>
        <time>2009-10-18T07:40:41Z</time>
      </trkpt>
      <trkpt lat="44.56519" lon="4.25148">
        <ele>451.4</ele>
        <time>2009-10-18T07:40:44Z</time>
      </trkpt>
      <trkpt lat="44.56538" lon="4.2515">
        <ele>449.3</ele>
        <time>2009-10-18T07:40:49Z</time>
      </trkpt>
      <trkpt lat="44.56545" lon="4.25134">
        <ele>449</ele>
        <time>2009-10-18T07:40:53Z</time>
      </trkpt>
      <trkpt lat="44.56554" lon="4.25123">
        <ele>448.5</ele>
        <time>2009-10-18T07:40:56Z</time>
      </trkpt>
      <trkpt lat="44.56563" lon="4.2511">
        <ele>448.5</ele>
        <time>2009-10-18T07:40:59Z</time>
      </trkpt>
      <trkpt lat="44.56569" lon="4.25104">
        <ele>448.4</ele>
        <time>2009-10-18T07:41:02Z</time>
      </trkpt>
      <trkpt lat="44.56579" lon="4.25089">
        <ele>448.8</ele>
        <time>2009-10-18T07:41:06Z</time>
      </trkpt>
      <trkpt lat="44.56588" lon="4.25074">
        <ele>449.4</ele>
        <time>2009-10-18T07:41:10Z</time>
      </trkpt>
      <trkpt lat="44.5659" lon="4.25071">
        <ele>449.5</ele>
        <time>2009-10-18T07:41:11Z</time>
      </trkpt>
      <trkpt lat="44.56601" lon="4.25028">
        <ele>452.2</ele>
        <time>2009-10-18T07:41:20Z</time>
      </trkpt>
      <trkpt lat="44.56622" lon="4.24992">
        <ele>453.6</ele>
        <time>2009-10-18T07:41:29Z</time>
      </trkpt>
      <trkpt lat="44.5667" lon="4.24977">
        <ele>451</ele>
        <time>2009-10-18T07:41:43Z</time>
      </trkpt>
      <trkpt lat="44.5672" lon="4.24924">
        <ele>454.4</ele>
        <time>2009-10-18T07:42:01Z</time>
      </trkpt>
      <trkpt lat="44.56727" lon="4.24919">
        <ele>454.4</ele>
        <time>2009-10-18T07:42:11Z</time>
      </trkpt>
      <trkpt lat="44.56726" lon="4.2492">
        <ele>454.4</ele>
        <time>2009-10-18T07:42:29Z</time>
      </trkpt>
      <trkpt lat="44.56727" lon="4.24918">
        <ele>454.5</ele>
        <time>2009-10-18T07:42:32Z</time>
      </trkpt>
      <trkpt lat="44.5674" lon="4.24896">
        <ele>454.9</ele>
        <time>2009-10-18T07:42:49Z</time>
      </trkpt>
      <trkpt lat="44.56742" lon="4.24894">
        <ele>454.9</ele>
        <time>2009-10-18T07:42:52Z</time>
      </trkpt>
      <trkpt lat="44.56748" lon="4.24893">
        <ele>454.6</ele>
        <time>2009-10-18T07:45:07Z</time>
      </trkpt>
      <trkpt lat="44.56757" lon="4.24899">
        <ele>456.1</ele>
        <time>2009-10-18T07:45:17Z</time>
      </trkpt>
      <trkpt lat="44.56758" lon="4.24894">
        <ele>456.5</ele>
        <time>2009-10-18T07:45:21Z</time>
      </trkpt>
      <trkpt lat="44.56759" lon="4.24881">
        <ele>456.9</ele>
        <time>2009-10-18T07:45:26Z</time>
      </trkpt>
      <trkpt lat="44.56787" lon="4.24795">
        <ele>459.3</ele>
        <time>2009-10-18T07:45:42Z</time>
      </trkpt>
      <trkpt lat="44.56812" lon="4.24737">
        <ele>455.1</ele>
        <time>2009-10-18T07:45:52Z</time>
      </trkpt>
      <trkpt lat="44.56827" lon="4.24699">
        <ele>449.9</ele>
        <time>2009-10-18T07:45:57Z</time>
      </trkpt>
      <trkpt lat="44.56854" lon="4.2466">
        <ele>445.4</ele>
        <time>2009-10-18T07:46:03Z</time>
      </trkpt>
      <trkpt lat="44.5686" lon="4.24655">
        <ele>445.2</ele>
        <time>2009-10-18T07:46:04Z</time>
      </trkpt>
      <trkpt lat="44.56921" lon="4.24618">
        <ele>442.5</ele>
        <time>2009-10-18T07:46:14Z</time>
      </trkpt>
      <trkpt lat="44.56952" lon="4.24601">
        <ele>440.8</ele>
        <time>2009-10-18T07:46:19Z</time>
      </trkpt>
      <trkpt lat="44.56976" lon="4.24607">
        <ele>442.2</ele>
        <time>2009-10-18T07:46:23Z</time>
      </trkpt>
      <trkpt lat="44.56991" lon="4.24619">
        <ele>443.4</ele>
        <time>2009-10-18T07:46:26Z</time>
      </trkpt>
      <trkpt lat="44.57007" lon="4.24648">
        <ele>446.5</ele>
        <time>2009-10-18T07:46:32Z</time>
      </trkpt>
      <trkpt lat="44.57027" lon="4.24626">
        <ele>447.9</ele>
        <time>2009-10-18T07:46:40Z</time>
      </trkpt>
      <trkpt lat="44.57024" lon="4.24615">
        <ele>447</ele>
        <time>2009-10-18T07:46:42Z</time>
      </trkpt>
      <trkpt lat="44.57021" lon="4.24547">
        <ele>447.8</ele>
        <time>2009-10-18T07:46:56Z</time>
      </trkpt>
      <trkpt lat="44.57038" lon="4.24519">
        <ele>453.8</ele>
        <time>2009-10-18T07:47:05Z</time>
      </trkpt>
      <trkpt lat="44.57012" lon="4.24489">
        <ele>451.4</ele>
        <time>2009-10-18T07:47:15Z</time>
      </trkpt>
      <trkpt lat="44.56969" lon="4.2443">
        <ele>451.8</ele>
        <time>2009-10-18T07:47:32Z</time>
      </trkpt>
      <trkpt lat="44.56943" lon="4.24373">
        <ele>453.2</ele>
        <time>2009-10-18T07:47:47Z</time>
      </trkpt>
      <trkpt lat="44.56927" lon="4.24326">
        <ele>453</ele>
        <time>2009-10-18T07:47:58Z</time>
      </trkpt>
      <trkpt lat="44.56916" lon="4.24264">
        <ele>454.7</ele>
        <time>2009-10-18T07:48:12Z</time>
      </trkpt>
      <trkpt lat="44.5691" lon="4.24196">
        <ele>455.7</ele>
        <time>2009-10-18T07:48:28Z</time>
      </trkpt>
      <trkpt lat="44.56938" lon="4.24147">
        <ele>465.7</ele>
        <time>2009-10-18T07:48:42Z</time>
      </trkpt>
      <trkpt lat="44.56934" lon="4.24102">
        <ele>465.1</ele>
        <time>2009-10-18T07:48:53Z</time>
      </trkpt>
      <trkpt lat="44.56937" lon="4.24049">
        <ele>466.2</ele>
        <time>2009-10-18T07:49:07Z</time>
      </trkpt>
      <trkpt lat="44.56968" lon="4.2403">
        <ele>469.2</ele>
        <time>2009-10-18T07:49:18Z</time>
      </trkpt>
      <trkpt lat="44.56981" lon="4.24022">
        <ele>469.5</ele>
        <time>2009-10-18T07:49:21Z</time>
      </trkpt>
      <trkpt lat="44.57026" lon="4.23959">
        <ele>466.5</ele>
        <time>2009-10-18T07:49:33Z</time>
      </trkpt>
      <trkpt lat="44.57036" lon="4.23923">
        <ele>462.6</ele>
        <time>2009-10-18T07:49:38Z</time>
      </trkpt>
      <trkpt lat="44.57036" lon="4.23906">
        <ele>460.9</ele>
        <time>2009-10-18T07:49:40Z</time>
      </trkpt>
      <trkpt lat="44.57056" lon="4.23865">
        <ele>459.6</ele>
        <time>2009-10-18T07:49:46Z</time>
      </trkpt>
      <trkpt lat="44.57086" lon="4.23831">
        <ele>458.9</ele>
        <time>2009-10-18T07:49:52Z</time>
      </trkpt>
      <trkpt lat="44.57121" lon="4.2378">
        <ele>452.9</ele>
        <time>2009-10-18T07:50:00Z</time>
      </trkpt>
      <trkpt lat="44.57139" lon="4.23771">
        <ele>452.3</ele>
        <time>2009-10-18T07:50:03Z</time>
      </trkpt>
      <trkpt lat="44.57152" lon="4.23769">
        <ele>452.5</ele>
        <time>2009-10-18T07:50:05Z</time>
      </trkpt>
      <trkpt lat="44.57178" lon="4.2378">
        <ele>455.4</ele>
        <time>2009-10-18T07:50:09Z</time>
      </trkpt>
      <trkpt lat="44.57208" lon="4.23806">
        <ele>458.7</ele>
        <time>2009-10-18T07:50:14Z</time>
      </trkpt>
      <trkpt lat="44.57232" lon="4.23808">
        <ele>457.3</ele>
        <time>2009-10-18T07:50:18Z</time>
      </trkpt>
      <trkpt lat="44.57246" lon="4.23769">
        <ele>451.4</ele>
        <time>2009-10-18T07:50:25Z</time>
      </trkpt>
      <trkpt lat="44.5724" lon="4.23705">
        <ele>450.6</ele>
        <time>2009-10-18T07:50:35Z</time>
      </trkpt>
      <trkpt lat="44.5724" lon="4.23665">
        <ele>452.1</ele>
        <time>2009-10-18T07:50:45Z</time>
      </trkpt>
      <trkpt lat="44.57244" lon="4.23607">
        <ele>456.4</ele>
        <time>2009-10-18T07:51:01Z</time>
      </trkpt>
      <trkpt lat="44.57239" lon="4.23512">
        <ele>459.1</ele>
        <time>2009-10-18T07:51:24Z</time>
      </trkpt>
      <trkpt lat="44.57251" lon="4.23422">
        <ele>459.3</ele>
        <time>2009-10-18T07:51:44Z</time>
      </trkpt>
      <trkpt lat="44.57279" lon="4.23319">
        <ele>461.9</ele>
        <time>2009-10-18T07:52:05Z</time>
      </trkpt>
      <trkpt lat="44.57296" lon="4.23236">
        <ele>464.1</ele>
        <time>2009-10-18T07:52:22Z</time>
      </trkpt>
      <trkpt lat="44.57321" lon="4.23182">
        <ele>468.4</ele>
        <time>2009-10-18T07:52:35Z</time>
      </trkpt>
      <trkpt lat="44.5733" lon="4.23122">
        <ele>473.3</ele>
        <time>2009-10-18T07:52:49Z</time>
      </trkpt>
      <trkpt lat="44.57336" lon="4.23092">
        <ele>477.1</ele>
        <time>2009-10-18T07:52:56Z</time>
      </trkpt>
      <trkpt lat="44.57348" lon="4.23047">
        <ele>482.2</ele>
        <time>2009-10-18T07:53:08Z</time>
      </trkpt>
      <trkpt lat="44.57349" lon="4.22999">
        <ele>483.2</ele>
        <time>2009-10-18T07:53:22Z</time>
      </trkpt>
      <trkpt lat="44.57347" lon="4.22994">
        <ele>483.1</ele>
        <time>2009-10-18T07:53:38Z</time>
      </trkpt>
      <trkpt lat="44.57346" lon="4.22995">
        <ele>482.7</ele>
        <time>2009-10-18T07:53:56Z</time>
      </trkpt>
      <trkpt lat="44.57346" lon="4.22998">
        <ele>482.5</ele>
        <time>2009-10-18T07:54:23Z</time>
      </trkpt>
      <trkpt lat="44.57346" lon="4.22998">
        <ele>482.5</ele>
        <time>2009-10-18T07:54:24Z</time>
      </trkpt>
      <trkpt lat="44.57346" lon="4.22996">
        <ele>482.6</ele>
        <time>2009-10-18T07:54:43Z</time>
      </trkpt>
      <trkpt lat="44.5734" lon="4.2299">
        <ele>481.7</ele>
        <time>2009-10-18T07:54:57Z</time>
      </trkpt>
      <trkpt lat="44.57343" lon="4.22993">
        <ele>482.1</ele>
        <time>2009-10-18T07:55:05Z</time>
      </trkpt>
      <trkpt lat="44.57344" lon="4.22992">
        <ele>482.6</ele>
        <time>2009-10-18T07:55:06Z</time>
      </trkpt>
      <trkpt lat="44.57349" lon="4.22986">
        <ele>484.2</ele>
        <time>2009-10-18T07:55:09Z</time>
      </trkpt>
      <trkpt lat="44.57345" lon="4.2297">
        <ele>484.4</ele>
        <time>2009-10-18T07:55:15Z</time>
      </trkpt>
      <trkpt lat="44.57327" lon="4.22944">
        <ele>483</ele>
        <time>2009-10-18T07:55:28Z</time>
      </trkpt>
      <trkpt lat="44.57312" lon="4.22907">
        <ele>483.2</ele>
        <time>2009-10-18T07:55:43Z</time>
      </trkpt>
      <trkpt lat="44.57304" lon="4.22864">
        <ele>482.8</ele>
        <time>2009-10-18T07:55:53Z</time>
      </trkpt>
      <trkpt lat="44.5731" lon="4.22804">
        <ele>484.6</ele>
        <time>2009-10-18T07:56:07Z</time>
      </trkpt>
      <trkpt lat="44.57314" lon="4.22779">
        <ele>485.6</ele>
        <time>2009-10-18T07:56:14Z</time>
      </trkpt>
      <trkpt lat="44.57326" lon="4.22778">
        <ele>486.9</ele>
        <time>2009-10-18T07:56:21Z</time>
      </trkpt>
      <trkpt lat="44.57329" lon="4.2276">
        <ele>487.5</ele>
        <time>2009-10-18T07:56:31Z</time>
      </trkpt>
      <trkpt lat="44.57329" lon="4.22747">
        <ele>488</ele>
        <time>2009-10-18T07:56:36Z</time>
      </trkpt>
      <trkpt lat="44.57328" lon="4.22719">
        <ele>490.4</ele>
        <time>2009-10-18T07:56:47Z</time>
      </trkpt>
      <trkpt lat="44.57331" lon="4.22673">
        <ele>494.5</ele>
        <time>2009-10-18T07:57:04Z</time>
      </trkpt>
      <trkpt lat="44.57336" lon="4.22665">
        <ele>495.8</ele>
        <time>2009-10-18T07:57:09Z</time>
      </trkpt>
      <trkpt lat="44.57337" lon="4.22624">
        <ele>501</ele>
        <time>2009-10-18T07:57:26Z</time>
      </trkpt>
      <trkpt lat="44.57338" lon="4.22623">
        <ele>501.4</ele>
        <time>2009-10-18T07:57:28Z</time>
      </trkpt>
      <trkpt lat="44.57346" lon="4.22626">
        <ele>502.7</ele>
        <time>2009-10-18T07:57:39Z</time>
      </trkpt>
      <trkpt lat="44.57349" lon="4.22626">
        <ele>503.3</ele>
        <time>2009-10-18T07:57:43Z</time>
      </trkpt>
      <trkpt lat="44.57353" lon="4.22636">
        <ele>503.2</ele>
        <time>2009-10-18T07:57:52Z</time>
      </trkpt>
      <trkpt lat="44.57357" lon="4.22622">
        <ele>505.7</ele>
        <time>2009-10-18T07:58:06Z</time>
      </trkpt>
      <trkpt lat="44.57365" lon="4.22617">
        <ele>508.3</ele>
        <time>2009-10-18T07:58:18Z</time>
      </trkpt>
      <trkpt lat="44.57368" lon="4.22607">
        <ele>510.2</ele>
        <time>2009-10-18T07:58:31Z</time>
      </trkpt>
      <trkpt lat="44.57376" lon="4.22585">
        <ele>514.9</ele>
        <time>2009-10-18T07:58:47Z</time>
      </trkpt>
      <trkpt lat="44.57384" lon="4.22572">
        <ele>519</ele>
        <time>2009-10-18T07:58:59Z</time>
      </trkpt>
      <trkpt lat="44.57392" lon="4.22548">
        <ele>524.5</ele>
        <time>2009-10-18T07:59:13Z</time>
      </trkpt>
      <trkpt lat="44.57393" lon="4.22539">
        <ele>526.1</ele>
        <time>2009-10-18T07:59:17Z</time>
      </trkpt>
      <trkpt lat="44.5738" lon="4.22519">
        <ele>526.2</ele>
        <time>2009-10-18T07:59:29Z</time>
      </trkpt>
      <trkpt lat="44.57384" lon="4.22508">
        <ele>528.7</ele>
        <time>2009-10-18T07:59:36Z</time>
      </trkpt>
      <trkpt lat="44.57382" lon="4.22505">
        <ele>528.7</ele>
        <time>2009-10-18T07:59:44Z</time>
      </trkpt>
      <trkpt lat="44.57382" lon="4.2249">
        <ele>531.3</ele>
        <time>2009-10-18T07:59:58Z</time>
      </trkpt>
      <trkpt lat="44.5738" lon="4.2248">
        <ele>532.8</ele>
        <time>2009-10-18T08:00:09Z</time>
      </trkpt>
      <trkpt lat="44.57381" lon="4.22466">
        <ele>535.9</ele>
        <time>2009-10-18T08:00:21Z</time>
      </trkpt>
      <trkpt lat="44.57383" lon="4.22456">
        <ele>538.3</ele>
        <time>2009-10-18T08:00:34Z</time>
      </trkpt>
      <trkpt lat="44.57387" lon="4.22445">
        <ele>541.5</ele>
        <time>2009-10-18T08:00:46Z</time>
      </trkpt>
      <trkpt lat="44.5739" lon="4.22433">
        <ele>544.3</ele>
        <time>2009-10-18T08:00:59Z</time>
      </trkpt>
      <trkpt lat="44.57389" lon="4.22416">
        <ele>547.5</ele>
        <time>2009-10-18T08:01:11Z</time>
      </trkpt>
      <trkpt lat="44.57389" lon="4.22413">
        <ele>547.9</ele>
        <time>2009-10-18T08:01:12Z</time>
      </trkpt>
      <trkpt lat="44.57388" lon="4.22409">
        <ele>548.1</ele>
        <time>2009-10-18T08:01:14Z</time>
      </trkpt>
      <trkpt lat="44.57371" lon="4.22383">
        <ele>547.7</ele>
        <time>2009-10-18T08:01:26Z</time>
      </trkpt>
      <trkpt lat="44.57358" lon="4.22357">
        <ele>548.9</ele>
        <time>2009-10-18T08:01:41Z</time>
      </trkpt>
      <trkpt lat="44.57355" lon="4.22329">
        <ele>551.9</ele>
        <time>2009-10-18T08:01:55Z</time>
      </trkpt>
      <trkpt lat="44.57354" lon="4.22308">
        <ele>551.8</ele>
        <time>2009-10-18T08:02:05Z</time>
      </trkpt>
      <trkpt lat="44.57354" lon="4.22306">
        <ele>551.8</ele>
        <time>2009-10-18T08:02:06Z</time>
      </trkpt>
      <trkpt lat="44.57354" lon="4.22292">
        <ele>551.8</ele>
        <time>2009-10-18T08:04:52Z</time>
      </trkpt>
      <trkpt lat="44.57367" lon="4.22293">
        <ele>553.5</ele>
        <time>2009-10-18T08:05:06Z</time>
      </trkpt>
      <trkpt lat="44.57378" lon="4.22315">
        <ele>555.5</ele>
        <time>2009-10-18T08:05:16Z</time>
      </trkpt>
      <trkpt lat="44.57391" lon="4.22331">
        <ele>558.3</ele>
        <time>2009-10-18T08:05:27Z</time>
      </trkpt>
      <trkpt lat="44.57402" lon="4.22326">
        <ele>560</ele>
        <time>2009-10-18T08:05:34Z</time>
      </trkpt>
      <trkpt lat="44.57413" lon="4.22311">
        <ele>560.8</ele>
        <time>2009-10-18T08:05:43Z</time>
      </trkpt>
      <trkpt lat="44.57432" lon="4.22288">
        <ele>565.2</ele>
        <time>2009-10-18T08:05:57Z</time>
      </trkpt>
      <trkpt lat="44.57455" lon="4.22274">
        <ele>571.4</ele>
        <time>2009-10-18T08:06:12Z</time>
      </trkpt>
      <trkpt lat="44.57477" lon="4.22248">
        <ele>575.8</ele>
        <time>2009-10-18T08:06:27Z</time>
      </trkpt>
      <trkpt lat="44.57492" lon="4.22232">
        <ele>580</ele>
        <time>2009-10-18T08:06:38Z</time>
      </trkpt>
      <trkpt lat="44.57505" lon="4.22199">
        <ele>584.1</ele>
        <time>2009-10-18T08:06:56Z</time>
      </trkpt>
      <trkpt lat="44.575" lon="4.22167">
        <ele>581</ele>
        <time>2009-10-18T08:07:10Z</time>
      </trkpt>
      <trkpt lat="44.57507" lon="4.22129">
        <ele>582.7</ele>
        <time>2009-10-18T08:07:26Z</time>
      </trkpt>
      <trkpt lat="44.57519" lon="4.22091">
        <ele>587</ele>
        <time>2009-10-18T08:07:42Z</time>
      </trkpt>
      <trkpt lat="44.57521" lon="4.22073">
        <ele>587.5</ele>
        <time>2009-10-18T08:07:49Z</time>
      </trkpt>
      <trkpt lat="44.5752" lon="4.22066">
        <ele>586.9</ele>
        <time>2009-10-18T08:07:53Z</time>
      </trkpt>
      <trkpt lat="44.57527" lon="4.22012">
        <ele>588.7</ele>
        <time>2009-10-18T08:08:07Z</time>
      </trkpt>
      <trkpt lat="44.57529" lon="4.21967">
        <ele>588.4</ele>
        <time>2009-10-18T08:08:13Z</time>
      </trkpt>
      <trkpt lat="44.57524" lon="4.21917">
        <ele>584.6</ele>
        <time>2009-10-18T08:08:18Z</time>
      </trkpt>
      <trkpt lat="44.57521" lon="4.21879">
        <ele>580.3</ele>
        <time>2009-10-18T08:08:21Z</time>
      </trkpt>
      <trkpt lat="44.57525" lon="4.21824">
        <ele>577.8</ele>
        <time>2009-10-18T08:08:25Z</time>
      </trkpt>
      <trkpt lat="44.57527" lon="4.21812">
        <ele>577.5</ele>
        <time>2009-10-18T08:08:26Z</time>
      </trkpt>
      <trkpt lat="44.57525" lon="4.2176">
        <ele>573</ele>
        <time>2009-10-18T08:08:30Z</time>
      </trkpt>
      <trkpt lat="44.57525" lon="4.21737">
        <ele>571.3</ele>
        <time>2009-10-18T08:08:32Z</time>
      </trkpt>
      <trkpt lat="44.57525" lon="4.21728">
        <ele>570.4</ele>
        <time>2009-10-18T08:08:33Z</time>
      </trkpt>
      <trkpt lat="44.57525" lon="4.2171">
        <ele>569.3</ele>
        <time>2009-10-18T08:08:35Z</time>
      </trkpt>
      <trkpt lat="44.57538" lon="4.21664">
        <ele>571.9</ele>
        <time>2009-10-18T08:08:44Z</time>
      </trkpt>
      <trkpt lat="44.57541" lon="4.21613">
        <ele>571.5</ele>
        <time>2009-10-18T08:08:58Z</time>
      </trkpt>
      <trkpt lat="44.57542" lon="4.21541">
        <ele>569.9</ele>
        <time>2009-10-18T08:09:12Z</time>
      </trkpt>
      <trkpt lat="44.57544" lon="4.21492">
        <ele>569.2</ele>
        <time>2009-10-18T08:09:20Z</time>
      </trkpt>
      <trkpt lat="44.57547" lon="4.21479">
        <ele>568.7</ele>
        <time>2009-10-18T08:09:22Z</time>
      </trkpt>
      <trkpt lat="44.57561" lon="4.21454">
        <ele>571</ele>
        <time>2009-10-18T08:09:28Z</time>
      </trkpt>
      <trkpt lat="44.57571" lon="4.21439">
        <ele>573</ele>
        <time>2009-10-18T08:09:34Z</time>
      </trkpt>
      <trkpt lat="44.57583" lon="4.21411">
        <ele>573.1</ele>
        <time>2009-10-18T08:09:44Z</time>
      </trkpt>
      <trkpt lat="44.57583" lon="4.21404">
        <ele>572.1</ele>
        <time>2009-10-18T08:09:46Z</time>
      </trkpt>
      <trkpt lat="44.57581" lon="4.21397">
        <ele>570.4</ele>
        <time>2009-10-18T08:10:02Z</time>
      </trkpt>
      <trkpt lat="44.57583" lon="4.21394">
        <ele>570.6</ele>
        <time>2009-10-18T08:10:04Z</time>
      </trkpt>
      <trkpt lat="44.57584" lon="4.21387">
        <ele>569.9</ele>
        <time>2009-10-18T08:10:06Z</time>
      </trkpt>
      <trkpt lat="44.57603" lon="4.21342">
        <ele>564.9</ele>
        <time>2009-10-18T08:10:17Z</time>
      </trkpt>
      <trkpt lat="44.57617" lon="4.21321">
        <ele>560.1</ele>
        <time>2009-10-18T08:10:26Z</time>
      </trkpt>
      <trkpt lat="44.57622" lon="4.21316">
        <ele>558.8</ele>
        <time>2009-10-18T08:10:29Z</time>
      </trkpt>
      <trkpt lat="44.57631" lon="4.21308">
        <ele>556.3</ele>
        <time>2009-10-18T08:10:33Z</time>
      </trkpt>
      <trkpt lat="44.57632" lon="4.21305">
        <ele>555.4</ele>
        <time>2009-10-18T08:10:34Z</time>
      </trkpt>
      <trkpt lat="44.5765" lon="4.21291">
        <ele>550.9</ele>
        <time>2009-10-18T08:10:43Z</time>
      </trkpt>
      <trkpt lat="44.57655" lon="4.21285">
        <ele>548.4</ele>
        <time>2009-10-18T08:10:51Z</time>
      </trkpt>
      <trkpt lat="44.57664" lon="4.21278">
        <ele>545.9</ele>
        <time>2009-10-18T08:11:01Z</time>
      </trkpt>
      <trkpt lat="44.57684" lon="4.21272">
        <ele>544</ele>
        <time>2009-10-18T08:11:11Z</time>
      </trkpt>
      <trkpt lat="44.57691" lon="4.21269">
        <ele>543.5</ele>
        <time>2009-10-18T08:11:15Z</time>
      </trkpt>
      <trkpt lat="44.57702" lon="4.21271">
        <ele>544.5</ele>
        <time>2009-10-18T08:11:20Z</time>
      </trkpt>
      <trkpt lat="44.57712" lon="4.21266">
        <ele>543.8</ele>
        <time>2009-10-18T08:11:24Z</time>
      </trkpt>
      <trkpt lat="44.57721" lon="4.21264">
        <ele>543.8</ele>
        <time>2009-10-18T08:11:27Z</time>
      </trkpt>
      <trkpt lat="44.57737" lon="4.21266">
        <ele>545.1</ele>
        <time>2009-10-18T08:11:35Z</time>
      </trkpt>
      <trkpt lat="44.57754" lon="4.21262">
        <ele>546</ele>
        <time>2009-10-18T08:11:45Z</time>
      </trkpt>
      <trkpt lat="44.57756" lon="4.21263">
        <ele>546.5</ele>
        <time>2009-10-18T08:11:49Z</time>
      </trkpt>
      <trkpt lat="44.57773" lon="4.21265">
        <ele>549.8</ele>
        <time>2009-10-18T08:12:01Z</time>
      </trkpt>
      <trkpt lat="44.57781" lon="4.21266">
        <ele>551.4</ele>
        <time>2009-10-18T08:12:14Z</time>
      </trkpt>
      <trkpt lat="44.57788" lon="4.21266">
        <ele>552.7</ele>
        <time>2009-10-18T08:12:27Z</time>
      </trkpt>
      <trkpt lat="44.57787" lon="4.21263">
        <ele>552.3</ele>
        <time>2009-10-18T08:12:41Z</time>
      </trkpt>
      <trkpt lat="44.57786" lon="4.21251">
        <ele>550.9</ele>
        <time>2009-10-18T08:12:54Z</time>
      </trkpt>
      <trkpt lat="44.57787" lon="4.2125">
        <ele>551</ele>
        <time>2009-10-18T08:12:56Z</time>
      </trkpt>
      <trkpt lat="44.57784" lon="4.21238">
        <ele>551.9</ele>
        <time>2009-10-18T08:13:07Z</time>
      </trkpt>
      <trkpt lat="44.57761" lon="4.21212">
        <ele>548.3</ele>
        <time>2009-10-18T08:13:21Z</time>
      </trkpt>
      <trkpt lat="44.57742" lon="4.21193">
        <ele>543.6</ele>
        <time>2009-10-18T08:13:33Z</time>
      </trkpt>
      <trkpt lat="44.57727" lon="4.21193">
        <ele>539.3</ele>
        <time>2009-10-18T08:13:42Z</time>
      </trkpt>
      <trkpt lat="44.57708" lon="4.21188">
        <ele>533.8</ele>
        <time>2009-10-18T08:13:54Z</time>
      </trkpt>
      <trkpt lat="44.57708" lon="4.21186">
        <ele>533.4</ele>
        <time>2009-10-18T08:13:59Z</time>
      </trkpt>
      <trkpt lat="44.57705" lon="4.21175">
        <ele>531.6</ele>
        <time>2009-10-18T08:14:10Z</time>
      </trkpt>
      <trkpt lat="44.57698" lon="4.21174">
        <ele>529.2</ele>
        <time>2009-10-18T08:16:11Z</time>
      </trkpt>
      <trkpt lat="44.57689" lon="4.21141">
        <ele>527.2</ele>
        <time>2009-10-18T08:16:22Z</time>
      </trkpt>
      <trkpt lat="44.57687" lon="4.2113">
        <ele>527.4</ele>
        <time>2009-10-18T08:16:24Z</time>
      </trkpt>
      <trkpt lat="44.57687" lon="4.21039">
        <ele>533.2</ele>
        <time>2009-10-18T08:16:41Z</time>
      </trkpt>
      <trkpt lat="44.57698" lon="4.21015">
        <ele>538.7</ele>
        <time>2009-10-18T08:16:46Z</time>
      </trkpt>
      <trkpt lat="44.57699" lon="4.20982">
        <ele>542.3</ele>
        <time>2009-10-18T08:16:52Z</time>
      </trkpt>
      <trkpt lat="44.57672" lon="4.2092">
        <ele>542.2</ele>
        <time>2009-10-18T08:17:04Z</time>
      </trkpt>
      <trkpt lat="44.57643" lon="4.20923">
        <ele>536.5</ele>
        <time>2009-10-18T08:17:12Z</time>
      </trkpt>
      <trkpt lat="44.57638" lon="4.20934">
        <ele>534</ele>
        <time>2009-10-18T08:17:14Z</time>
      </trkpt>
      <trkpt lat="44.57607" lon="4.20946">
        <ele>527.4</ele>
        <time>2009-10-18T08:17:23Z</time>
      </trkpt>
      <trkpt lat="44.576" lon="4.20931">
        <ele>529</ele>
        <time>2009-10-18T08:17:27Z</time>
      </trkpt>
      <trkpt lat="44.57598" lon="4.20915">
        <ele>531.3</ele>
        <time>2009-10-18T08:17:41Z</time>
      </trkpt>
      <trkpt lat="44.57599" lon="4.20915">
        <ele>531.4</ele>
        <time>2009-10-18T08:17:42Z</time>
      </trkpt>
      <trkpt lat="44.57609" lon="4.20904">
        <ele>534.1</ele>
        <time>2009-10-18T08:17:51Z</time>
      </trkpt>
      <trkpt lat="44.5762" lon="4.20891">
        <ele>537.2</ele>
        <time>2009-10-18T08:17:59Z</time>
      </trkpt>
      <trkpt lat="44.57637" lon="4.20875">
        <ele>542.3</ele>
        <time>2009-10-18T08:18:11Z</time>
      </trkpt>
      <trkpt lat="44.57656" lon="4.20837">
        <ele>551.9</ele>
        <time>2009-10-18T08:18:31Z</time>
      </trkpt>
      <trkpt lat="44.57667" lon="4.2082">
        <ele>556.3</ele>
        <time>2009-10-18T08:18:42Z</time>
      </trkpt>
      <trkpt lat="44.57677" lon="4.20814">
        <ele>558.8</ele>
        <time>2009-10-18T08:18:50Z</time>
      </trkpt>
      <trkpt lat="44.57679" lon="4.20813">
        <ele>559.1</ele>
        <time>2009-10-18T08:18:51Z</time>
      </trkpt>
      <trkpt lat="44.5769" lon="4.20805">
        <ele>561.7</ele>
        <time>2009-10-18T08:19:00Z</time>
      </trkpt>
      <trkpt lat="44.57693" lon="4.20803">
        <ele>562.1</ele>
        <time>2009-10-18T08:19:02Z</time>
      </trkpt>
      <trkpt lat="44.57702" lon="4.2079">
        <ele>564.1</ele>
        <time>2009-10-18T08:19:16Z</time>
      </trkpt>
      <trkpt lat="44.57705" lon="4.20779">
        <ele>564.9</ele>
        <time>2009-10-18T08:19:29Z</time>
      </trkpt>
      <trkpt lat="44.57713" lon="4.20772">
        <ele>566</ele>
        <time>2009-10-18T08:19:46Z</time>
      </trkpt>
      <trkpt lat="44.57714" lon="4.20771">
        <ele>566.1</ele>
        <time>2009-10-18T08:19:47Z</time>
      </trkpt>
      <trkpt lat="44.57717" lon="4.20769">
        <ele>566.5</ele>
        <time>2009-10-18T08:19:51Z</time>
      </trkpt>
      <trkpt lat="44.57719" lon="4.20768">
        <ele>566.7</ele>
        <time>2009-10-18T08:19:54Z</time>
      </trkpt>
      <trkpt lat="44.57735" lon="4.20764">
        <ele>568.2</ele>
        <time>2009-10-18T08:20:09Z</time>
      </trkpt>
      <trkpt lat="44.57737" lon="4.20765">
        <ele>568.4</ele>
        <time>2009-10-18T08:20:11Z</time>
      </trkpt>
      <trkpt lat="44.57744" lon="4.20769">
        <ele>569.3</ele>
        <time>2009-10-18T08:20:22Z</time>
      </trkpt>
      <trkpt lat="44.57752" lon="4.20777">
        <ele>570.8</ele>
        <time>2009-10-18T08:20:38Z</time>
      </trkpt>
      <trkpt lat="44.57752" lon="4.20777">
        <ele>570.8</ele>
        <time>2009-10-18T08:20:56Z</time>
      </trkpt>
      <trkpt lat="44.57753" lon="4.20774">
        <ele>571</ele>
        <time>2009-10-18T08:21:42Z</time>
      </trkpt>
      <trkpt lat="44.57761" lon="4.20753">
        <ele>572.3</ele>
        <time>2009-10-18T08:21:48Z</time>
      </trkpt>
      <trkpt lat="44.57775" lon="4.20739">
        <ele>573.6</ele>
        <time>2009-10-18T08:21:52Z</time>
      </trkpt>
      <trkpt lat="44.57787" lon="4.20725">
        <ele>573.6</ele>
        <time>2009-10-18T08:21:56Z</time>
      </trkpt>
      <trkpt lat="44.57792" lon="4.20719">
        <ele>573.7</ele>
        <time>2009-10-18T08:21:58Z</time>
      </trkpt>
      <trkpt lat="44.57803" lon="4.20709">
        <ele>575</ele>
        <time>2009-10-18T08:22:01Z</time>
      </trkpt>
      <trkpt lat="44.5782" lon="4.20679">
        <ele>574.3</ele>
        <time>2009-10-18T08:22:11Z</time>
      </trkpt>
      <trkpt lat="44.57828" lon="4.20636">
        <ele>567.2</ele>
        <time>2009-10-18T08:22:20Z</time>
      </trkpt>
      <trkpt lat="44.57831" lon="4.20619">
        <ele>564.4</ele>
        <time>2009-10-18T08:22:23Z</time>
      </trkpt>
      <trkpt lat="44.57844" lon="4.20569">
        <ele>559</ele>
        <time>2009-10-18T08:22:34Z</time>
      </trkpt>
      <trkpt lat="44.57855" lon="4.20529">
        <ele>553.6</ele>
        <time>2009-10-18T08:22:43Z</time>
      </trkpt>
      <trkpt lat="44.57856" lon="4.20525">
        <ele>552.7</ele>
        <time>2009-10-18T08:22:44Z</time>
      </trkpt>
      <trkpt lat="44.5786" lon="4.20502">
        <ele>548.3</ele>
        <time>2009-10-18T08:22:49Z</time>
      </trkpt>
      <trkpt lat="44.57862" lon="4.20498">
        <ele>547.8</ele>
        <time>2009-10-18T08:22:50Z</time>
      </trkpt>
      <trkpt lat="44.57878" lon="4.20473">
        <ele>547.3</ele>
        <time>2009-10-18T08:22:56Z</time>
      </trkpt>
      <trkpt lat="44.57884" lon="4.20464">
        <ele>547.5</ele>
        <time>2009-10-18T08:22:59Z</time>
      </trkpt>
      <trkpt lat="44.57893" lon="4.20456">
        <ele>548.6</ele>
        <time>2009-10-18T08:23:03Z</time>
      </trkpt>
      <trkpt lat="44.57896" lon="4.20455">
        <ele>549.3</ele>
        <time>2009-10-18T08:23:04Z</time>
      </trkpt>
      <trkpt lat="44.57906" lon="4.20448">
        <ele>551.2</ele>
        <time>2009-10-18T08:23:08Z</time>
      </trkpt>
      <trkpt lat="44.57909" lon="4.20436">
        <ele>549</ele>
        <time>2009-10-18T08:23:12Z</time>
      </trkpt>
      <trkpt lat="44.57913" lon="4.20392">
        <ele>539.4</ele>
        <time>2009-10-18T08:23:26Z</time>
      </trkpt>
      <trkpt lat="44.57926" lon="4.20349">
        <ele>537</ele>
        <time>2009-10-18T08:23:38Z</time>
      </trkpt>
      <trkpt lat="44.57949" lon="4.2032">
        <ele>546.4</ele>
        <time>2009-10-18T08:23:49Z</time>
      </trkpt>
      <trkpt lat="44.57951" lon="4.20305">
        <ele>546.8</ele>
        <time>2009-10-18T08:23:56Z</time>
      </trkpt>
      <trkpt lat="44.57935" lon="4.20279">
        <ele>536.8</ele>
        <time>2009-10-18T08:24:06Z</time>
      </trkpt>
      <trkpt lat="44.57936" lon="4.2024">
        <ele>537.3</ele>
        <time>2009-10-18T08:24:17Z</time>
      </trkpt>
      <trkpt lat="44.57941" lon="4.20224">
        <ele>541.9</ele>
        <time>2009-10-18T08:24:27Z</time>
      </trkpt>
      <trkpt lat="44.5794" lon="4.20221">
        <ele>541.5</ele>
        <time>2009-10-18T08:24:29Z</time>
      </trkpt>
      <trkpt lat="44.57924" lon="4.20182">
        <ele>536.3</ele>
        <time>2009-10-18T08:24:41Z</time>
      </trkpt>
      <trkpt lat="44.57905" lon="4.20153">
        <ele>532.3</ele>
        <time>2009-10-18T08:24:47Z</time>
      </trkpt>
      <trkpt lat="44.57872" lon="4.20109">
        <ele>529.7</ele>
        <time>2009-10-18T08:24:58Z</time>
      </trkpt>
      <trkpt lat="44.57859" lon="4.20072">
        <ele>530.7</ele>
        <time>2009-10-18T08:25:10Z</time>
      </trkpt>
      <trkpt lat="44.57849" lon="4.20058">
        <ele>528.1</ele>
        <time>2009-10-18T08:25:17Z</time>
      </trkpt>
      <trkpt lat="44.57849" lon="4.20049">
        <ele>528.3</ele>
        <time>2009-10-18T08:25:29Z</time>
      </trkpt>
      <trkpt lat="44.57845" lon="4.20047">
        <ele>527.4</ele>
        <time>2009-10-18T08:25:50Z</time>
      </trkpt>
      <trkpt lat="44.57843" lon="4.20051">
        <ele>526.8</ele>
        <time>2009-10-18T08:26:12Z</time>
      </trkpt>
      <trkpt lat="44.57852" lon="4.20045">
        <ele>529.3</ele>
        <time>2009-10-18T08:26:22Z</time>
      </trkpt>
      <trkpt lat="44.57851" lon="4.20052">
        <ele>529</ele>
        <time>2009-10-18T08:26:37Z</time>
      </trkpt>
      <trkpt lat="44.57852" lon="4.20057">
        <ele>528.9</ele>
        <time>2009-10-18T08:26:42Z</time>
      </trkpt>
      <trkpt lat="44.57855" lon="4.20065">
        <ele>529.8</ele>
        <time>2009-10-18T08:26:47Z</time>
      </trkpt>
      <trkpt lat="44.5786" lon="4.20072">
        <ele>530.9</ele>
        <time>2009-10-18T08:26:52Z</time>
      </trkpt>
      <trkpt lat="44.57866" lon="4.20077">
        <ele>532.6</ele>
        <time>2009-10-18T08:26:57Z</time>
      </trkpt>
      <trkpt lat="44.57879" lon="4.20046">
        <ele>536.6</ele>
        <time>2009-10-18T08:27:13Z</time>
      </trkpt>
      <trkpt lat="44.57885" lon="4.20026">
        <ele>538.2</ele>
        <time>2009-10-18T08:27:20Z</time>
      </trkpt>
      <trkpt lat="44.57885" lon="4.20016">
        <ele>538.3</ele>
        <time>2009-10-18T08:27:24Z</time>
      </trkpt>
      <trkpt lat="44.57887" lon="4.2001">
        <ele>538.9</ele>
        <time>2009-10-18T08:27:28Z</time>
      </trkpt>
      <trkpt lat="44.5789" lon="4.20011">
        <ele>539.5</ele>
        <time>2009-10-18T08:27:31Z</time>
      </trkpt>
      <trkpt lat="44.5789" lon="4.20019">
        <ele>539.5</ele>
        <time>2009-10-18T08:27:37Z</time>
      </trkpt>
      <trkpt lat="44.5789" lon="4.20024">
        <ele>539.4</ele>
        <time>2009-10-18T08:27:39Z</time>
      </trkpt>
      <trkpt lat="44.57891" lon="4.20032">
        <ele>539.8</ele>
        <time>2009-10-18T08:27:45Z</time>
      </trkpt>
      <trkpt lat="44.57896" lon="4.2005">
        <ele>540.9</ele>
        <time>2009-10-18T08:27:56Z</time>
      </trkpt>
      <trkpt lat="44.57896" lon="4.20052">
        <ele>541.1</ele>
        <time>2009-10-18T08:27:57Z</time>
      </trkpt>
      <trkpt lat="44.57902" lon="4.20065">
        <ele>542.7</ele>
        <time>2009-10-18T08:28:04Z</time>
      </trkpt>
      <trkpt lat="44.57905" lon="4.20069">
        <ele>543.7</ele>
        <time>2009-10-18T08:28:07Z</time>
      </trkpt>
      <trkpt lat="44.57913" lon="4.20063">
        <ele>545.6</ele>
        <time>2009-10-18T08:28:12Z</time>
      </trkpt>
      <trkpt lat="44.5792" lon="4.20038">
        <ele>547.8</ele>
        <time>2009-10-18T08:28:23Z</time>
      </trkpt>
      <trkpt lat="44.5793" lon="4.20024">
        <ele>550.6</ele>
        <time>2009-10-18T08:28:36Z</time>
      </trkpt>
      <trkpt lat="44.5793" lon="4.20022">
        <ele>550.6</ele>
        <time>2009-10-18T08:28:54Z</time>
      </trkpt>
      <trkpt lat="44.5793" lon="4.20023">
        <ele>550.6</ele>
        <time>2009-10-18T08:29:24Z</time>
      </trkpt>
      <trkpt lat="44.57932" lon="4.20023">
        <ele>551.3</ele>
        <time>2009-10-18T08:29:41Z</time>
      </trkpt>
      <trkpt lat="44.5793" lon="4.20019">
        <ele>550.4</ele>
        <time>2009-10-18T08:30:12Z</time>
      </trkpt>
      <trkpt lat="44.57927" lon="4.20017">
        <ele>549.3</ele>
        <time>2009-10-18T08:30:32Z</time>
      </trkpt>
      <trkpt lat="44.57933" lon="4.2001">
        <ele>551.1</ele>
        <time>2009-10-18T08:30:57Z</time>
      </trkpt>
      <trkpt lat="44.57962" lon="4.19988">
        <ele>554.8</ele>
        <time>2009-10-18T08:31:07Z</time>
      </trkpt>
      <trkpt lat="44.57986" lon="4.19951">
        <ele>549.7</ele>
        <time>2009-10-18T08:31:15Z</time>
      </trkpt>
      <trkpt lat="44.57997" lon="4.19934">
        <ele>546.8</ele>
        <time>2009-10-18T08:31:19Z</time>
      </trkpt>
      <trkpt lat="44.58012" lon="4.19921">
        <ele>548.4</ele>
        <time>2009-10-18T08:31:23Z</time>
      </trkpt>
      <trkpt lat="44.58031" lon="4.19913">
        <ele>553.8</ele>
        <time>2009-10-18T08:31:27Z</time>
      </trkpt>
      <trkpt lat="44.58054" lon="4.19885">
        <ele>556</ele>
        <time>2009-10-18T08:31:33Z</time>
      </trkpt>
      <trkpt lat="44.58079" lon="4.19791">
        <ele>544.3</ele>
        <time>2009-10-18T08:31:48Z</time>
      </trkpt>
      <trkpt lat="44.58085" lon="4.19768">
        <ele>542.2</ele>
        <time>2009-10-18T08:31:52Z</time>
      </trkpt>
      <trkpt lat="44.58137" lon="4.19691">
        <ele>547.6</ele>
        <time>2009-10-18T08:32:09Z</time>
      </trkpt>
      <trkpt lat="44.5814" lon="4.19686">
        <ele>547.4</ele>
        <time>2009-10-18T08:32:10Z</time>
      </trkpt>
      <trkpt lat="44.58149" lon="4.19665">
        <ele>545.8</ele>
        <time>2009-10-18T08:32:14Z</time>
      </trkpt>
      <trkpt lat="44.58175" lon="4.19617">
        <ele>546.1</ele>
        <time>2009-10-18T08:32:25Z</time>
      </trkpt>
      <trkpt lat="44.58185" lon="4.19594">
        <ele>543.8</ele>
        <time>2009-10-18T08:32:29Z</time>
      </trkpt>
      <trkpt lat="44.58197" lon="4.19564">
        <ele>539.4</ele>
        <time>2009-10-18T08:32:33Z</time>
      </trkpt>
      <trkpt lat="44.58199" lon="4.19557">
        <ele>538.1</ele>
        <time>2009-10-18T08:32:34Z</time>
      </trkpt>
      <trkpt lat="44.58216" lon="4.19532">
        <ele>534</ele>
        <time>2009-10-18T08:32:38Z</time>
      </trkpt>
      <trkpt lat="44.58221" lon="4.19527">
        <ele>533.3</ele>
        <time>2009-10-18T08:32:39Z</time>
      </trkpt>
      <trkpt lat="44.58233" lon="4.19517">
        <ele>531.4</ele>
        <time>2009-10-18T08:32:41Z</time>
      </trkpt>
      <trkpt lat="44.58255" lon="4.19513">
        <ele>530.4</ele>
        <time>2009-10-18T08:32:45Z</time>
      </trkpt>
      <trkpt lat="44.58284" lon="4.19518">
        <ele>526.7</ele>
        <time>2009-10-18T08:32:49Z</time>
      </trkpt>
      <trkpt lat="44.58308" lon="4.19525">
        <ele>525.2</ele>
        <time>2009-10-18T08:32:52Z</time>
      </trkpt>
      <trkpt lat="44.58322" lon="4.19529">
        <ele>524.2</ele>
        <time>2009-10-18T08:32:54Z</time>
      </trkpt>
      <trkpt lat="44.58348" lon="4.19532">
        <ele>520.8</ele>
        <time>2009-10-18T08:32:59Z</time>
      </trkpt>
      <trkpt lat="44.58364" lon="4.19527">
        <ele>516.1</ele>
        <time>2009-10-18T08:33:02Z</time>
      </trkpt>
      <trkpt lat="44.58391" lon="4.19528">
        <ele>511.7</ele>
        <time>2009-10-18T08:33:06Z</time>
      </trkpt>
      <trkpt lat="44.58465" lon="4.1958">
        <ele>511.2</ele>
        <time>2009-10-18T08:33:19Z</time>
      </trkpt>
      <trkpt lat="44.58492" lon="4.19603">
        <ele>511.3</ele>
        <time>2009-10-18T08:33:24Z</time>
      </trkpt>
      <trkpt lat="44.58504" lon="4.19613">
        <ele>512.4</ele>
        <time>2009-10-18T08:33:26Z</time>
      </trkpt>
      <trkpt lat="44.58522" lon="4.19631">
        <ele>516.9</ele>
        <time>2009-10-18T08:33:29Z</time>
      </trkpt>
      <trkpt lat="44.5855" lon="4.19655">
        <ele>519</ele>
        <time>2009-10-18T08:33:34Z</time>
      </trkpt>
      <trkpt lat="44.58561" lon="4.19671">
        <ele>519.8</ele>
        <time>2009-10-18T08:33:38Z</time>
      </trkpt>
      <trkpt lat="44.58565" lon="4.19653">
        <ele>516.2</ele>
        <time>2009-10-18T08:33:45Z</time>
      </trkpt>
      <trkpt lat="44.58561" lon="4.19646">
        <ele>515.9</ele>
        <time>2009-10-18T08:33:47Z</time>
      </trkpt>
      <trkpt lat="44.58558" lon="4.19636">
        <ele>515</ele>
        <time>2009-10-18T08:33:50Z</time>
      </trkpt>
      <trkpt lat="44.58554" lon="4.19631">
        <ele>514.6</ele>
        <time>2009-10-18T08:33:53Z</time>
      </trkpt>
      <trkpt lat="44.58564" lon="4.1963">
        <ele>513.6</ele>
        <time>2009-10-18T08:35:46Z</time>
      </trkpt>
      <trkpt lat="44.58578" lon="4.19624">
        <ele>512.2</ele>
        <time>2009-10-18T08:35:50Z</time>
      </trkpt>
      <trkpt lat="44.58583" lon="4.19575">
        <ele>512.1</ele>
        <time>2009-10-18T08:36:00Z</time>
      </trkpt>
      <trkpt lat="44.58554" lon="4.19532">
        <ele>516.5</ele>
        <time>2009-10-18T08:36:11Z</time>
      </trkpt>
      <trkpt lat="44.58551" lon="4.19529">
        <ele>516.2</ele>
        <time>2009-10-18T08:36:12Z</time>
      </trkpt>
      <trkpt lat="44.58517" lon="4.1948">
        <ele>514.7</ele>
        <time>2009-10-18T08:36:26Z</time>
      </trkpt>
      <trkpt lat="44.58478" lon="4.19416">
        <ele>517.2</ele>
        <time>2009-10-18T08:36:42Z</time>
      </trkpt>
      <trkpt lat="44.58445" lon="4.19361">
        <ele>517.9</ele>
        <time>2009-10-18T08:36:56Z</time>
      </trkpt>
      <trkpt lat="44.58425" lon="4.19331">
        <ele>516.2</ele>
        <time>2009-10-18T08:37:04Z</time>
      </trkpt>
      <trkpt lat="44.58398" lon="4.19269">
        <ele>518.7</ele>
        <time>2009-10-18T08:37:19Z</time>
      </trkpt>
      <trkpt lat="44.58371" lon="4.19224">
        <ele>507.8</ele>
        <time>2009-10-18T08:37:32Z</time>
      </trkpt>
      <trkpt lat="44.58387" lon="4.19191">
        <ele>513</ele>
        <time>2009-10-18T08:37:42Z</time>
      </trkpt>
      <trkpt lat="44.58403" lon="4.19173">
        <ele>518.8</ele>
        <time>2009-10-18T08:37:50Z</time>
      </trkpt>
      <trkpt lat="44.58408" lon="4.19168">
        <ele>520.3</ele>
        <time>2009-10-18T08:37:52Z</time>
      </trkpt>
      <trkpt lat="44.58415" lon="4.19162">
        <ele>521.7</ele>
        <time>2009-10-18T08:37:55Z</time>
      </trkpt>
      <trkpt lat="44.58447" lon="4.19135">
        <ele>525.3</ele>
        <time>2009-10-18T08:38:09Z</time>
      </trkpt>
      <trkpt lat="44.58449" lon="4.19133">
        <ele>525.6</ele>
        <time>2009-10-18T08:38:10Z</time>
      </trkpt>
      <trkpt lat="44.58457" lon="4.19129">
        <ele>526.7</ele>
        <time>2009-10-18T08:38:14Z</time>
      </trkpt>
      <trkpt lat="44.5846" lon="4.19125">
        <ele>526.6</ele>
      </trkpt>
      <trkpt lat="44.58464" lon="4.19118">
        <ele>526.1</ele>
      </trkpt>
      <trkpt lat="44.58472" lon="4.19111">
        <ele>526.7</ele>
      </trkpt>
      <trkpt lat="44.58479" lon="4.19107">
        <ele>527.9</ele>
        <time>2009-10-18T08:39:19Z</time>
      </trkpt>
      <trkpt lat="44.58487" lon="4.19098">
        <ele>527.9</ele>
        <time>2009-10-18T08:39:21Z</time>
      </trkpt>
      <trkpt lat="44.58498" lon="4.1908">
        <ele>527.1</ele>
        <time>2009-10-18T08:39:24Z</time>
      </trkpt>
      <trkpt lat="44.58509" lon="4.1905">
        <ele>527.2</ele>
        <time>2009-10-18T08:39:30Z</time>
      </trkpt>
      <trkpt lat="44.58522" lon="4.19014">
        <ele>525.8</ele>
        <time>2009-10-18T08:39:37Z</time>
      </trkpt>
      <trkpt lat="44.58528" lon="4.18997">
        <ele>525</ele>
        <time>2009-10-18T08:39:40Z</time>
      </trkpt>
      <trkpt lat="44.58541" lon="4.1896">
        <ele>526.9</ele>
        <time>2009-10-18T08:39:48Z</time>
      </trkpt>
      <trkpt lat="44.58542" lon="4.18956">
        <ele>526.9</ele>
        <time>2009-10-18T08:39:49Z</time>
      </trkpt>
      <trkpt lat="44.58543" lon="4.18935">
        <ele>526.5</ele>
        <time>2009-10-18T08:40:00Z</time>
      </trkpt>
      <trkpt lat="44.58543" lon="4.18927">
        <ele>526.3</ele>
        <time>2009-10-18T08:40:10Z</time>
      </trkpt>
      <trkpt lat="44.58538" lon="4.18923">
        <ele>526.1</ele>
        <time>2009-10-18T08:40:24Z</time>
      </trkpt>
      <trkpt lat="44.58528" lon="4.18919">
        <ele>526</ele>
        <time>2009-10-18T08:40:38Z</time>
      </trkpt>
      <trkpt lat="44.58512" lon="4.18919">
        <ele>525.9</ele>
        <time>2009-10-18T08:40:52Z</time>
      </trkpt>
      <trkpt lat="44.58509" lon="4.18921">
        <ele>525.7</ele>
        <time>2009-10-18T08:40:56Z</time>
      </trkpt>
      <trkpt lat="44.58501" lon="4.18926">
        <ele>525.2</ele>
        <time>2009-10-18T08:41:05Z</time>
      </trkpt>
      <trkpt lat="44.58494" lon="4.18932">
        <ele>524.6</ele>
        <time>2009-10-18T08:41:18Z</time>
      </trkpt>
      <trkpt lat="44.58488" lon="4.18936">
        <ele>524.1</ele>
        <time>2009-10-18T08:41:25Z</time>
      </trkpt>
      <trkpt lat="44.58488" lon="4.18936">
        <ele>524.1</ele>
        <time>2009-10-18T08:41:26Z</time>
      </trkpt>
      <trkpt lat="44.58486" lon="4.18934">
        <ele>524.3</ele>
        <time>2009-10-18T08:41:39Z</time>
      </trkpt>
      <trkpt lat="44.58488" lon="4.1893">
        <ele>524.7</ele>
        <time>2009-10-18T08:41:43Z</time>
      </trkpt>
      <trkpt lat="44.58489" lon="4.18926">
        <ele>525.1</ele>
        <time>2009-10-18T08:41:47Z</time>
      </trkpt>
      <trkpt lat="44.58491" lon="4.18915">
        <ele>526.5</ele>
        <time>2009-10-18T08:42:00Z</time>
      </trkpt>
      <trkpt lat="44.58497" lon="4.18896">
        <ele>531.4</ele>
        <time>2009-10-18T08:42:12Z</time>
      </trkpt>
      <trkpt lat="44.58498" lon="4.18888">
        <ele>533.4</ele>
        <time>2009-10-18T08:42:19Z</time>
      </trkpt>
      <trkpt lat="44.58502" lon="4.18881">
        <ele>535.4</ele>
        <time>2009-10-18T08:42:25Z</time>
      </trkpt>
      <trkpt lat="44.58506" lon="4.18868">
        <ele>538.3</ele>
        <time>2009-10-18T08:42:33Z</time>
      </trkpt>
      <trkpt lat="44.58508" lon="4.18854">
        <ele>541.7</ele>
        <time>2009-10-18T08:42:43Z</time>
      </trkpt>
      <trkpt lat="44.58501" lon="4.18859">
        <ele>541.2</ele>
        <time>2009-10-18T08:42:48Z</time>
      </trkpt>
      <trkpt lat="44.58498" lon="4.18859">
        <ele>540.9</ele>
        <time>2009-10-18T08:42:51Z</time>
      </trkpt>
      <trkpt lat="44.5851" lon="4.18842">
        <ele>544.3</ele>
        <time>2009-10-18T08:43:03Z</time>
      </trkpt>
      <trkpt lat="44.58529" lon="4.18815">
        <ele>546.9</ele>
        <time>2009-10-18T08:43:19Z</time>
      </trkpt>
      <trkpt lat="44.58541" lon="4.18795">
        <ele>548.5</ele>
        <time>2009-10-18T08:43:34Z</time>
      </trkpt>
      <trkpt lat="44.58544" lon="4.18791">
        <ele>548.8</ele>
        <time>2009-10-18T08:43:37Z</time>
      </trkpt>
      <trkpt lat="44.58538" lon="4.18783">
        <ele>550.9</ele>
        <time>2009-10-18T08:43:44Z</time>
      </trkpt>
      <trkpt lat="44.58533" lon="4.18784">
        <ele>551.4</ele>
        <time>2009-10-18T08:43:47Z</time>
      </trkpt>
      <trkpt lat="44.58524" lon="4.18787">
        <ele>552.1</ele>
        <time>2009-10-18T08:43:52Z</time>
      </trkpt>
      <trkpt lat="44.58512" lon="4.18784">
        <ele>554.2</ele>
        <time>2009-10-18T08:44:00Z</time>
      </trkpt>
      <trkpt lat="44.58512" lon="4.1878">
        <ele>554.8</ele>
        <time>2009-10-18T08:44:13Z</time>
      </trkpt>
      <trkpt lat="44.58513" lon="4.18779">
        <ele>554.8</ele>
        <time>2009-10-18T08:44:44Z</time>
      </trkpt>
      <trkpt lat="44.58514" lon="4.1878">
        <ele>554.5</ele>
        <time>2009-10-18T08:45:05Z</time>
      </trkpt>
      <trkpt lat="44.58514" lon="4.1878">
        <ele>554.5</ele>
        <time>2009-10-18T08:45:24Z</time>
      </trkpt>
      <trkpt lat="44.58515" lon="4.18782">
        <ele>554</ele>
        <time>2009-10-18T08:45:32Z</time>
      </trkpt>
      <trkpt lat="44.58514" lon="4.18781">
        <ele>554.3</ele>
        <time>2009-10-18T08:45:42Z</time>
      </trkpt>
      <trkpt lat="44.5851" lon="4.18761">
        <ele>558.1</ele>
        <time>2009-10-18T08:45:51Z</time>
      </trkpt>
      <trkpt lat="44.58507" lon="4.18754">
        <ele>559.5</ele>
        <time>2009-10-18T08:45:54Z</time>
      </trkpt>
      <trkpt lat="44.58509" lon="4.1874">
        <ele>561.8</ele>
        <time>2009-10-18T08:46:03Z</time>
      </trkpt>
      <trkpt lat="44.58514" lon="4.18736">
        <ele>562.2</ele>
        <time>2009-10-18T08:46:17Z</time>
      </trkpt>
      <trkpt lat="44.58512" lon="4.18731">
        <ele>563.3</ele>
        <time>2009-10-18T08:46:21Z</time>
      </trkpt>
      <trkpt lat="44.5851" lon="4.18726">
        <ele>564.5</ele>
        <time>2009-10-18T08:46:25Z</time>
      </trkpt>
      <trkpt lat="44.58507" lon="4.18706">
        <ele>568.4</ele>
        <time>2009-10-18T08:46:36Z</time>
      </trkpt>
      <trkpt lat="44.58516" lon="4.18692">
        <ele>570.9</ele>
        <time>2009-10-18T08:46:45Z</time>
      </trkpt>
      <trkpt lat="44.58526" lon="4.18675">
        <ele>574.2</ele>
        <time>2009-10-18T08:46:59Z</time>
      </trkpt>
      <trkpt lat="44.58532" lon="4.1867">
        <ele>575.3</ele>
        <time>2009-10-18T08:47:04Z</time>
      </trkpt>
      <trkpt lat="44.58543" lon="4.1867">
        <ele>575.2</ele>
        <time>2009-10-18T08:47:16Z</time>
      </trkpt>
      <trkpt lat="44.58561" lon="4.18655">
        <ele>578.1</ele>
        <time>2009-10-18T08:47:31Z</time>
      </trkpt>
      <trkpt lat="44.58571" lon="4.18645">
        <ele>580.3</ele>
        <time>2009-10-18T08:47:47Z</time>
      </trkpt>
      <trkpt lat="44.58569" lon="4.1864">
        <ele>581.2</ele>
        <time>2009-10-18T08:47:59Z</time>
      </trkpt>
      <trkpt lat="44.58559" lon="4.18642">
        <ele>580.5</ele>
        <time>2009-10-18T08:48:14Z</time>
      </trkpt>
      <trkpt lat="44.58557" lon="4.18639">
        <ele>581</ele>
        <time>2009-10-18T08:48:20Z</time>
      </trkpt>
      <trkpt lat="44.58557" lon="4.18638">
        <ele>581</ele>
        <time>2009-10-18T08:48:21Z</time>
      </trkpt>
      <trkpt lat="44.58557" lon="4.18639">
        <ele>581</ele>
        <time>2009-10-18T08:48:22Z</time>
      </trkpt>
      <trkpt lat="44.58558" lon="4.18638">
        <ele>581.2</ele>
        <time>2009-10-18T08:48:25Z</time>
      </trkpt>
      <trkpt lat="44.58571" lon="4.18623">
        <ele>584.6</ele>
        <time>2009-10-18T08:48:38Z</time>
      </trkpt>
      <trkpt lat="44.58584" lon="4.18608">
        <ele>588.7</ele>
        <time>2009-10-18T08:48:51Z</time>
      </trkpt>
      <trkpt lat="44.58589" lon="4.18604">
        <ele>589.4</ele>
        <time>2009-10-18T08:48:55Z</time>
      </trkpt>
      <trkpt lat="44.58599" lon="4.18587">
        <ele>592.8</ele>
        <time>2009-10-18T08:49:08Z</time>
      </trkpt>
      <trkpt lat="44.58602" lon="4.18584">
        <ele>593.4</ele>
        <time>2009-10-18T08:49:11Z</time>
      </trkpt>
      <trkpt lat="44.58603" lon="4.18582">
        <ele>593.3</ele>
        <time>2009-10-18T08:49:15Z</time>
      </trkpt>
      <trkpt lat="44.58605" lon="4.18579">
        <ele>592.9</ele>
        <time>2009-10-18T08:49:18Z</time>
      </trkpt>
      <trkpt lat="44.58623" lon="4.18569">
        <ele>590.9</ele>
        <time>2009-10-18T08:49:35Z</time>
      </trkpt>
      <trkpt lat="44.58626" lon="4.1857">
        <ele>591</ele>
        <time>2009-10-18T08:49:40Z</time>
      </trkpt>
      <trkpt lat="44.58616" lon="4.1856">
        <ele>589.8</ele>
        <time>2009-10-18T08:49:50Z</time>
      </trkpt>
      <trkpt lat="44.58619" lon="4.18562">
        <ele>590</ele>
        <time>2009-10-18T08:49:59Z</time>
      </trkpt>
      <trkpt lat="44.58617" lon="4.18562">
        <ele>590</ele>
        <time>2009-10-18T08:50:15Z</time>
      </trkpt>
      <trkpt lat="44.58618" lon="4.18562">
        <ele>590</ele>
        <time>2009-10-18T08:50:47Z</time>
      </trkpt>
      <trkpt lat="44.58617" lon="4.18561">
        <ele>589.9</ele>
        <time>2009-10-18T08:51:09Z</time>
      </trkpt>
      <trkpt lat="44.58618" lon="4.18559">
        <ele>589.5</ele>
        <time>2009-10-18T08:51:37Z</time>
      </trkpt>
      <trkpt lat="44.58616" lon="4.18559">
        <ele>589.6</ele>
        <time>2009-10-18T08:52:00Z</time>
      </trkpt>
      <trkpt lat="44.58616" lon="4.1856">
        <ele>589.8</ele>
        <time>2009-10-18T08:52:28Z</time>
      </trkpt>
      <trkpt lat="44.58617" lon="4.18558">
        <ele>589.4</ele>
        <time>2009-10-18T08:52:41Z</time>
      </trkpt>
      <trkpt lat="44.58618" lon="4.18546">
        <ele>587.6</ele>
        <time>2009-10-18T08:52:45Z</time>
      </trkpt>
      <trkpt lat="44.58616" lon="4.18543">
        <ele>587.1</ele>
        <time>2009-10-18T08:52:46Z</time>
      </trkpt>
      <trkpt lat="44.58605" lon="4.18525">
        <ele>584.9</ele>
        <time>2009-10-18T08:52:52Z</time>
      </trkpt>
      <trkpt lat="44.58604" lon="4.18524">
        <ele>584.7</ele>
        <time>2009-10-18T08:52:53Z</time>
      </trkpt>
      <trkpt lat="44.58604" lon="4.18521">
        <ele>584.3</ele>
        <time>2009-10-18T08:52:55Z</time>
      </trkpt>
      <trkpt lat="44.58632" lon="4.18517">
        <ele>582.9</ele>
        <time>2009-10-18T08:53:04Z</time>
      </trkpt>
      <trkpt lat="44.58651" lon="4.18505">
        <ele>580.4</ele>
        <time>2009-10-18T08:53:11Z</time>
      </trkpt>
      <trkpt lat="44.58668" lon="4.18494">
        <ele>577</ele>
        <time>2009-10-18T08:53:16Z</time>
      </trkpt>
      <trkpt lat="44.58674" lon="4.18487">
        <ele>575.4</ele>
        <time>2009-10-18T08:53:18Z</time>
      </trkpt>
      <trkpt lat="44.58684" lon="4.18477">
        <ele>573.1</ele>
        <time>2009-10-18T08:53:21Z</time>
      </trkpt>
      <trkpt lat="44.58711" lon="4.18463">
        <ele>571.2</ele>
        <time>2009-10-18T08:53:31Z</time>
      </trkpt>
      <trkpt lat="44.58712" lon="4.18459">
        <ele>570</ele>
        <time>2009-10-18T08:53:33Z</time>
      </trkpt>
      <trkpt lat="44.58712" lon="4.18458">
        <ele>569.6</ele>
        <time>2009-10-18T08:53:34Z</time>
      </trkpt>
      <trkpt lat="44.58695" lon="4.1845">
        <ele>564.3</ele>
        <time>2009-10-18T08:53:42Z</time>
      </trkpt>
      <trkpt lat="44.58693" lon="4.18447">
        <ele>563.1</ele>
        <time>2009-10-18T08:53:44Z</time>
      </trkpt>
      <trkpt lat="44.58694" lon="4.18446">
        <ele>562.8</ele>
        <time>2009-10-18T08:53:45Z</time>
      </trkpt>
      <trkpt lat="44.587" lon="4.18442">
        <ele>562.1</ele>
        <time>2009-10-18T08:53:48Z</time>
      </trkpt>
      <trkpt lat="44.58707" lon="4.18437">
        <ele>561</ele>
        <time>2009-10-18T08:53:51Z</time>
      </trkpt>
      <trkpt lat="44.58722" lon="4.18431">
        <ele>560.3</ele>
        <time>2009-10-18T08:53:56Z</time>
      </trkpt>
      <trkpt lat="44.58736" lon="4.18427">
        <ele>560.5</ele>
        <time>2009-10-18T08:54:01Z</time>
      </trkpt>
      <trkpt lat="44.58744" lon="4.18425">
        <ele>560.6</ele>
        <time>2009-10-18T08:54:04Z</time>
      </trkpt>
      <trkpt lat="44.58754" lon="4.18422">
        <ele>560.8</ele>
        <time>2009-10-18T08:54:07Z</time>
      </trkpt>
      <trkpt lat="44.58757" lon="4.18422">
        <ele>561.2</ele>
        <time>2009-10-18T08:54:08Z</time>
      </trkpt>
      <trkpt lat="44.58767" lon="4.18417">
        <ele>561.2</ele>
        <time>2009-10-18T08:54:14Z</time>
      </trkpt>
      <trkpt lat="44.58779" lon="4.18409">
        <ele>561</ele>
        <time>2009-10-18T08:54:19Z</time>
      </trkpt>
      <trkpt lat="44.58796" lon="4.18386">
        <ele>557.2</ele>
        <time>2009-10-18T08:54:27Z</time>
      </trkpt>
      <trkpt lat="44.58817" lon="4.18373">
        <ele>556.4</ele>
        <time>2009-10-18T08:54:33Z</time>
      </trkpt>
      <trkpt lat="44.58838" lon="4.1834">
        <ele>549.7</ele>
        <time>2009-10-18T08:54:42Z</time>
      </trkpt>
      <trkpt lat="44.58856" lon="4.183">
        <ele>547.1</ele>
        <time>2009-10-18T08:54:53Z</time>
      </trkpt>
      <trkpt lat="44.58858" lon="4.18293">
        <ele>546.4</ele>
        <time>2009-10-18T08:54:55Z</time>
      </trkpt>
      <trkpt lat="44.58858" lon="4.18288">
        <ele>545.8</ele>
        <time>2009-10-18T08:54:59Z</time>
      </trkpt>
      <trkpt lat="44.58854" lon="4.18275">
        <ele>543.5</ele>
        <time>2009-10-18T08:55:10Z</time>
      </trkpt>
      <trkpt lat="44.58852" lon="4.18271">
        <ele>542.9</ele>
        <time>2009-10-18T08:55:13Z</time>
      </trkpt>
      <trkpt lat="44.58841" lon="4.18249">
        <ele>540.4</ele>
        <time>2009-10-18T08:55:26Z</time>
      </trkpt>
      <trkpt lat="44.58836" lon="4.18247">
        <ele>540.9</ele>
        <time>2009-10-18T08:55:32Z</time>
      </trkpt>
      <trkpt lat="44.58833" lon="4.18244">
        <ele>541.8</ele>
        <time>2009-10-18T08:55:37Z</time>
      </trkpt>
      <trkpt lat="44.58837" lon="4.18233">
        <ele>544.8</ele>
        <time>2009-10-18T08:55:49Z</time>
      </trkpt>
      <trkpt lat="44.58835" lon="4.18236">
        <ele>544.1</ele>
        <time>2009-10-18T08:55:54Z</time>
      </trkpt>
      <trkpt lat="44.5883" lon="4.18238">
        <ele>543.4</ele>
        <time>2009-10-18T08:56:00Z</time>
      </trkpt>
      <trkpt lat="44.58821" lon="4.1824">
        <ele>542.7</ele>
        <time>2009-10-18T08:56:11Z</time>
      </trkpt>
      <trkpt lat="44.58815" lon="4.18236">
        <ele>543.7</ele>
        <time>2009-10-18T08:56:20Z</time>
      </trkpt>
      <trkpt lat="44.58813" lon="4.18236">
        <ele>543.8</ele>
        <time>2009-10-18T08:56:21Z</time>
      </trkpt>
      <trkpt lat="44.58814" lon="4.18229">
        <ele>545.6</ele>
        <time>2009-10-18T08:56:31Z</time>
      </trkpt>
      <trkpt lat="44.58816" lon="4.18223">
        <ele>547.4</ele>
        <time>2009-10-18T08:56:39Z</time>
      </trkpt>
      <trkpt lat="44.5882" lon="4.18216">
        <ele>549.7</ele>
        <time>2009-10-18T08:56:50Z</time>
      </trkpt>
      <trkpt lat="44.58826" lon="4.18207">
        <ele>552.4</ele>
        <time>2009-10-18T08:57:02Z</time>
      </trkpt>
      <trkpt lat="44.58835" lon="4.18189">
        <ele>557.6</ele>
        <time>2009-10-18T08:57:21Z</time>
      </trkpt>
      <trkpt lat="44.58838" lon="4.18184">
        <ele>559</ele>
        <time>2009-10-18T08:57:27Z</time>
      </trkpt>
      <trkpt lat="44.58839" lon="4.18181">
        <ele>559.7</ele>
        <time>2009-10-18T08:57:30Z</time>
      </trkpt>
      <trkpt lat="44.58839" lon="4.18174">
        <ele>561.7</ele>
        <time>2009-10-18T08:57:38Z</time>
      </trkpt>
      <trkpt lat="44.58841" lon="4.18172">
        <ele>562.1</ele>
        <time>2009-10-18T08:57:40Z</time>
      </trkpt>
      <trkpt lat="44.58844" lon="4.18169">
        <ele>562.9</ele>
        <time>2009-10-18T08:57:43Z</time>
      </trkpt>
      <trkpt lat="44.58844" lon="4.18164">
        <ele>564.1</ele>
        <time>2009-10-18T08:57:48Z</time>
      </trkpt>
      <trkpt lat="44.58832" lon="4.18169">
        <ele>563.2</ele>
        <time>2009-10-18T08:57:57Z</time>
      </trkpt>
      <trkpt lat="44.58827" lon="4.18171">
        <ele>562.6</ele>
        <time>2009-10-18T08:58:02Z</time>
      </trkpt>
      <trkpt lat="44.58823" lon="4.18174">
        <ele>561.6</ele>
        <time>2009-10-18T08:58:06Z</time>
      </trkpt>
      <trkpt lat="44.5882" lon="4.18175">
        <ele>561.2</ele>
        <time>2009-10-18T08:58:08Z</time>
      </trkpt>
      <trkpt lat="44.58817" lon="4.18177">
        <ele>560.7</ele>
        <time>2009-10-18T08:58:10Z</time>
      </trkpt>
      <trkpt lat="44.58814" lon="4.18178">
        <ele>560.3</ele>
        <time>2009-10-18T08:58:12Z</time>
      </trkpt>
      <trkpt lat="44.58799" lon="4.1818">
        <ele>559.5</ele>
        <time>2009-10-18T08:58:22Z</time>
      </trkpt>
      <trkpt lat="44.58794" lon="4.18179">
        <ele>559.6</ele>
        <time>2009-10-18T08:58:32Z</time>
      </trkpt>
      <trkpt lat="44.58796" lon="4.18175">
        <ele>560.7</ele>
        <time>2009-10-18T08:58:38Z</time>
      </trkpt>
      <trkpt lat="44.58804" lon="4.1817">
        <ele>562.5</ele>
        <time>2009-10-18T08:58:52Z</time>
      </trkpt>
      <trkpt lat="44.58808" lon="4.18155">
        <ele>566.3</ele>
        <time>2009-10-18T08:59:07Z</time>
      </trkpt>
      <trkpt lat="44.58813" lon="4.1814">
        <ele>570.3</ele>
        <time>2009-10-18T08:59:24Z</time>
      </trkpt>
      <trkpt lat="44.58811" lon="4.18133">
        <ele>572.3</ele>
        <time>2009-10-18T08:59:38Z</time>
      </trkpt>
      <trkpt lat="44.58805" lon="4.18122">
        <ele>574.5</ele>
        <time>2009-10-18T08:59:57Z</time>
      </trkpt>
      <trkpt lat="44.58804" lon="4.18118">
        <ele>575.4</ele>
        <time>2009-10-18T09:00:04Z</time>
      </trkpt>
      <trkpt lat="44.58804" lon="4.18109">
        <ele>577.7</ele>
        <time>2009-10-18T09:00:10Z</time>
      </trkpt>
      <trkpt lat="44.5882" lon="4.18096">
        <ele>582.4</ele>
        <time>2009-10-18T09:00:25Z</time>
      </trkpt>
      <trkpt lat="44.58827" lon="4.18087">
        <ele>585.4</ele>
        <time>2009-10-18T09:00:32Z</time>
      </trkpt>
      <trkpt lat="44.58829" lon="4.18077">
        <ele>587.7</ele>
        <time>2009-10-18T09:00:42Z</time>
      </trkpt>
      <trkpt lat="44.5883" lon="4.18069">
        <ele>589.1</ele>
        <time>2009-10-18T09:00:46Z</time>
      </trkpt>
      <trkpt lat="44.58825" lon="4.18066">
        <ele>588.9</ele>
        <time>2009-10-18T09:00:51Z</time>
      </trkpt>
      <trkpt lat="44.5882" lon="4.1807">
        <ele>587.6</ele>
        <time>2009-10-18T09:01:03Z</time>
      </trkpt>
      <trkpt lat="44.58821" lon="4.18069">
        <ele>588</ele>
        <time>2009-10-18T09:01:24Z</time>
      </trkpt>
      <trkpt lat="44.58823" lon="4.1807">
        <ele>588.1</ele>
        <time>2009-10-18T09:01:29Z</time>
      </trkpt>
      <trkpt lat="44.58823" lon="4.1807">
        <ele>588.1</ele>
        <time>2009-10-18T09:01:30Z</time>
      </trkpt>
      <trkpt lat="44.58822" lon="4.18071">
        <ele>587.8</ele>
        <time>2009-10-18T09:01:34Z</time>
      </trkpt>
      <trkpt lat="44.58819" lon="4.1807">
        <ele>587.7</ele>
        <time>2009-10-18T09:01:46Z</time>
      </trkpt>
      <trkpt lat="44.58819" lon="4.1807">
        <ele>587.7</ele>
        <time>2009-10-18T09:01:48Z</time>
      </trkpt>
      <trkpt lat="44.58819" lon="4.18069">
        <ele>587.8</ele>
        <time>2009-10-18T09:01:54Z</time>
      </trkpt>
      <trkpt lat="44.58819" lon="4.18069">
        <ele>587.8</ele>
        <time>2009-10-18T09:01:57Z</time>
      </trkpt>
      <trkpt lat="44.58819" lon="4.18069">
        <ele>587.8</ele>
        <time>2009-10-18T09:01:58Z</time>
      </trkpt>
      <trkpt lat="44.58818" lon="4.18069">
        <ele>587.7</ele>
        <time>2009-10-18T09:02:10Z</time>
      </trkpt>
      <trkpt lat="44.58818" lon="4.18069">
        <ele>587.7</ele>
        <time>2009-10-18T09:02:12Z</time>
      </trkpt>
      <trkpt lat="44.58819" lon="4.18068">
        <ele>587.9</ele>
        <time>2009-10-18T09:02:14Z</time>
      </trkpt>
      <trkpt lat="44.58819" lon="4.18068">
        <ele>587.9</ele>
        <time>2009-10-18T09:02:16Z</time>
      </trkpt>
      <trkpt lat="44.58819" lon="4.18068">
        <ele>587.9</ele>
        <time>2009-10-18T09:02:19Z</time>
      </trkpt>
      <trkpt lat="44.5882" lon="4.18068">
        <ele>588</ele>
        <time>2009-10-18T09:02:25Z</time>
      </trkpt>
      <trkpt lat="44.58818" lon="4.18068">
        <ele>587.8</ele>
        <time>2009-10-18T09:02:28Z</time>
      </trkpt>
      <trkpt lat="44.58818" lon="4.18069">
        <ele>587.7</ele>
        <time>2009-10-18T09:03:01Z</time>
      </trkpt>
      <trkpt lat="44.58817" lon="4.18068">
        <ele>587.7</ele>
        <time>2009-10-18T09:03:14Z</time>
      </trkpt>
      <trkpt lat="44.58816" lon="4.18068">
        <ele>587.5</ele>
        <time>2009-10-18T09:03:29Z</time>
      </trkpt>
      <trkpt lat="44.58816" lon="4.18069">
        <ele>587.4</ele>
        <time>2009-10-18T09:03:52Z</time>
      </trkpt>
      <trkpt lat="44.58816" lon="4.18069">
        <ele>587.4</ele>
        <time>2009-10-18T09:03:54Z</time>
      </trkpt>
      <trkpt lat="44.58816" lon="4.18068">
        <ele>587.6</ele>
        <time>2009-10-18T09:04:00Z</time>
      </trkpt>
      <trkpt lat="44.5882" lon="4.1807">
        <ele>587.8</ele>
        <time>2009-10-18T09:04:08Z</time>
      </trkpt>
      <trkpt lat="44.58819" lon="4.18069">
        <ele>587.8</ele>
        <time>2009-10-18T09:04:10Z</time>
      </trkpt>
      <trkpt lat="44.58818" lon="4.18066">
        <ele>588.1</ele>
        <time>2009-10-18T09:04:23Z</time>
      </trkpt>
      <trkpt lat="44.5882" lon="4.18065">
        <ele>588.4</ele>
        <time>2009-10-18T09:04:36Z</time>
      </trkpt>
      <trkpt lat="44.58818" lon="4.18065">
        <ele>588.2</ele>
        <time>2009-10-18T09:04:40Z</time>
      </trkpt>
      <trkpt lat="44.58818" lon="4.18068">
        <ele>587.8</ele>
        <time>2009-10-18T09:04:44Z</time>
      </trkpt>
      <trkpt lat="44.58818" lon="4.18069">
        <ele>587.7</ele>
        <time>2009-10-18T09:04:46Z</time>
      </trkpt>
      <trkpt lat="44.58819" lon="4.1807">
        <ele>587.6</ele>
        <time>2009-10-18T09:04:51Z</time>
      </trkpt>
      <trkpt lat="44.58822" lon="4.18071">
        <ele>587.8</ele>
        <time>2009-10-18T09:05:06Z</time>
      </trkpt>
      <trkpt lat="44.58822" lon="4.1807">
        <ele>588</ele>
        <time>2009-10-18T09:05:09Z</time>
      </trkpt>
      <trkpt lat="44.5882" lon="4.18069">
        <ele>587.9</ele>
        <time>2009-10-18T09:05:11Z</time>
      </trkpt>
      <trkpt lat="44.5882" lon="4.18069">
        <ele>587.9</ele>
        <time>2009-10-18T09:05:14Z</time>
      </trkpt>
      <trkpt lat="44.58822" lon="4.1807">
        <ele>588</ele>
        <time>2009-10-18T09:05:27Z</time>
      </trkpt>
      <trkpt lat="44.58822" lon="4.1807">
        <ele>588</ele>
        <time>2009-10-18T09:05:28Z</time>
      </trkpt>
      <trkpt lat="44.5882" lon="4.1807">
        <ele>587.8</ele>
        <time>2009-10-18T09:05:35Z</time>
      </trkpt>
      <trkpt lat="44.58821" lon="4.1807">
        <ele>587.8</ele>
        <time>2009-10-18T09:05:36Z</time>
      </trkpt>
      <trkpt lat="44.58821" lon="4.18071">
        <ele>587.7</ele>
        <time>2009-10-18T09:05:41Z</time>
      </trkpt>
      <trkpt lat="44.58821" lon="4.1807">
        <ele>587.8</ele>
        <time>2009-10-18T09:05:44Z</time>
      </trkpt>
      <trkpt lat="44.5882" lon="4.18069">
        <ele>587.8</ele>
        <time>2009-10-18T09:05:53Z</time>
      </trkpt>
      <trkpt lat="44.5882" lon="4.18068">
        <ele>588.1</ele>
        <time>2009-10-18T09:06:15Z</time>
      </trkpt>
      <trkpt lat="44.58819" lon="4.18069">
        <ele>587.8</ele>
        <time>2009-10-18T09:06:29Z</time>
      </trkpt>
      <trkpt lat="44.58819" lon="4.18069">
        <ele>587.8</ele>
        <time>2009-10-18T09:06:36Z</time>
      </trkpt>
      <trkpt lat="44.58817" lon="4.1807">
        <ele>587.5</ele>
        <time>2009-10-18T09:06:51Z</time>
      </trkpt>
      <trkpt lat="44.58818" lon="4.1807">
        <ele>587.5</ele>
        <time>2009-10-18T09:07:11Z</time>
      </trkpt>
      <trkpt lat="44.58819" lon="4.18068">
        <ele>588</ele>
        <time>2009-10-18T09:07:14Z</time>
      </trkpt>
      <trkpt lat="44.5882" lon="4.18063">
        <ele>588.7</ele>
        <time>2009-10-18T09:07:18Z</time>
      </trkpt>
      <trkpt lat="44.58819" lon="4.18059">
        <ele>589.3</ele>
        <time>2009-10-18T09:07:21Z</time>
      </trkpt>
      <trkpt lat="44.58819" lon="4.18058">
        <ele>589.4</ele>
        <time>2009-10-18T09:07:22Z</time>
      </trkpt>
      <trkpt lat="44.58819" lon="4.18056">
        <ele>589.7</ele>
        <time>2009-10-18T09:07:24Z</time>
      </trkpt>
      <trkpt lat="44.58818" lon="4.18053">
        <ele>590.1</ele>
        <time>2009-10-18T09:07:26Z</time>
      </trkpt>
      <trkpt lat="44.58812" lon="4.18031">
        <ele>592.3</ele>
        <time>2009-10-18T09:07:36Z</time>
      </trkpt>
      <trkpt lat="44.58812" lon="4.18029">
        <ele>592.6</ele>
        <time>2009-10-18T09:07:37Z</time>
      </trkpt>
      <trkpt lat="44.58828" lon="4.18006">
        <ele>599</ele>
        <time>2009-10-18T09:07:51Z</time>
      </trkpt>
      <trkpt lat="44.58831" lon="4.18007">
        <ele>599.4</ele>
        <time>2009-10-18T09:07:58Z</time>
      </trkpt>
      <trkpt lat="44.58831" lon="4.18007">
        <ele>599.3</ele>
        <time>2009-10-18T09:08:01Z</time>
      </trkpt>
      <trkpt lat="44.58831" lon="4.18007">
        <ele>599.3</ele>
        <time>2009-10-18T09:08:03Z</time>
      </trkpt>
      <trkpt lat="44.5883" lon="4.18008">
        <ele>599.2</ele>
        <time>2009-10-18T09:08:08Z</time>
      </trkpt>
      <trkpt lat="44.5883" lon="4.18008">
        <ele>599</ele>
        <time>2009-10-18T09:08:15Z</time>
      </trkpt>
      <trkpt lat="44.5883" lon="4.18008">
        <ele>599</ele>
        <time>2009-10-18T09:08:41Z</time>
      </trkpt>
      <trkpt lat="44.58831" lon="4.18006">
        <ele>599.5</ele>
        <time>2009-10-18T09:08:45Z</time>
      </trkpt>
      <trkpt lat="44.58854" lon="4.17994">
        <ele>601.5</ele>
        <time>2009-10-18T09:09:03Z</time>
      </trkpt>
      <trkpt lat="44.58855" lon="4.17993">
        <ele>601.6</ele>
        <time>2009-10-18T09:09:04Z</time>
      </trkpt>
      <trkpt lat="44.58857" lon="4.17989">
        <ele>602.5</ele>
        <time>2009-10-18T09:09:07Z</time>
      </trkpt>
      <trkpt lat="44.58856" lon="4.17975">
        <ele>605.5</ele>
        <time>2009-10-18T09:09:14Z</time>
      </trkpt>
      <trkpt lat="44.58859" lon="4.17966">
        <ele>607.4</ele>
        <time>2009-10-18T09:09:19Z</time>
      </trkpt>
      <trkpt lat="44.58861" lon="4.17963">
        <ele>608.2</ele>
        <time>2009-10-18T09:09:21Z</time>
      </trkpt>
      <trkpt lat="44.58864" lon="4.17953">
        <ele>610.4</ele>
        <time>2009-10-18T09:09:26Z</time>
      </trkpt>
      <trkpt lat="44.58865" lon="4.17951">
        <ele>610.8</ele>
        <time>2009-10-18T09:09:27Z</time>
      </trkpt>
      <trkpt lat="44.58864" lon="4.17944">
        <ele>612.6</ele>
        <time>2009-10-18T09:09:37Z</time>
      </trkpt>
      <trkpt lat="44.58862" lon="4.17933">
        <ele>614.8</ele>
        <time>2009-10-18T09:09:46Z</time>
      </trkpt>
      <trkpt lat="44.5886" lon="4.17928">
        <ele>615.9</ele>
        <time>2009-10-18T09:10:01Z</time>
      </trkpt>
      <trkpt lat="44.58861" lon="4.17926">
        <ele>616.3</ele>
        <time>2009-10-18T09:10:16Z</time>
      </trkpt>
      <trkpt lat="44.58857" lon="4.17917">
        <ele>618</ele>
        <time>2009-10-18T09:10:27Z</time>
      </trkpt>
      <trkpt lat="44.58849" lon="4.1791">
        <ele>618.7</ele>
        <time>2009-10-18T09:10:32Z</time>
      </trkpt>
      <trkpt lat="44.58829" lon="4.1787">
        <ele>623.1</ele>
        <time>2009-10-18T09:10:45Z</time>
      </trkpt>
      <trkpt lat="44.58821" lon="4.17826">
        <ele>628</ele>
        <time>2009-10-18T09:10:57Z</time>
      </trkpt>
      <trkpt lat="44.58813" lon="4.17784">
        <ele>630.5</ele>
        <time>2009-10-18T09:11:11Z</time>
      </trkpt>
      <trkpt lat="44.588" lon="4.17745">
        <ele>629.4</ele>
        <time>2009-10-18T09:11:27Z</time>
      </trkpt>
      <trkpt lat="44.58796" lon="4.17708">
        <ele>632.1</ele>
        <time>2009-10-18T09:11:41Z</time>
      </trkpt>
      <trkpt lat="44.588" lon="4.17666">
        <ele>639.9</ele>
        <time>2009-10-18T09:11:56Z</time>
      </trkpt>
      <trkpt lat="44.58802" lon="4.17661">
        <ele>641.4</ele>
        <time>2009-10-18T09:11:59Z</time>
      </trkpt>
      <trkpt lat="44.58801" lon="4.17638">
        <ele>643.2</ele>
        <time>2009-10-18T09:12:09Z</time>
      </trkpt>
      <trkpt lat="44.58794" lon="4.17599">
        <ele>643.6</ele>
        <time>2009-10-18T09:12:24Z</time>
      </trkpt>
      <trkpt lat="44.58789" lon="4.17567">
        <ele>643.9</ele>
        <time>2009-10-18T09:12:35Z</time>
      </trkpt>
      <trkpt lat="44.58791" lon="4.17534">
        <ele>647.3</ele>
        <time>2009-10-18T09:12:50Z</time>
      </trkpt>
      <trkpt lat="44.58794" lon="4.17543">
        <ele>648.2</ele>
        <time>2009-10-18T09:13:01Z</time>
      </trkpt>
      <trkpt lat="44.58795" lon="4.17543">
        <ele>648.7</ele>
        <time>2009-10-18T09:13:02Z</time>
      </trkpt>
      <trkpt lat="44.58794" lon="4.17527">
        <ele>649.6</ele>
        <time>2009-10-18T09:13:16Z</time>
      </trkpt>
      <trkpt lat="44.58794" lon="4.17515">
        <ele>650.2</ele>
        <time>2009-10-18T09:13:24Z</time>
      </trkpt>
      <trkpt lat="44.58799" lon="4.17503">
        <ele>653.5</ele>
        <time>2009-10-18T09:13:30Z</time>
      </trkpt>
      <trkpt lat="44.58808" lon="4.17494">
        <ele>657.9</ele>
        <time>2009-10-18T09:13:36Z</time>
      </trkpt>
      <trkpt lat="44.58826" lon="4.17474">
        <ele>666.2</ele>
        <time>2009-10-18T09:13:50Z</time>
      </trkpt>
      <trkpt lat="44.58829" lon="4.17457">
        <ele>668.3</ele>
        <time>2009-10-18T09:13:59Z</time>
      </trkpt>
      <trkpt lat="44.58823" lon="4.17434">
        <ele>666.3</ele>
        <time>2009-10-18T09:14:13Z</time>
      </trkpt>
      <trkpt lat="44.5881" lon="4.17393">
        <ele>667.2</ele>
        <time>2009-10-18T09:14:29Z</time>
      </trkpt>
      <trkpt lat="44.58805" lon="4.17364">
        <ele>672.6</ele>
        <time>2009-10-18T09:14:41Z</time>
      </trkpt>
      <trkpt lat="44.58805" lon="4.17362">
        <ele>673</ele>
        <time>2009-10-18T09:14:42Z</time>
      </trkpt>
      <trkpt lat="44.58799" lon="4.17353">
        <ele>672.7</ele>
        <time>2009-10-18T09:14:46Z</time>
      </trkpt>
      <trkpt lat="44.58769" lon="4.17329">
        <ele>667</ele>
        <time>2009-10-18T09:15:00Z</time>
      </trkpt>
      <trkpt lat="44.5876" lon="4.17322">
        <ele>664.6</ele>
        <time>2009-10-18T09:15:05Z</time>
      </trkpt>
      <trkpt lat="44.5875" lon="4.17303">
        <ele>663.5</ele>
        <time>2009-10-18T09:15:14Z</time>
      </trkpt>
      <trkpt lat="44.58749" lon="4.17297">
        <ele>664</ele>
        <time>2009-10-18T09:15:17Z</time>
      </trkpt>
      <trkpt lat="44.58744" lon="4.17282">
        <ele>664.5</ele>
        <time>2009-10-18T09:15:26Z</time>
      </trkpt>
      <trkpt lat="44.58745" lon="4.17271">
        <ele>666.3</ele>
        <time>2009-10-18T09:15:31Z</time>
      </trkpt>
      <trkpt lat="44.58758" lon="4.17237">
        <ele>675</ele>
        <time>2009-10-18T09:15:46Z</time>
      </trkpt>
      <trkpt lat="44.58767" lon="4.17216">
        <ele>680.4</ele>
        <time>2009-10-18T09:15:55Z</time>
      </trkpt>
      <trkpt lat="44.58776" lon="4.17201">
        <ele>685.3</ele>
        <time>2009-10-18T09:16:04Z</time>
      </trkpt>
      <trkpt lat="44.58777" lon="4.17198">
        <ele>686.1</ele>
        <time>2009-10-18T09:16:06Z</time>
      </trkpt>
      <trkpt lat="44.58778" lon="4.17192">
        <ele>686.8</ele>
        <time>2009-10-18T09:16:09Z</time>
      </trkpt>
      <trkpt lat="44.58779" lon="4.17162">
        <ele>689.4</ele>
        <time>2009-10-18T09:16:23Z</time>
      </trkpt>
      <trkpt lat="44.5877" lon="4.17122">
        <ele>690</ele>
        <time>2009-10-18T09:16:39Z</time>
      </trkpt>
      <trkpt lat="44.58772" lon="4.17073">
        <ele>696</ele>
        <time>2009-10-18T09:16:57Z</time>
      </trkpt>
      <trkpt lat="44.58776" lon="4.17029">
        <ele>697.8</ele>
        <time>2009-10-18T09:17:15Z</time>
      </trkpt>
      <trkpt lat="44.58775" lon="4.17031">
        <ele>697.7</ele>
        <time>2009-10-18T09:17:37Z</time>
      </trkpt>
      <trkpt lat="44.58777" lon="4.17031">
        <ele>698.2</ele>
        <time>2009-10-18T09:17:58Z</time>
      </trkpt>
      <trkpt lat="44.58777" lon="4.17031">
        <ele>698.1</ele>
        <time>2009-10-18T09:18:13Z</time>
      </trkpt>
      <trkpt lat="44.58777" lon="4.17032">
        <ele>698.2</ele>
        <time>2009-10-18T09:18:36Z</time>
      </trkpt>
      <trkpt lat="44.58778" lon="4.17031">
        <ele>698.3</ele>
        <time>2009-10-18T09:19:53Z</time>
      </trkpt>
      <trkpt lat="44.58778" lon="4.1703">
        <ele>698.4</ele>
        <time>2009-10-18T09:20:06Z</time>
      </trkpt>
      <trkpt lat="44.58773" lon="4.17024">
        <ele>697.2</ele>
        <time>2009-10-18T09:20:12Z</time>
      </trkpt>
      <trkpt lat="44.5876" lon="4.17019">
        <ele>694.8</ele>
        <time>2009-10-18T09:20:21Z</time>
      </trkpt>
      <trkpt lat="44.5874" lon="4.17031">
        <ele>691.5</ele>
        <time>2009-10-18T09:20:34Z</time>
      </trkpt>
      <trkpt lat="44.58716" lon="4.17042">
        <ele>689.9</ele>
        <time>2009-10-18T09:20:45Z</time>
      </trkpt>
      <trkpt lat="44.58686" lon="4.17014">
        <ele>691.9</ele>
        <time>2009-10-18T09:21:01Z</time>
      </trkpt>
      <trkpt lat="44.58682" lon="4.17005">
        <ele>692.7</ele>
        <time>2009-10-18T09:21:04Z</time>
      </trkpt>
      <trkpt lat="44.5868" lon="4.16989">
        <ele>692.8</ele>
        <time>2009-10-18T09:21:09Z</time>
      </trkpt>
      <trkpt lat="44.58696" lon="4.16957">
        <ele>693.5</ele>
        <time>2009-10-18T09:21:22Z</time>
      </trkpt>
      <trkpt lat="44.58696" lon="4.16955">
        <ele>693.5</ele>
        <time>2009-10-18T09:21:23Z</time>
      </trkpt>
      <trkpt lat="44.58698" lon="4.16927">
        <ele>693.8</ele>
        <time>2009-10-18T09:21:36Z</time>
      </trkpt>
      <trkpt lat="44.58714" lon="4.16888">
        <ele>692.9</ele>
        <time>2009-10-18T09:21:46Z</time>
      </trkpt>
      <trkpt lat="44.58721" lon="4.16867">
        <ele>691.2</ele>
        <time>2009-10-18T09:21:49Z</time>
      </trkpt>
      <trkpt lat="44.58723" lon="4.1686">
        <ele>690.7</ele>
        <time>2009-10-18T09:21:50Z</time>
      </trkpt>
      <trkpt lat="44.58743" lon="4.16829">
        <ele>691.2</ele>
        <time>2009-10-18T09:21:57Z</time>
      </trkpt>
      <trkpt lat="44.58758" lon="4.16805">
        <ele>692</ele>
        <time>2009-10-18T09:22:02Z</time>
      </trkpt>
      <trkpt lat="44.58764" lon="4.16787">
        <ele>691.2</ele>
        <time>2009-10-18T09:22:05Z</time>
      </trkpt>
      <trkpt lat="44.58766" lon="4.16779">
        <ele>690.5</ele>
        <time>2009-10-18T09:22:06Z</time>
      </trkpt>
      <trkpt lat="44.58767" lon="4.16763">
        <ele>688.6</ele>
        <time>2009-10-18T09:22:08Z</time>
      </trkpt>
      <trkpt lat="44.58771" lon="4.16746">
        <ele>687.4</ele>
        <time>2009-10-18T09:22:10Z</time>
      </trkpt>
      <trkpt lat="44.58785" lon="4.16701">
        <ele>685.5</ele>
        <time>2009-10-18T09:22:16Z</time>
      </trkpt>
      <trkpt lat="44.58793" lon="4.16684">
        <ele>685.7</ele>
        <time>2009-10-18T09:22:18Z</time>
      </trkpt>
      <trkpt lat="44.58799" lon="4.1667">
        <ele>685.7</ele>
      </trkpt>
      <trkpt lat="44.58795" lon="4.16664">
        <ele>683.6</ele>
      </trkpt>
      <trkpt lat="44.58787" lon="4.16679">
        <ele>683</ele>
        <time>2009-10-18T09:27:07Z</time>
      </trkpt>
      <trkpt lat="44.58782" lon="4.16689">
        <ele>682.2</ele>
        <time>2009-10-18T09:27:10Z</time>
      </trkpt>
      <trkpt lat="44.58761" lon="4.1674">
        <ele>682.4</ele>
        <time>2009-10-18T09:27:24Z</time>
      </trkpt>
      <trkpt lat="44.58723" lon="4.16792">
        <ele>679.4</ele>
        <time>2009-10-18T09:27:37Z</time>
      </trkpt>
      <trkpt lat="44.58699" lon="4.16819">
        <ele>677.8</ele>
        <time>2009-10-18T09:27:44Z</time>
      </trkpt>
      <trkpt lat="44.58629" lon="4.16878">
        <ele>671.8</ele>
        <time>2009-10-18T09:27:59Z</time>
      </trkpt>
      <trkpt lat="44.586" lon="4.16907">
        <ele>670.9</ele>
        <time>2009-10-18T09:28:06Z</time>
      </trkpt>
      <trkpt lat="44.58591" lon="4.16933">
        <ele>672.9</ele>
        <time>2009-10-18T09:28:10Z</time>
      </trkpt>
      <trkpt lat="44.58585" lon="4.16971">
        <ele>677</ele>
        <time>2009-10-18T09:28:15Z</time>
      </trkpt>
      <trkpt lat="44.58558" lon="4.17058">
        <ele>680.1</ele>
        <time>2009-10-18T09:28:28Z</time>
      </trkpt>
      <trkpt lat="44.58551" lon="4.17078">
        <ele>681.4</ele>
        <time>2009-10-18T09:28:31Z</time>
      </trkpt>
      <trkpt lat="44.58531" lon="4.17145">
        <ele>682.7</ele>
        <time>2009-10-18T09:28:41Z</time>
      </trkpt>
      <trkpt lat="44.5853" lon="4.17148">
        <ele>683</ele>
        <time>2009-10-18T09:28:42Z</time>
      </trkpt>
      <trkpt lat="44.58529" lon="4.17158">
        <ele>683.2</ele>
        <time>2009-10-18T09:28:45Z</time>
      </trkpt>
      <trkpt lat="44.58523" lon="4.1719">
        <ele>683.8</ele>
        <time>2009-10-18T09:28:56Z</time>
      </trkpt>
      <trkpt lat="44.58517" lon="4.17224">
        <ele>684.5</ele>
        <time>2009-10-18T09:29:09Z</time>
      </trkpt>
      <trkpt lat="44.58515" lon="4.17235">
        <ele>684.8</ele>
        <time>2009-10-18T09:29:13Z</time>
      </trkpt>
      <trkpt lat="44.58515" lon="4.17245">
        <ele>684.5</ele>
        <time>2009-10-18T09:29:17Z</time>
      </trkpt>
      <trkpt lat="44.58504" lon="4.17286">
        <ele>684</ele>
        <time>2009-10-18T09:29:32Z</time>
      </trkpt>
      <trkpt lat="44.58488" lon="4.17311">
        <ele>685.7</ele>
        <time>2009-10-18T09:29:37Z</time>
      </trkpt>
      <trkpt lat="44.58485" lon="4.17317">
        <ele>685.8</ele>
        <time>2009-10-18T09:29:38Z</time>
      </trkpt>
      <trkpt lat="44.58482" lon="4.17323">
        <ele>686.1</ele>
        <time>2009-10-18T09:29:39Z</time>
      </trkpt>
      <trkpt lat="44.58477" lon="4.17334">
        <ele>686.2</ele>
        <time>2009-10-18T09:29:41Z</time>
      </trkpt>
      <trkpt lat="44.58465" lon="4.17367">
        <ele>684.6</ele>
        <time>2009-10-18T09:29:47Z</time>
      </trkpt>
      <trkpt lat="44.58457" lon="4.17381">
        <ele>684.9</ele>
        <time>2009-10-18T09:29:50Z</time>
      </trkpt>
      <trkpt lat="44.5845" lon="4.17396">
        <ele>684.6</ele>
        <time>2009-10-18T09:29:53Z</time>
      </trkpt>
      <trkpt lat="44.58439" lon="4.17412">
        <ele>685.1</ele>
        <time>2009-10-18T09:29:56Z</time>
      </trkpt>
      <trkpt lat="44.58427" lon="4.17431">
        <ele>686</ele>
        <time>2009-10-18T09:30:00Z</time>
      </trkpt>
      <trkpt lat="44.58417" lon="4.17439">
        <ele>688.1</ele>
        <time>2009-10-18T09:30:02Z</time>
      </trkpt>
      <trkpt lat="44.58412" lon="4.17474">
        <ele>685</ele>
        <time>2009-10-18T09:30:08Z</time>
      </trkpt>
      <trkpt lat="44.58407" lon="4.17536">
        <ele>679.5</ele>
        <time>2009-10-18T09:30:19Z</time>
      </trkpt>
      <trkpt lat="44.58395" lon="4.17565">
        <ele>681</ele>
        <time>2009-10-18T09:30:29Z</time>
      </trkpt>
      <trkpt lat="44.5839" lon="4.17579">
        <ele>681.3</ele>
        <time>2009-10-18T09:30:35Z</time>
      </trkpt>
      <trkpt lat="44.58387" lon="4.17588">
        <ele>681.8</ele>
        <time>2009-10-18T09:30:40Z</time>
      </trkpt>
      <trkpt lat="44.58375" lon="4.17608">
        <ele>683.9</ele>
        <time>2009-10-18T09:30:50Z</time>
      </trkpt>
      <trkpt lat="44.58372" lon="4.17611">
        <ele>684.8</ele>
        <time>2009-10-18T09:30:52Z</time>
      </trkpt>
      <trkpt lat="44.58368" lon="4.17617">
        <ele>685.7</ele>
        <time>2009-10-18T09:30:55Z</time>
      </trkpt>
      <trkpt lat="44.58364" lon="4.1763">
        <ele>685.5</ele>
        <time>2009-10-18T09:31:02Z</time>
      </trkpt>
      <trkpt lat="44.58354" lon="4.17648">
        <ele>686.6</ele>
        <time>2009-10-18T09:31:13Z</time>
      </trkpt>
      <trkpt lat="44.58345" lon="4.17664">
        <ele>687.9</ele>
        <time>2009-10-18T09:31:24Z</time>
      </trkpt>
      <trkpt lat="44.58343" lon="4.17665">
        <ele>688.1</ele>
        <time>2009-10-18T09:31:26Z</time>
      </trkpt>
      <trkpt lat="44.58324" lon="4.17673">
        <ele>691.3</ele>
        <time>2009-10-18T09:31:41Z</time>
      </trkpt>
      <trkpt lat="44.58315" lon="4.17675">
        <ele>692.2</ele>
        <time>2009-10-18T09:31:46Z</time>
      </trkpt>
      <trkpt lat="44.58312" lon="4.17676">
        <ele>692.7</ele>
        <time>2009-10-18T09:31:48Z</time>
      </trkpt>
      <trkpt lat="44.58305" lon="4.17675">
        <ele>693.9</ele>
        <time>2009-10-18T09:31:54Z</time>
      </trkpt>
      <trkpt lat="44.58287" lon="4.17676">
        <ele>697.4</ele>
        <time>2009-10-18T09:32:07Z</time>
      </trkpt>
      <trkpt lat="44.58284" lon="4.17677">
        <ele>697.6</ele>
        <time>2009-10-18T09:32:09Z</time>
      </trkpt>
      <trkpt lat="44.58259" lon="4.17671">
        <ele>703.4</ele>
        <time>2009-10-18T09:32:21Z</time>
      </trkpt>
      <trkpt lat="44.58232" lon="4.1769">
        <ele>703.8</ele>
        <time>2009-10-18T09:32:32Z</time>
      </trkpt>
      <trkpt lat="44.58222" lon="4.17699">
        <ele>703.9</ele>
        <time>2009-10-18T09:32:36Z</time>
      </trkpt>
      <trkpt lat="44.58211" lon="4.17706">
        <ele>704.8</ele>
        <time>2009-10-18T09:32:42Z</time>
      </trkpt>
      <trkpt lat="44.58208" lon="4.1771">
        <ele>704.7</ele>
        <time>2009-10-18T09:32:57Z</time>
      </trkpt>
      <trkpt lat="44.58209" lon="4.1771">
        <ele>704.7</ele>
        <time>2009-10-18T09:33:15Z</time>
      </trkpt>
      <trkpt lat="44.58209" lon="4.17712">
        <ele>704.4</ele>
        <time>2009-10-18T09:34:07Z</time>
      </trkpt>
      <trkpt lat="44.58209" lon="4.17712">
        <ele>704.2</ele>
        <time>2009-10-18T09:34:12Z</time>
      </trkpt>
      <trkpt lat="44.58209" lon="4.17713">
        <ele>704.3</ele>
        <time>2009-10-18T09:34:46Z</time>
      </trkpt>
      <trkpt lat="44.58209" lon="4.17713">
        <ele>704.2</ele>
        <time>2009-10-18T09:34:48Z</time>
      </trkpt>
      <trkpt lat="44.58207" lon="4.17713">
        <ele>704.6</ele>
        <time>2009-10-18T09:34:57Z</time>
      </trkpt>
      <trkpt lat="44.58208" lon="4.17713">
        <ele>704.3</ele>
        <time>2009-10-18T09:35:09Z</time>
      </trkpt>
      <trkpt lat="44.58206" lon="4.17717">
        <ele>704.4</ele>
        <time>2009-10-18T09:35:11Z</time>
      </trkpt>
      <trkpt lat="44.58185" lon="4.17748">
        <ele>705.3</ele>
        <time>2009-10-18T09:35:18Z</time>
      </trkpt>
      <trkpt lat="44.58175" lon="4.17767">
        <ele>703.4</ele>
        <time>2009-10-18T09:35:22Z</time>
      </trkpt>
      <trkpt lat="44.58137" lon="4.17805">
        <ele>697.6</ele>
        <time>2009-10-18T09:35:31Z</time>
      </trkpt>
      <trkpt lat="44.58117" lon="4.17812">
        <ele>697.5</ele>
        <time>2009-10-18T09:35:36Z</time>
      </trkpt>
      <trkpt lat="44.58107" lon="4.17811">
        <ele>698.4</ele>
        <time>2009-10-18T09:35:38Z</time>
      </trkpt>
      <trkpt lat="44.58093" lon="4.17807">
        <ele>700.1</ele>
        <time>2009-10-18T09:35:41Z</time>
      </trkpt>
      <trkpt lat="44.58084" lon="4.17803">
        <ele>701.4</ele>
        <time>2009-10-18T09:35:43Z</time>
      </trkpt>
      <trkpt lat="44.58042" lon="4.17805">
        <ele>696.2</ele>
        <time>2009-10-18T09:35:52Z</time>
      </trkpt>
      <trkpt lat="44.58037" lon="4.17807">
        <ele>695.5</ele>
        <time>2009-10-18T09:35:53Z</time>
      </trkpt>
      <trkpt lat="44.5802" lon="4.17823">
        <ele>692.9</ele>
        <time>2009-10-18T09:35:57Z</time>
      </trkpt>
      <trkpt lat="44.58016" lon="4.17826">
        <ele>692.4</ele>
        <time>2009-10-18T09:35:58Z</time>
      </trkpt>
      <trkpt lat="44.57972" lon="4.17851">
        <ele>686</ele>
        <time>2009-10-18T09:36:09Z</time>
      </trkpt>
      <trkpt lat="44.57961" lon="4.1785">
        <ele>684.4</ele>
        <time>2009-10-18T09:36:12Z</time>
      </trkpt>
      <trkpt lat="44.57945" lon="4.17857">
        <ele>682.4</ele>
        <time>2009-10-18T09:36:16Z</time>
      </trkpt>
      <trkpt lat="44.57933" lon="4.17862">
        <ele>681.1</ele>
        <time>2009-10-18T09:36:19Z</time>
      </trkpt>
      <trkpt lat="44.57929" lon="4.17857">
        <ele>680.3</ele>
        <time>2009-10-18T09:36:22Z</time>
      </trkpt>
      <trkpt lat="44.57933" lon="4.17808">
        <ele>676.9</ele>
        <time>2009-10-18T09:36:30Z</time>
      </trkpt>
      <trkpt lat="44.57926" lon="4.17801">
        <ele>674.6</ele>
        <time>2009-10-18T09:36:36Z</time>
      </trkpt>
      <trkpt lat="44.57916" lon="4.17813">
        <ele>673.9</ele>
        <time>2009-10-18T09:36:39Z</time>
      </trkpt>
      <trkpt lat="44.5789" lon="4.17841">
        <ele>668.7</ele>
        <time>2009-10-18T09:36:44Z</time>
      </trkpt>
      <trkpt lat="44.57886" lon="4.17847">
        <ele>668.1</ele>
        <time>2009-10-18T09:36:45Z</time>
      </trkpt>
      <trkpt lat="44.57875" lon="4.17867">
        <ele>666.7</ele>
        <time>2009-10-18T09:36:48Z</time>
      </trkpt>
      <trkpt lat="44.57865" lon="4.17897">
        <ele>667</ele>
        <time>2009-10-18T09:36:54Z</time>
      </trkpt>
      <trkpt lat="44.57857" lon="4.17908">
        <ele>666.1</ele>
        <time>2009-10-18T09:36:58Z</time>
      </trkpt>
      <trkpt lat="44.57848" lon="4.17905">
        <ele>663.3</ele>
        <time>2009-10-18T09:37:05Z</time>
      </trkpt>
      <trkpt lat="44.57835" lon="4.17931">
        <ele>663.3</ele>
        <time>2009-10-18T09:37:10Z</time>
      </trkpt>
      <trkpt lat="44.57821" lon="4.17945">
        <ele>661.2</ele>
        <time>2009-10-18T09:37:14Z</time>
      </trkpt>
      <trkpt lat="44.57815" lon="4.1795">
        <ele>660</ele>
        <time>2009-10-18T09:37:16Z</time>
      </trkpt>
      <trkpt lat="44.57813" lon="4.17955">
        <ele>660.3</ele>
        <time>2009-10-18T09:37:24Z</time>
      </trkpt>
      <trkpt lat="44.57785" lon="4.17978">
        <ele>655.4</ele>
        <time>2009-10-18T09:37:34Z</time>
      </trkpt>
      <trkpt lat="44.57778" lon="4.17984">
        <ele>654.4</ele>
        <time>2009-10-18T09:37:36Z</time>
      </trkpt>
      <trkpt lat="44.57762" lon="4.17981">
        <ele>649.1</ele>
        <time>2009-10-18T09:37:44Z</time>
      </trkpt>
      <trkpt lat="44.57761" lon="4.17981">
        <ele>648.8</ele>
        <time>2009-10-18T09:37:45Z</time>
      </trkpt>
      <trkpt lat="44.57758" lon="4.17998">
        <ele>650.8</ele>
        <time>2009-10-18T09:37:54Z</time>
      </trkpt>
      <trkpt lat="44.57756" lon="4.18003">
        <ele>650.8</ele>
        <time>2009-10-18T09:37:57Z</time>
      </trkpt>
      <trkpt lat="44.57753" lon="4.18014">
        <ele>650</ele>
        <time>2009-10-18T09:38:06Z</time>
      </trkpt>
      <trkpt lat="44.57753" lon="4.18016">
        <ele>649.9</ele>
        <time>2009-10-18T09:38:23Z</time>
      </trkpt>
      <trkpt lat="44.57746" lon="4.1804">
        <ele>648.3</ele>
        <time>2009-10-18T09:38:36Z</time>
      </trkpt>
      <trkpt lat="44.5774" lon="4.18072">
        <ele>647.6</ele>
        <time>2009-10-18T09:38:42Z</time>
      </trkpt>
      <trkpt lat="44.57739" lon="4.18084">
        <ele>647.4</ele>
        <time>2009-10-18T09:38:45Z</time>
      </trkpt>
      <trkpt lat="44.57732" lon="4.18118">
        <ele>644.7</ele>
        <time>2009-10-18T09:38:51Z</time>
      </trkpt>
      <trkpt lat="44.5773" lon="4.18123">
        <ele>644</ele>
        <time>2009-10-18T09:38:52Z</time>
      </trkpt>
      <trkpt lat="44.57726" lon="4.18155">
        <ele>641.1</ele>
        <time>2009-10-18T09:38:58Z</time>
      </trkpt>
      <trkpt lat="44.57725" lon="4.18185">
        <ele>637.8</ele>
        <time>2009-10-18T09:39:04Z</time>
      </trkpt>
      <trkpt lat="44.57724" lon="4.18217">
        <ele>634</ele>
        <time>2009-10-18T09:39:13Z</time>
      </trkpt>
      <trkpt lat="44.5772" lon="4.1824">
        <ele>629.5</ele>
        <time>2009-10-18T09:39:19Z</time>
      </trkpt>
      <trkpt lat="44.57719" lon="4.18244">
        <ele>628.7</ele>
        <time>2009-10-18T09:39:20Z</time>
      </trkpt>
      <trkpt lat="44.57718" lon="4.18267">
        <ele>626.3</ele>
        <time>2009-10-18T09:39:25Z</time>
      </trkpt>
      <trkpt lat="44.57716" lon="4.18291">
        <ele>623.3</ele>
        <time>2009-10-18T09:39:32Z</time>
      </trkpt>
      <trkpt lat="44.57712" lon="4.18309">
        <ele>620.4</ele>
        <time>2009-10-18T09:39:37Z</time>
      </trkpt>
      <trkpt lat="44.57709" lon="4.18345">
        <ele>616.6</ele>
        <time>2009-10-18T09:39:46Z</time>
      </trkpt>
      <trkpt lat="44.57705" lon="4.18374">
        <ele>613.1</ele>
        <time>2009-10-18T09:39:54Z</time>
      </trkpt>
      <trkpt lat="44.57704" lon="4.18386">
        <ele>611.8</ele>
        <time>2009-10-18T09:39:57Z</time>
      </trkpt>
      <trkpt lat="44.57701" lon="4.18402">
        <ele>609.6</ele>
        <time>2009-10-18T09:40:01Z</time>
      </trkpt>
      <trkpt lat="44.57697" lon="4.18438">
        <ele>606</ele>
        <time>2009-10-18T09:40:09Z</time>
      </trkpt>
      <trkpt lat="44.5769" lon="4.18475">
        <ele>601.5</ele>
        <time>2009-10-18T09:40:17Z</time>
      </trkpt>
      <trkpt lat="44.57689" lon="4.18485">
        <ele>600.7</ele>
        <time>2009-10-18T09:40:19Z</time>
      </trkpt>
      <trkpt lat="44.57692" lon="4.18527">
        <ele>600.4</ele>
        <time>2009-10-18T09:40:30Z</time>
      </trkpt>
      <trkpt lat="44.57693" lon="4.18543">
        <ele>600</ele>
        <time>2009-10-18T09:40:34Z</time>
      </trkpt>
      <trkpt lat="44.57692" lon="4.18556">
        <ele>599.1</ele>
        <time>2009-10-18T09:40:38Z</time>
      </trkpt>
      <trkpt lat="44.57693" lon="4.18586">
        <ele>597.7</ele>
        <time>2009-10-18T09:40:45Z</time>
      </trkpt>
      <trkpt lat="44.57688" lon="4.18633">
        <ele>592.3</ele>
        <time>2009-10-18T09:40:55Z</time>
      </trkpt>
      <trkpt lat="44.57683" lon="4.18659">
        <ele>588.5</ele>
        <time>2009-10-18T09:41:00Z</time>
      </trkpt>
      <trkpt lat="44.57677" lon="4.18697">
        <ele>585.1</ele>
        <time>2009-10-18T09:41:08Z</time>
      </trkpt>
      <trkpt lat="44.57674" lon="4.18742">
        <ele>584.9</ele>
        <time>2009-10-18T09:41:17Z</time>
      </trkpt>
      <trkpt lat="44.57668" lon="4.18777">
        <ele>583.5</ele>
        <time>2009-10-18T09:41:28Z</time>
      </trkpt>
      <trkpt lat="44.57665" lon="4.18817">
        <ele>584</ele>
        <time>2009-10-18T09:41:39Z</time>
      </trkpt>
      <trkpt lat="44.57657" lon="4.18863">
        <ele>583.3</ele>
        <time>2009-10-18T09:41:49Z</time>
      </trkpt>
      <trkpt lat="44.57641" lon="4.18902">
        <ele>578.8</ele>
        <time>2009-10-18T09:41:59Z</time>
      </trkpt>
      <trkpt lat="44.57618" lon="4.18939">
        <ele>571.3</ele>
        <time>2009-10-18T09:42:11Z</time>
      </trkpt>
      <trkpt lat="44.5761" lon="4.18965">
        <ele>570.3</ele>
        <time>2009-10-18T09:42:16Z</time>
      </trkpt>
      <trkpt lat="44.57593" lon="4.1899">
        <ele>565.2</ele>
        <time>2009-10-18T09:42:22Z</time>
      </trkpt>
      <trkpt lat="44.57567" lon="4.19021">
        <ele>558.2</ele>
        <time>2009-10-18T09:42:32Z</time>
      </trkpt>
      <trkpt lat="44.57542" lon="4.19053">
        <ele>552.9</ele>
        <time>2009-10-18T09:42:43Z</time>
      </trkpt>
      <trkpt lat="44.57539" lon="4.19057">
        <ele>552.2</ele>
        <time>2009-10-18T09:42:44Z</time>
      </trkpt>
      <trkpt lat="44.5753" lon="4.19073">
        <ele>551.3</ele>
        <time>2009-10-18T09:42:48Z</time>
      </trkpt>
      <trkpt lat="44.57524" lon="4.19099">
        <ele>550.7</ele>
        <time>2009-10-18T09:42:54Z</time>
      </trkpt>
      <trkpt lat="44.57506" lon="4.19133">
        <ele>547.5</ele>
        <time>2009-10-18T09:43:03Z</time>
      </trkpt>
      <trkpt lat="44.57479" lon="4.19162">
        <ele>541.5</ele>
        <time>2009-10-18T09:43:11Z</time>
      </trkpt>
      <trkpt lat="44.57472" lon="4.19169">
        <ele>540.1</ele>
        <time>2009-10-18T09:43:13Z</time>
      </trkpt>
      <trkpt lat="44.57471" lon="4.19172">
        <ele>539.7</ele>
        <time>2009-10-18T09:43:15Z</time>
      </trkpt>
      <trkpt lat="44.57475" lon="4.19175">
        <ele>541.3</ele>
        <time>2009-10-18T09:43:32Z</time>
      </trkpt>
      <trkpt lat="44.57475" lon="4.19175">
        <ele>541.1</ele>
        <time>2009-10-18T09:43:48Z</time>
      </trkpt>
      <trkpt lat="44.57476" lon="4.19176">
        <ele>541.5</ele>
        <time>2009-10-18T09:44:11Z</time>
      </trkpt>
      <trkpt lat="44.57478" lon="4.19177">
        <ele>542.2</ele>
        <time>2009-10-18T09:44:35Z</time>
      </trkpt>
      <trkpt lat="44.57476" lon="4.19177">
        <ele>541.5</ele>
        <time>2009-10-18T09:44:54Z</time>
      </trkpt>
      <trkpt lat="44.57471" lon="4.19174">
        <ele>539.9</ele>
        <time>2009-10-18T09:45:16Z</time>
      </trkpt>
      <trkpt lat="44.57459" lon="4.19195">
        <ele>538.1</ele>
        <time>2009-10-18T09:45:30Z</time>
      </trkpt>
      <trkpt lat="44.57457" lon="4.19198">
        <ele>538</ele>
        <time>2009-10-18T09:45:31Z</time>
      </trkpt>
      <trkpt lat="44.57439" lon="4.19224">
        <ele>537.6</ele>
        <time>2009-10-18T09:45:38Z</time>
      </trkpt>
      <trkpt lat="44.57426" lon="4.19238">
        <ele>538.4</ele>
        <time>2009-10-18T09:45:43Z</time>
      </trkpt>
      <trkpt lat="44.57406" lon="4.19258">
        <ele>537.7</ele>
        <time>2009-10-18T09:45:51Z</time>
      </trkpt>
      <trkpt lat="44.57403" lon="4.19262">
        <ele>537.4</ele>
        <time>2009-10-18T09:45:52Z</time>
      </trkpt>
      <trkpt lat="44.57393" lon="4.19273">
        <ele>535.8</ele>
        <time>2009-10-18T09:45:56Z</time>
      </trkpt>
      <trkpt lat="44.57372" lon="4.19282">
        <ele>531.5</ele>
        <time>2009-10-18T09:46:05Z</time>
      </trkpt>
      <trkpt lat="44.57353" lon="4.193">
        <ele>528.9</ele>
        <time>2009-10-18T09:46:13Z</time>
      </trkpt>
      <trkpt lat="44.57352" lon="4.19302">
        <ele>528.7</ele>
        <time>2009-10-18T09:46:25Z</time>
      </trkpt>
      <trkpt lat="44.57352" lon="4.19303">
        <ele>528.9</ele>
        <time>2009-10-18T09:46:42Z</time>
      </trkpt>
      <trkpt lat="44.57345" lon="4.19301">
        <ele>527</ele>
        <time>2009-10-18T09:46:47Z</time>
      </trkpt>
      <trkpt lat="44.57321" lon="4.19291">
        <ele>521.5</ele>
        <time>2009-10-18T09:46:55Z</time>
      </trkpt>
      <trkpt lat="44.57314" lon="4.1929">
        <ele>520.5</ele>
        <time>2009-10-18T09:46:57Z</time>
      </trkpt>
      <trkpt lat="44.57307" lon="4.1929">
        <ele>519.4</ele>
        <time>2009-10-18T09:46:59Z</time>
      </trkpt>
      <trkpt lat="44.57279" lon="4.19311">
        <ele>517.6</ele>
        <time>2009-10-18T09:47:08Z</time>
      </trkpt>
      <trkpt lat="44.57273" lon="4.19322">
        <ele>517.9</ele>
        <time>2009-10-18T09:47:12Z</time>
      </trkpt>
      <trkpt lat="44.57269" lon="4.19327">
        <ele>517.9</ele>
        <time>2009-10-18T09:47:14Z</time>
      </trkpt>
      <trkpt lat="44.57262" lon="4.19331">
        <ele>517.4</ele>
        <time>2009-10-18T09:47:17Z</time>
      </trkpt>
      <trkpt lat="44.57251" lon="4.19327">
        <ele>515.5</ele>
        <time>2009-10-18T09:47:21Z</time>
      </trkpt>
      <trkpt lat="44.57239" lon="4.1933">
        <ele>514.1</ele>
        <time>2009-10-18T09:47:26Z</time>
      </trkpt>
      <trkpt lat="44.57221" lon="4.19332">
        <ele>512</ele>
        <time>2009-10-18T09:47:32Z</time>
      </trkpt>
      <trkpt lat="44.57209" lon="4.19334">
        <ele>510.5</ele>
        <time>2009-10-18T09:47:37Z</time>
      </trkpt>
      <trkpt lat="44.572" lon="4.19338">
        <ele>509.1</ele>
        <time>2009-10-18T09:47:40Z</time>
      </trkpt>
      <trkpt lat="44.57191" lon="4.19346">
        <ele>507.1</ele>
        <time>2009-10-18T09:47:44Z</time>
      </trkpt>
      <trkpt lat="44.57188" lon="4.19349">
        <ele>506.5</ele>
        <time>2009-10-18T09:47:45Z</time>
      </trkpt>
      <trkpt lat="44.57175" lon="4.19365">
        <ele>503.2</ele>
        <time>2009-10-18T09:47:49Z</time>
      </trkpt>
      <trkpt lat="44.57138" lon="4.19384">
        <ele>499.1</ele>
        <time>2009-10-18T09:48:00Z</time>
      </trkpt>
      <trkpt lat="44.57114" lon="4.19387">
        <ele>497.6</ele>
        <time>2009-10-18T09:48:08Z</time>
      </trkpt>
      <trkpt lat="44.5711" lon="4.19388">
        <ele>497.3</ele>
        <time>2009-10-18T09:48:23Z</time>
      </trkpt>
      <trkpt lat="44.5711" lon="4.19389">
        <ele>497.2</ele>
        <time>2009-10-18T09:48:38Z</time>
      </trkpt>
      <trkpt lat="44.5711" lon="4.19389">
        <ele>497.2</ele>
        <time>2009-10-18T09:49:01Z</time>
      </trkpt>
      <trkpt lat="44.5711" lon="4.19388">
        <ele>497.3</ele>
        <time>2009-10-18T09:49:15Z</time>
      </trkpt>
      <trkpt lat="44.5711" lon="4.19388">
        <ele>497.3</ele>
        <time>2009-10-18T09:49:16Z</time>
      </trkpt>
      <trkpt lat="44.5711" lon="4.19389">
        <ele>497.2</ele>
        <time>2009-10-18T09:49:19Z</time>
      </trkpt>
      <trkpt lat="44.5711" lon="4.19388">
        <ele>497.3</ele>
        <time>2009-10-18T09:49:47Z</time>
      </trkpt>
      <trkpt lat="44.57108" lon="4.19388">
        <ele>497.2</ele>
        <time>2009-10-18T09:50:11Z</time>
      </trkpt>
      <trkpt lat="44.5711" lon="4.19389">
        <ele>497.1</ele>
        <time>2009-10-18T09:50:36Z</time>
      </trkpt>
      <trkpt lat="44.57109" lon="4.19389">
        <ele>497.1</ele>
        <time>2009-10-18T09:51:02Z</time>
      </trkpt>
      <trkpt lat="44.57108" lon="4.1939">
        <ele>496.9</ele>
        <time>2009-10-18T09:51:05Z</time>
      </trkpt>
      <trkpt lat="44.571" lon="4.19402">
        <ele>494.7</ele>
        <time>2009-10-18T09:51:10Z</time>
      </trkpt>
      <trkpt lat="44.57094" lon="4.19409">
        <ele>493</ele>
        <time>2009-10-18T09:51:12Z</time>
      </trkpt>
      <trkpt lat="44.57076" lon="4.1942">
        <ele>489.8</ele>
        <time>2009-10-18T09:51:16Z</time>
      </trkpt>
      <trkpt lat="44.5707" lon="4.19421">
        <ele>489.3</ele>
        <time>2009-10-18T09:51:17Z</time>
      </trkpt>
      <trkpt lat="44.57052" lon="4.1942">
        <ele>488.1</ele>
        <time>2009-10-18T09:51:20Z</time>
      </trkpt>
      <trkpt lat="44.57023" lon="4.19402">
        <ele>489.3</ele>
        <time>2009-10-18T09:51:25Z</time>
      </trkpt>
      <trkpt lat="44.57004" lon="4.19385">
        <ele>491</ele>
        <time>2009-10-18T09:51:28Z</time>
      </trkpt>
      <trkpt lat="44.56969" lon="4.19385">
        <ele>487.8</ele>
        <time>2009-10-18T09:51:33Z</time>
      </trkpt>
      <trkpt lat="44.56934" lon="4.19409">
        <ele>480.7</ele>
        <time>2009-10-18T09:51:38Z</time>
      </trkpt>
      <trkpt lat="44.56925" lon="4.19415">
        <ele>479</ele>
        <time>2009-10-18T09:51:40Z</time>
      </trkpt>
      <trkpt lat="44.56926" lon="4.19436">
        <ele>475.5</ele>
        <time>2009-10-18T09:51:46Z</time>
      </trkpt>
      <trkpt lat="44.56937" lon="4.19437">
        <ele>476</ele>
        <time>2009-10-18T09:51:48Z</time>
      </trkpt>
      <trkpt lat="44.5697" lon="4.19425">
        <ele>480.7</ele>
        <time>2009-10-18T09:51:58Z</time>
      </trkpt>
      <trkpt lat="44.56973" lon="4.19427">
        <ele>480.4</ele>
        <time>2009-10-18T09:52:00Z</time>
      </trkpt>
      <trkpt lat="44.56976" lon="4.19431">
        <ele>479.7</ele>
        <time>2009-10-18T09:52:02Z</time>
      </trkpt>
      <trkpt lat="44.56972" lon="4.19442">
        <ele>477.1</ele>
        <time>2009-10-18T09:52:05Z</time>
      </trkpt>
      <trkpt lat="44.56968" lon="4.19445">
        <ele>476.1</ele>
        <time>2009-10-18T09:52:06Z</time>
      </trkpt>
      <trkpt lat="44.56949" lon="4.19462">
        <ele>472</ele>
        <time>2009-10-18T09:52:10Z</time>
      </trkpt>
      <trkpt lat="44.56936" lon="4.19468">
        <ele>470.4</ele>
        <time>2009-10-18T09:52:13Z</time>
      </trkpt>
      <trkpt lat="44.56933" lon="4.1947">
        <ele>470.1</ele>
        <time>2009-10-18T09:52:14Z</time>
      </trkpt>
      <trkpt lat="44.56937" lon="4.19488">
        <ele>467</ele>
        <time>2009-10-18T09:52:23Z</time>
      </trkpt>
      <trkpt lat="44.56961" lon="4.19485">
        <ele>467.5</ele>
        <time>2009-10-18T09:52:33Z</time>
      </trkpt>
      <trkpt lat="44.56983" lon="4.19466">
        <ele>472.2</ele>
        <time>2009-10-18T09:52:43Z</time>
      </trkpt>
      <trkpt lat="44.56986" lon="4.19464">
        <ele>472.7</ele>
        <time>2009-10-18T09:52:58Z</time>
      </trkpt>
      <trkpt lat="44.5699" lon="4.19469">
        <ele>471.6</ele>
        <time>2009-10-18T09:53:09Z</time>
      </trkpt>
      <trkpt lat="44.5699" lon="4.19473">
        <ele>470.7</ele>
        <time>2009-10-18T09:53:12Z</time>
      </trkpt>
      <trkpt lat="44.57002" lon="4.19486">
        <ele>467.9</ele>
        <time>2009-10-18T09:53:31Z</time>
      </trkpt>
      <trkpt lat="44.57003" lon="4.19485">
        <ele>468.2</ele>
        <time>2009-10-18T09:53:48Z</time>
      </trkpt>
      <trkpt lat="44.5701" lon="4.19495">
        <ele>466.7</ele>
        <time>2009-10-18T09:54:13Z</time>
      </trkpt>
      <trkpt lat="44.57012" lon="4.19496">
        <ele>466.5</ele>
        <time>2009-10-18T09:54:25Z</time>
      </trkpt>
      <trkpt lat="44.5703" lon="4.19507">
        <ele>467.8</ele>
        <time>2009-10-18T09:54:45Z</time>
      </trkpt>
      <trkpt lat="44.57039" lon="4.19511">
        <ele>469</ele>
        <time>2009-10-18T09:54:47Z</time>
      </trkpt>
      <trkpt lat="44.57048" lon="4.19528">
        <ele>470.4</ele>
        <time>2009-10-18T09:54:52Z</time>
      </trkpt>
      <trkpt lat="44.57024" lon="4.19557">
        <ele>465.3</ele>
        <time>2009-10-18T09:55:04Z</time>
      </trkpt>
      <trkpt lat="44.5701" lon="4.19584">
        <ele>460.7</ele>
        <time>2009-10-18T09:55:18Z</time>
      </trkpt>
      <trkpt lat="44.56996" lon="4.19628">
        <ele>460.1</ele>
        <time>2009-10-18T09:55:32Z</time>
      </trkpt>
      <trkpt lat="44.5699" lon="4.1964">
        <ele>459.2</ele>
        <time>2009-10-18T09:55:44Z</time>
      </trkpt>
      <trkpt lat="44.56989" lon="4.19642">
        <ele>459</ele>
        <time>2009-10-18T09:55:58Z</time>
      </trkpt>
      <trkpt lat="44.56991" lon="4.19642">
        <ele>459.5</ele>
        <time>2009-10-18T09:56:13Z</time>
      </trkpt>
      <trkpt lat="44.56991" lon="4.19647">
        <ele>459.6</ele>
        <time>2009-10-18T09:56:23Z</time>
      </trkpt>
      <trkpt lat="44.56991" lon="4.19647">
        <ele>459.8</ele>
        <time>2009-10-18T09:56:32Z</time>
      </trkpt>
      <trkpt lat="44.5699" lon="4.19651">
        <ele>459.5</ele>
        <time>2009-10-18T09:56:46Z</time>
      </trkpt>
      <trkpt lat="44.56983" lon="4.19663">
        <ele>457.4</ele>
        <time>2009-10-18T09:56:57Z</time>
      </trkpt>
      <trkpt lat="44.56981" lon="4.19664">
        <ele>456.8</ele>
        <time>2009-10-18T09:57:08Z</time>
      </trkpt>
      <trkpt lat="44.56976" lon="4.19673">
        <ele>455</ele>
        <time>2009-10-18T09:57:20Z</time>
      </trkpt>
      <trkpt lat="44.56957" lon="4.19703">
        <ele>447.9</ele>
        <time>2009-10-18T09:57:31Z</time>
      </trkpt>
      <trkpt lat="44.56953" lon="4.19711">
        <ele>446.5</ele>
        <time>2009-10-18T09:57:34Z</time>
      </trkpt>
      <trkpt lat="44.56942" lon="4.19761">
        <ele>441.1</ele>
        <time>2009-10-18T09:57:45Z</time>
      </trkpt>
      <trkpt lat="44.56941" lon="4.19765">
        <ele>440.6</ele>
        <time>2009-10-18T09:57:46Z</time>
      </trkpt>
      <trkpt lat="44.56942" lon="4.19793">
        <ele>437</ele>
        <time>2009-10-18T09:57:53Z</time>
      </trkpt>
      <trkpt lat="44.5695" lon="4.19806">
        <ele>437.7</ele>
        <time>2009-10-18T09:57:58Z</time>
      </trkpt>
      <trkpt lat="44.56958" lon="4.19809">
        <ele>439.4</ele>
        <time>2009-10-18T09:58:03Z</time>
      </trkpt>
      <trkpt lat="44.56958" lon="4.19809">
        <ele>439.5</ele>
        <time>2009-10-18T09:58:04Z</time>
      </trkpt>
      <trkpt lat="44.56966" lon="4.19816">
        <ele>440.8</ele>
        <time>2009-10-18T09:58:19Z</time>
      </trkpt>
      <trkpt lat="44.56969" lon="4.19821">
        <ele>440.7</ele>
        <time>2009-10-18T09:58:25Z</time>
      </trkpt>
      <trkpt lat="44.56974" lon="4.19826">
        <ele>441.3</ele>
        <time>2009-10-18T09:58:36Z</time>
      </trkpt>
      <trkpt lat="44.56978" lon="4.19834">
        <ele>441.1</ele>
        <time>2009-10-18T09:58:45Z</time>
      </trkpt>
      <trkpt lat="44.56975" lon="4.19842">
        <ele>437.8</ele>
        <time>2009-10-18T09:58:57Z</time>
      </trkpt>
      <trkpt lat="44.56972" lon="4.19849">
        <ele>434.9</ele>
        <time>2009-10-18T09:59:13Z</time>
      </trkpt>
      <trkpt lat="44.56969" lon="4.19853">
        <ele>432.8</ele>
        <time>2009-10-18T09:59:19Z</time>
      </trkpt>
      <trkpt lat="44.56962" lon="4.19863">
        <ele>428.2</ele>
        <time>2009-10-18T09:59:28Z</time>
      </trkpt>
      <trkpt lat="44.5696" lon="4.19869">
        <ele>425.6</ele>
        <time>2009-10-18T09:59:33Z</time>
      </trkpt>
      <trkpt lat="44.56961" lon="4.19872">
        <ele>425</ele>
        <time>2009-10-18T09:59:35Z</time>
      </trkpt>
      <trkpt lat="44.56962" lon="4.19883">
        <ele>422</ele>
        <time>2009-10-18T09:59:40Z</time>
      </trkpt>
      <trkpt lat="44.56964" lon="4.19909">
        <ele>414.7</ele>
        <time>2009-10-18T09:59:51Z</time>
      </trkpt>
      <trkpt lat="44.56972" lon="4.19932">
        <ele>409.4</ele>
        <time>2009-10-18T09:59:58Z</time>
      </trkpt>
      <trkpt lat="44.56977" lon="4.19942">
        <ele>407.1</ele>
        <time>2009-10-18T10:00:01Z</time>
      </trkpt>
      <trkpt lat="44.56999" lon="4.19972">
        <ele>402.2</ele>
        <time>2009-10-18T10:00:12Z</time>
      </trkpt>
      <trkpt lat="44.57005" lon="4.19987">
        <ele>397.9</ele>
        <time>2009-10-18T10:00:17Z</time>
      </trkpt>
      <trkpt lat="44.57009" lon="4.19995">
        <ele>395.8</ele>
        <time>2009-10-18T10:00:20Z</time>
      </trkpt>
      <trkpt lat="44.57018" lon="4.19997">
        <ele>396.2</ele>
        <time>2009-10-18T10:00:24Z</time>
      </trkpt>
      <trkpt lat="44.57026" lon="4.19993">
        <ele>398.3</ele>
        <time>2009-10-18T10:00:28Z</time>
      </trkpt>
      <trkpt lat="44.57033" lon="4.19989">
        <ele>400.3</ele>
        <time>2009-10-18T10:00:35Z</time>
      </trkpt>
      <trkpt lat="44.57048" lon="4.19984">
        <ele>403.2</ele>
        <time>2009-10-18T10:00:42Z</time>
      </trkpt>
      <trkpt lat="44.57055" lon="4.19983">
        <ele>404</ele>
        <time>2009-10-18T10:00:45Z</time>
      </trkpt>
      <trkpt lat="44.5706" lon="4.19985">
        <ele>404.1</ele>
        <time>2009-10-18T10:00:47Z</time>
      </trkpt>
      <trkpt lat="44.57054" lon="4.19998">
        <ele>400.5</ele>
        <time>2009-10-18T10:00:53Z</time>
      </trkpt>
      <trkpt lat="44.57049" lon="4.20033">
        <ele>392.6</ele>
        <time>2009-10-18T10:01:02Z</time>
      </trkpt>
      <trkpt lat="44.57046" lon="4.20056">
        <ele>386.9</ele>
        <time>2009-10-18T10:01:08Z</time>
      </trkpt>
      <trkpt lat="44.5704" lon="4.20057">
        <ele>385.6</ele>
        <time>2009-10-18T10:01:12Z</time>
      </trkpt>
      <trkpt lat="44.5704" lon="4.2006">
        <ele>384.9</ele>
        <time>2009-10-18T10:01:14Z</time>
      </trkpt>
      <trkpt lat="44.57041" lon="4.20065">
        <ele>383.9</ele>
        <time>2009-10-18T10:01:16Z</time>
      </trkpt>
      <trkpt lat="44.57038" lon="4.20075">
        <ele>380.9</ele>
        <time>2009-10-18T10:01:19Z</time>
      </trkpt>
      <trkpt lat="44.57037" lon="4.20077">
        <ele>380.3</ele>
      </trkpt>
      <trkpt lat="44.57033" lon="4.20084">
        <ele>377.9</ele>
      </trkpt>
      <trkpt lat="44.5703" lon="4.2009">
        <ele>376.4</ele>
      </trkpt>
      <trkpt lat="44.5703" lon="4.20095">
        <ele>375.7</ele>
        <time>2009-10-18T10:03:26Z</time>
      </trkpt>
      <trkpt lat="44.5703" lon="4.20095">
        <ele>375.7</ele>
        <time>2009-10-18T10:03:26Z</time>
      </trkpt>
      <trkpt lat="44.5706" lon="4.20131">
        <ele>376.7</ele>
        <time>2009-10-18T10:03:44Z</time>
      </trkpt>
      <trkpt lat="44.5707" lon="4.20184">
        <ele>373.8</ele>
        <time>2009-10-18T10:03:57Z</time>
      </trkpt>
      <trkpt lat="44.57035" lon="4.20214">
        <ele>375</ele>
        <time>2009-10-18T10:04:09Z</time>
      </trkpt>
      <trkpt lat="44.56985" lon="4.2022">
        <ele>374.1</ele>
        <time>2009-10-18T10:04:26Z</time>
      </trkpt>
      <trkpt lat="44.56951" lon="4.20255">
        <ele>377</ele>
        <time>2009-10-18T10:04:42Z</time>
      </trkpt>
      <trkpt lat="44.56945" lon="4.20309">
        <ele>384.3</ele>
        <time>2009-10-18T10:04:56Z</time>
      </trkpt>
      <trkpt lat="44.56945" lon="4.20312">
        <ele>384.9</ele>
        <time>2009-10-18T10:04:57Z</time>
      </trkpt>
      <trkpt lat="44.56927" lon="4.20375">
        <ele>385.4</ele>
        <time>2009-10-18T10:05:15Z</time>
      </trkpt>
      <trkpt lat="44.56937" lon="4.20454">
        <ele>393.2</ele>
        <time>2009-10-18T10:05:36Z</time>
      </trkpt>
      <trkpt lat="44.56939" lon="4.20511">
        <ele>397.1</ele>
        <time>2009-10-18T10:05:51Z</time>
      </trkpt>
      <trkpt lat="44.56929" lon="4.20567">
        <ele>398</ele>
        <time>2009-10-18T10:06:06Z</time>
      </trkpt>
      <trkpt lat="44.56923" lon="4.20631">
        <ele>399.3</ele>
        <time>2009-10-18T10:06:23Z</time>
      </trkpt>
      <trkpt lat="44.56933" lon="4.20694">
        <ele>403.8</ele>
        <time>2009-10-18T10:06:40Z</time>
      </trkpt>
      <trkpt lat="44.56934" lon="4.20697">
        <ele>404.2</ele>
        <time>2009-10-18T10:06:41Z</time>
      </trkpt>
      <trkpt lat="44.56945" lon="4.20754">
        <ele>409.6</ele>
        <time>2009-10-18T10:06:56Z</time>
      </trkpt>
      <trkpt lat="44.56922" lon="4.20824">
        <ele>417.4</ele>
        <time>2009-10-18T10:07:15Z</time>
      </trkpt>
      <trkpt lat="44.56912" lon="4.20851">
        <ele>420.4</ele>
        <time>2009-10-18T10:07:23Z</time>
      </trkpt>
      <trkpt lat="44.56893" lon="4.20894">
        <ele>428.8</ele>
        <time>2009-10-18T10:07:38Z</time>
      </trkpt>
      <trkpt lat="44.56887" lon="4.20928">
        <ele>432.4</ele>
        <time>2009-10-18T10:07:49Z</time>
      </trkpt>
      <trkpt lat="44.5689" lon="4.20945">
        <ele>431.5</ele>
        <time>2009-10-18T10:07:56Z</time>
      </trkpt>
      <trkpt lat="44.56891" lon="4.20942">
        <ele>431</ele>
        <time>2009-10-18T10:07:59Z</time>
      </trkpt>
      <trkpt lat="44.56892" lon="4.20967">
        <ele>431.5</ele>
        <time>2009-10-18T10:08:09Z</time>
      </trkpt>
      <trkpt lat="44.56892" lon="4.2097">
        <ele>431.6</ele>
        <time>2009-10-18T10:08:10Z</time>
      </trkpt>
      <trkpt lat="44.56892" lon="4.21006">
        <ele>432.8</ele>
        <time>2009-10-18T10:08:20Z</time>
      </trkpt>
      <trkpt lat="44.56891" lon="4.21009">
        <ele>433</ele>
        <time>2009-10-18T10:08:21Z</time>
      </trkpt>
      <trkpt lat="44.56884" lon="4.21078">
        <ele>437.7</ele>
        <time>2009-10-18T10:08:42Z</time>
      </trkpt>
      <trkpt lat="44.56901" lon="4.21126">
        <ele>440.7</ele>
        <time>2009-10-18T10:08:58Z</time>
      </trkpt>
      <trkpt lat="44.56929" lon="4.21112">
        <ele>441.2</ele>
        <time>2009-10-18T10:09:08Z</time>
      </trkpt>
      <trkpt lat="44.56948" lon="4.21071">
        <ele>442.4</ele>
        <time>2009-10-18T10:09:19Z</time>
      </trkpt>
      <trkpt lat="44.56969" lon="4.21017">
        <ele>440.9</ele>
        <time>2009-10-18T10:09:34Z</time>
      </trkpt>
      <trkpt lat="44.56973" lon="4.21001">
        <ele>439.6</ele>
        <time>2009-10-18T10:09:38Z</time>
      </trkpt>
      <trkpt lat="44.56977" lon="4.20921">
        <ele>435.2</ele>
        <time>2009-10-18T10:09:57Z</time>
      </trkpt>
      <trkpt lat="44.56995" lon="4.20868">
        <ele>432</ele>
        <time>2009-10-18T10:10:12Z</time>
      </trkpt>
      <trkpt lat="44.5703" lon="4.20875">
        <ele>434.5</ele>
        <time>2009-10-18T10:10:25Z</time>
      </trkpt>
      <trkpt lat="44.57031" lon="4.20934">
        <ele>441.5</ele>
        <time>2009-10-18T10:10:40Z</time>
      </trkpt>
      <trkpt lat="44.57011" lon="4.20995">
        <ele>447.2</ele>
        <time>2009-10-18T10:10:55Z</time>
      </trkpt>
      <trkpt lat="44.56984" lon="4.21077">
        <ele>454.7</ele>
        <time>2009-10-18T10:11:15Z</time>
      </trkpt>
      <trkpt lat="44.56975" lon="4.21162">
        <ele>460.3</ele>
        <time>2009-10-18T10:11:34Z</time>
      </trkpt>
      <trkpt lat="44.56981" lon="4.21204">
        <ele>463.2</ele>
        <time>2009-10-18T10:11:43Z</time>
      </trkpt>
      <trkpt lat="44.56991" lon="4.21259">
        <ele>466.5</ele>
        <time>2009-10-18T10:11:55Z</time>
      </trkpt>
      <trkpt lat="44.56979" lon="4.21298">
        <ele>469.9</ele>
        <time>2009-10-18T10:12:06Z</time>
      </trkpt>
      <trkpt lat="44.56945" lon="4.21285">
        <ele>465.6</ele>
        <time>2009-10-18T10:12:17Z</time>
      </trkpt>
      <trkpt lat="44.56897" lon="4.21311">
        <ele>470</ele>
        <time>2009-10-18T10:12:32Z</time>
      </trkpt>
      <trkpt lat="44.56869" lon="4.21338">
        <ele>474.4</ele>
        <time>2009-10-18T10:12:41Z</time>
      </trkpt>
      <trkpt lat="44.56866" lon="4.2134">
        <ele>474.4</ele>
        <time>2009-10-18T10:12:42Z</time>
      </trkpt>
      <trkpt lat="44.56854" lon="4.2134">
        <ele>473.8</ele>
        <time>2009-10-18T10:12:45Z</time>
      </trkpt>
      <trkpt lat="44.5684" lon="4.2133">
        <ele>471.9</ele>
        <time>2009-10-18T10:12:49Z</time>
      </trkpt>
      <trkpt lat="44.56814" lon="4.21328">
        <ele>474.7</ele>
        <time>2009-10-18T10:12:55Z</time>
      </trkpt>
      <trkpt lat="44.56801" lon="4.21358">
        <ele>477.8</ele>
        <time>2009-10-18T10:13:02Z</time>
      </trkpt>
      <trkpt lat="44.56802" lon="4.21379">
        <ele>478.2</ele>
        <time>2009-10-18T10:13:06Z</time>
      </trkpt>
      <trkpt lat="44.56806" lon="4.21389">
        <ele>478.2</ele>
        <time>2009-10-18T10:18:52Z</time>
      </trkpt>
      <trkpt lat="44.56791" lon="4.21409">
        <ele>478.5</ele>
        <time>2009-10-18T10:18:59Z</time>
      </trkpt>
      <trkpt lat="44.56763" lon="4.21439">
        <ele>474.7</ele>
        <time>2009-10-18T10:19:05Z</time>
      </trkpt>
      <trkpt lat="44.56742" lon="4.21468">
        <ele>471.7</ele>
        <time>2009-10-18T10:19:08Z</time>
      </trkpt>
      <trkpt lat="44.56732" lon="4.21483">
        <ele>472</ele>
        <time>2009-10-18T10:19:10Z</time>
      </trkpt>
      <trkpt lat="44.56729" lon="4.21489">
        <ele>472.1</ele>
        <time>2009-10-18T10:19:11Z</time>
      </trkpt>
      <trkpt lat="44.56725" lon="4.21507">
        <ele>471.3</ele>
        <time>2009-10-18T10:19:14Z</time>
      </trkpt>
      <trkpt lat="44.56729" lon="4.21519">
        <ele>469.5</ele>
        <time>2009-10-18T10:19:16Z</time>
      </trkpt>
      <trkpt lat="44.56737" lon="4.21568">
        <ele>464.7</ele>
        <time>2009-10-18T10:19:24Z</time>
      </trkpt>
      <trkpt lat="44.56728" lon="4.21611">
        <ele>462.9</ele>
        <time>2009-10-18T10:19:34Z</time>
      </trkpt>
      <trkpt lat="44.56721" lon="4.21633">
        <ele>461.5</ele>
        <time>2009-10-18T10:19:38Z</time>
      </trkpt>
      <trkpt lat="44.5672" lon="4.21646">
        <ele>460</ele>
        <time>2009-10-18T10:19:40Z</time>
      </trkpt>
      <trkpt lat="44.5672" lon="4.21675">
        <ele>456.4</ele>
        <time>2009-10-18T10:19:44Z</time>
      </trkpt>
      <trkpt lat="44.56709" lon="4.21732">
        <ele>452.4</ele>
        <time>2009-10-18T10:19:53Z</time>
      </trkpt>
      <trkpt lat="44.56707" lon="4.21739">
        <ele>452</ele>
        <time>2009-10-18T10:19:54Z</time>
      </trkpt>
      <trkpt lat="44.56707" lon="4.21759">
        <ele>450</ele>
        <time>2009-10-18T10:19:57Z</time>
      </trkpt>
      <trkpt lat="44.56697" lon="4.21816">
        <ele>447.1</ele>
        <time>2009-10-18T10:20:04Z</time>
      </trkpt>
      <trkpt lat="44.56689" lon="4.21845">
        <ele>446.1</ele>
        <time>2009-10-18T10:20:08Z</time>
      </trkpt>
      <trkpt lat="44.5668" lon="4.21864">
        <ele>446.5</ele>
        <time>2009-10-18T10:20:11Z</time>
      </trkpt>
      <trkpt lat="44.56677" lon="4.21883">
        <ele>446</ele>
        <time>2009-10-18T10:20:16Z</time>
      </trkpt>
      <trkpt lat="44.56681" lon="4.2189">
        <ele>445.3</ele>
        <time>2009-10-18T10:20:18Z</time>
      </trkpt>
      <trkpt lat="44.56675" lon="4.21936">
        <ele>442.9</ele>
        <time>2009-10-18T10:20:28Z</time>
      </trkpt>
      <trkpt lat="44.56656" lon="4.21975">
        <ele>442.1</ele>
        <time>2009-10-18T10:20:42Z</time>
      </trkpt>
      <trkpt lat="44.56645" lon="4.21995">
        <ele>442.4</ele>
        <time>2009-10-18T10:20:50Z</time>
      </trkpt>
      <trkpt lat="44.56629" lon="4.22026">
        <ele>441.9</ele>
        <time>2009-10-18T10:21:03Z</time>
      </trkpt>
      <trkpt lat="44.56592" lon="4.22061">
        <ele>444.6</ele>
        <time>2009-10-18T10:21:19Z</time>
      </trkpt>
      <trkpt lat="44.56585" lon="4.22071">
        <ele>444.6</ele>
        <time>2009-10-18T10:21:21Z</time>
      </trkpt>
      <trkpt lat="44.56568" lon="4.22104">
        <ele>439.3</ele>
        <time>2009-10-18T10:21:26Z</time>
      </trkpt>
      <trkpt lat="44.56555" lon="4.22113">
        <ele>437.4</ele>
        <time>2009-10-18T10:21:34Z</time>
      </trkpt>
      <trkpt lat="44.56554" lon="4.22114">
        <ele>437.3</ele>
        <time>2009-10-18T10:21:46Z</time>
      </trkpt>
      <trkpt lat="44.56557" lon="4.22129">
        <ele>435.8</ele>
        <time>2009-10-18T10:21:50Z</time>
      </trkpt>
      <trkpt lat="44.56561" lon="4.2214">
        <ele>434.8</ele>
        <time>2009-10-18T10:22:01Z</time>
      </trkpt>
      <trkpt lat="44.56561" lon="4.2214">
        <ele>434.8</ele>
        <time>2009-10-18T10:22:13Z</time>
      </trkpt>
      <trkpt lat="44.56558" lon="4.22151">
        <ele>433.4</ele>
        <time>2009-10-18T10:22:17Z</time>
      </trkpt>
      <trkpt lat="44.56554" lon="4.22159">
        <ele>432.4</ele>
        <time>2009-10-18T10:22:19Z</time>
      </trkpt>
      <trkpt lat="44.56548" lon="4.22169">
        <ele>431.4</ele>
        <time>2009-10-18T10:22:21Z</time>
      </trkpt>
      <trkpt lat="44.56531" lon="4.22188">
        <ele>429.8</ele>
        <time>2009-10-18T10:22:26Z</time>
      </trkpt>
      <trkpt lat="44.56518" lon="4.22208">
        <ele>428.8</ele>
        <time>2009-10-18T10:22:34Z</time>
      </trkpt>
      <trkpt lat="44.56487" lon="4.22267">
        <ele>424.4</ele>
        <time>2009-10-18T10:22:44Z</time>
      </trkpt>
      <trkpt lat="44.56457" lon="4.22321">
        <ele>416.8</ele>
      </trkpt>
      <trkpt lat="44.56482" lon="4.22347">
        <ele>416.2</ele>
      </trkpt>
      <trkpt lat="44.56514" lon="4.22321">
        <ele>418.6</ele>
      </trkpt>
      <trkpt lat="44.56544" lon="4.22276">
        <ele>421.2</ele>
      </trkpt>
      <trkpt lat="44.56581" lon="4.22284">
        <ele>417.3</ele>
      </trkpt>
      <trkpt lat="44.56628" lon="4.223">
        <ele>417.1</ele>
      </trkpt>
      <trkpt lat="44.56642" lon="4.22321">
        <ele>416.4</ele>
      </trkpt>
      <trkpt lat="44.5667" lon="4.22368">
        <ele>419.1</ele>
      </trkpt>
      <trkpt lat="44.56679" lon="4.22397">
        <ele>421.9</ele>
      </trkpt>
      <trkpt lat="44.56681" lon="4.22426">
        <ele>424.3</ele>
      </trkpt>
      <trkpt lat="44.56664" lon="4.22437">
        <ele>422.7</ele>
      </trkpt>
      <trkpt lat="44.56658" lon="4.22452">
        <ele>423.5</ele>
      </trkpt>
      <trkpt lat="44.56658" lon="4.22468">
        <ele>425</ele>
      </trkpt>
      <trkpt lat="44.56648" lon="4.22505">
        <ele>426.2</ele>
      </trkpt>
      <trkpt lat="44.56637" lon="4.22543">
        <ele>424.4</ele>
      </trkpt>
      <trkpt lat="44.56635" lon="4.22578">
        <ele>423.9</ele>
      </trkpt>
      <trkpt lat="44.56641" lon="4.22613">
        <ele>423.2</ele>
      </trkpt>
      <trkpt lat="44.56652" lon="4.22683">
        <ele>421.8</ele>
      </trkpt>
      <trkpt lat="44.56661" lon="4.22704">
        <ele>422.3</ele>
      </trkpt>
      <trkpt lat="44.56656" lon="4.22742">
        <ele>420.7</ele>
      </trkpt>
      <trkpt lat="44.56651" lon="4.22772">
        <ele>419.2</ele>
      </trkpt>
      <trkpt lat="44.56654" lon="4.22789">
        <ele>419.2</ele>
      </trkpt>
      <trkpt lat="44.56669" lon="4.22815">
        <ele>420.9</ele>
      </trkpt>
      <trkpt lat="44.56692" lon="4.22835">
        <ele>423.9</ele>
      </trkpt>
      <trkpt lat="44.56704" lon="4.22843">
        <ele>425.3</ele>
      </trkpt>
    </trkseg>
  </trk>
</gpx>